PWSweather.com
Personal Weather Stations
Station Observations
DELRAY
Delray, Delray Beach, FL 33445

DelrayDelray Beach, FL 33445

Lat: 26.468, Lon: -80.094

Elevation: 30

Station Type: Acurite 01035

High Low Average
Temperature 79.9°F26.6°C 53.6°F12.0°C 66.9°F19.4°C
Dew Point 60.4°F15.8°C 51.3°F10.7°C 56.4°F13.6°C
Winds 17.6 mph 28.3 kmh Calm Calm 3.0 mph S4.8 kmh S
Wind Gusts 17.6 mph28.3 kmh -- 5.0 mph8.0 kmh
Humidity 95% 48% 71%
Pressure 30.07 in1018.3 mb 29.98 in1015.2 mb -
Precipitation 0.00 in0.0 mm - -
Hour Temp Dew Point Humidity Winds Wind Gusts Pressure Precip Precip Rate Daily Precip Total
12:00 AM 60.8°F16.0°C 53.5°F11.9°C 77% Calm Calm -- 30.06 in1017.9 mb 0.00 in0.0 mm 0.00 in0.0 mm 0.00 in0.0 mm
12:01 AM 60.8°F16.0°C 53.5°F11.9°C 77% Calm Calm -- 30.06 in1017.9 mb 0.00 in0.0 mm 0.00 in0.0 mm 0.00 in0.0 mm
12:02 AM 60.6°F15.9°C 53.3°F11.8°C 77% Calm Calm -- 30.06 in1017.9 mb 0.00 in0.0 mm 0.00 in0.0 mm 0.00 in0.0 mm
12:03 AM 60.6°F15.9°C 53.3°F11.8°C 77% Calm Calm -- 30.06 in1017.9 mb 0.00 in0.0 mm 0.00 in0.0 mm 0.00 in0.0 mm
12:04 AM 60.6°F15.9°C 53.3°F11.8°C 77% Calm Calm -- 30.06 in1017.9 mb 0.00 in0.0 mm 0.00 in0.0 mm 0.00 in0.0 mm
12:05 AM 60.4°F15.8°C 53.2°F11.8°C 77% Calm Calm -- 30.06 in1017.9 mb 0.00 in0.0 mm 0.00 in0.0 mm 0.00 in0.0 mm
12:06 AM 60.4°F15.8°C 53.5°F11.9°C 78% Calm Calm -- 30.06 in1017.9 mb 0.00 in0.0 mm 0.00 in0.0 mm 0.00 in0.0 mm
12:07 AM 60.4°F15.8°C 53.9°F12.2°C 79% Calm Calm -- 30.06 in1017.9 mb 0.00 in0.0 mm 0.00 in0.0 mm 0.00 in0.0 mm
12:08 AM 60.4°F15.8°C 53.9°F12.2°C 79% Calm Calm -- 30.06 in1017.9 mb 0.00 in0.0 mm 0.00 in0.0 mm 0.00 in0.0 mm
12:09 AM 60.4°F15.8°C 53.9°F12.2°C 79% Calm Calm -- 30.06 in1017.9 mb 0.00 in0.0 mm 0.00 in0.0 mm 0.00 in0.0 mm
12:10 AM 60.4°F15.8°C 53.9°F12.2°C 79% Calm Calm -- 30.06 in1017.9 mb 0.00 in0.0 mm 0.00 in0.0 mm 0.00 in0.0 mm
12:11 AM 60.3°F15.7°C 53.8°F12.1°C 79% Calm Calm -- 30.06 in1017.9 mb 0.00 in0.0 mm 0.00 in0.0 mm 0.00 in0.0 mm
12:12 AM 60.3°F15.7°C 53.8°F12.1°C 79% Calm Calm -- 30.06 in1017.9 mb 0.00 in0.0 mm 0.00 in0.0 mm 0.00 in0.0 mm
12:13 AM 60.1°F15.6°C 53.9°F12.2°C 80% Calm Calm -- 30.06 in1017.9 mb 0.00 in0.0 mm 0.00 in0.0 mm 0.00 in0.0 mm
12:14 AM 60.1°F15.6°C 53.9°F12.2°C 80% Calm Calm -- 30.06 in1017.9 mb 0.00 in0.0 mm 0.00 in0.0 mm 0.00 in0.0 mm
12:15 AM 60.1°F15.6°C 53.9°F12.2°C 80% Calm Calm -- 30.06 in1017.9 mb 0.00 in0.0 mm 0.00 in0.0 mm 0.00 in0.0 mm
12:16 AM 60.1°F15.6°C 54.2°F12.3°C 81% Calm Calm -- 30.06 in1017.9 mb 0.00 in0.0 mm 0.00 in0.0 mm 0.00 in0.0 mm
12:17 AM 59.9°F15.5°C 54.1°F12.3°C 81% Calm Calm -- 30.06 in1017.9 mb 0.00 in0.0 mm 0.00 in0.0 mm 0.00 in0.0 mm
12:18 AM 59.9°F15.5°C 54.4°F12.4°C 82% Calm Calm -- 30.06 in1017.9 mb 0.00 in0.0 mm 0.00 in0.0 mm 0.00 in0.0 mm
12:19 AM 59.9°F15.5°C 54.7°F12.6°C 83% Calm Calm -- 30.06 in1017.9 mb 0.00 in0.0 mm 0.00 in0.0 mm 0.00 in0.0 mm
12:20 AM 59.9°F15.5°C 54.7°F12.6°C 83% Calm Calm -- 30.06 in1017.9 mb 0.00 in0.0 mm 0.00 in0.0 mm 0.00 in0.0 mm
12:21 AM 59.9°F15.5°C 55.1°F12.8°C 84% Calm Calm -- 30.06 in1017.9 mb 0.00 in0.0 mm 0.00 in0.0 mm 0.00 in0.0 mm
12:22 AM 59.9°F15.5°C 55.1°F12.8°C 84% Calm Calm -- 30.06 in1017.9 mb 0.00 in0.0 mm 0.00 in0.0 mm 0.00 in0.0 mm
12:23 AM 59.9°F15.5°C 55.1°F12.8°C 84% Calm Calm -- 30.06 in1017.9 mb 0.00 in0.0 mm 0.00 in0.0 mm 0.00 in0.0 mm
12:24 AM 59.9°F15.5°C 55.1°F12.8°C 84% Calm Calm -- 30.06 in1017.9 mb 0.00 in0.0 mm 0.00 in0.0 mm 0.00 in0.0 mm
12:25 AM 59.9°F15.5°C 55.1°F12.8°C 84% Calm Calm -- 30.06 in1017.9 mb 0.00 in0.0 mm 0.00 in0.0 mm 0.00 in0.0 mm
12:26 AM 59.7°F15.4°C 54.9°F12.7°C 84% Calm Calm -- 30.06 in1017.9 mb 0.00 in0.0 mm 0.00 in0.0 mm 0.00 in0.0 mm
12:27 AM 59.7°F15.4°C 54.9°F12.7°C 84% Calm Calm -- 30.06 in1017.9 mb 0.00 in0.0 mm 0.00 in0.0 mm 0.00 in0.0 mm
12:28 AM 59.7°F15.4°C 54.9°F12.7°C 84% Calm Calm -- 30.06 in1017.9 mb 0.00 in0.0 mm 0.00 in0.0 mm 0.00 in0.0 mm
12:29 AM 59.7°F15.4°C 54.9°F12.7°C 84% Calm Calm -- 30.06 in1017.9 mb 0.00 in0.0 mm 0.00 in0.0 mm 0.00 in0.0 mm
12:30 AM 59.5°F15.3°C 54.7°F12.6°C 84% Calm Calm -- 30.06 in1017.9 mb 0.00 in0.0 mm 0.00 in0.0 mm 0.00 in0.0 mm
12:31 AM 59.5°F15.3°C 54.7°F12.6°C 84% Calm Calm -- 30.05 in1017.6 mb 0.00 in0.0 mm 0.00 in0.0 mm 0.00 in0.0 mm
12:32 AM 59.5°F15.3°C 54.7°F12.6°C 84% Calm Calm -- 30.05 in1017.6 mb 0.00 in0.0 mm 0.00 in0.0 mm 0.00 in0.0 mm
12:33 AM 59.5°F15.3°C 54.7°F12.6°C 84% Calm Calm -- 30.05 in1017.6 mb 0.00 in0.0 mm 0.00 in0.0 mm 0.00 in0.0 mm
12:34 AM 59.4°F15.2°C 54.6°F12.6°C 84% Calm Calm -- 30.05 in1017.6 mb 0.00 in0.0 mm 0.00 in0.0 mm 0.00 in0.0 mm
12:35 AM 59.4°F15.2°C 54.6°F12.6°C 84% Calm Calm -- 30.05 in1017.6 mb 0.00 in0.0 mm 0.00 in0.0 mm 0.00 in0.0 mm
12:36 AM 59.4°F15.2°C 54.6°F12.6°C 84% Calm Calm -- 30.05 in1017.6 mb 0.00 in0.0 mm 0.00 in0.0 mm 0.00 in0.0 mm
12:37 AM 59.4°F15.2°C 54.6°F12.6°C 84% Calm Calm -- 30.05 in1017.6 mb 0.00 in0.0 mm 0.00 in0.0 mm 0.00 in0.0 mm
12:38 AM 59.4°F15.2°C 54.6°F12.6°C 84% Calm Calm -- 30.05 in1017.6 mb 0.00 in0.0 mm 0.00 in0.0 mm 0.00 in0.0 mm
12:39 AM 59.4°F15.2°C 54.6°F12.6°C 84% Calm Calm -- 30.05 in1017.6 mb 0.00 in0.0 mm 0.00 in0.0 mm 0.00 in0.0 mm
12:40 AM 59.4°F15.2°C 54.6°F12.6°C 84% Calm Calm -- 30.05 in1017.6 mb 0.00 in0.0 mm 0.00 in0.0 mm 0.00 in0.0 mm
12:41 AM 59.4°F15.2°C 54.6°F12.6°C 84% Calm Calm -- 30.05 in1017.6 mb 0.00 in0.0 mm 0.00 in0.0 mm 0.00 in0.0 mm
12:42 AM 59.4°F15.2°C 54.6°F12.6°C 84% Calm Calm -- 30.05 in1017.6 mb 0.00 in0.0 mm 0.00 in0.0 mm 0.00 in0.0 mm
12:43 AM 59.2°F15.1°C 54.4°F12.4°C 84% Calm Calm -- 30.05 in1017.6 mb 0.00 in0.0 mm 0.00 in0.0 mm 0.00 in0.0 mm
12:44 AM 59.2°F15.1°C 54.4°F12.4°C 84% Calm Calm -- 30.05 in1017.6 mb 0.00 in0.0 mm 0.00 in0.0 mm 0.00 in0.0 mm
12:45 AM 59.0°F15.0°C 54.2°F12.3°C 84% Calm Calm -- 30.05 in1017.6 mb 0.00 in0.0 mm 0.00 in0.0 mm 0.00 in0.0 mm
12:46 AM 59.0°F15.0°C 54.2°F12.3°C 84% Calm Calm -- 30.05 in1017.6 mb 0.00 in0.0 mm 0.00 in0.0 mm 0.00 in0.0 mm
12:47 AM 59.0°F15.0°C 54.2°F12.3°C 84% Calm Calm -- 30.05 in1017.6 mb 0.00 in0.0 mm 0.00 in0.0 mm 0.00 in0.0 mm
12:48 AM 59.0°F15.0°C 54.2°F12.3°C 84% Calm Calm -- 30.05 in1017.6 mb 0.00 in0.0 mm 0.00 in0.0 mm 0.00 in0.0 mm
12:49 AM 58.8°F14.9°C 54.0°F12.2°C 84% Calm Calm -- 30.05 in1017.6 mb 0.00 in0.0 mm 0.00 in0.0 mm 0.00 in0.0 mm
12:50 AM 58.8°F14.9°C 54.0°F12.2°C 84% Calm Calm -- 30.05 in1017.6 mb 0.00 in0.0 mm 0.00 in0.0 mm 0.00 in0.0 mm
12:51 AM 58.8°F14.9°C 54.0°F12.2°C 84% Calm Calm -- 30.05 in1017.6 mb 0.00 in0.0 mm 0.00 in0.0 mm 0.00 in0.0 mm
12:52 AM 58.8°F14.9°C 54.0°F12.2°C 84% Calm Calm -- 30.05 in1017.6 mb 0.00 in0.0 mm 0.00 in0.0 mm 0.00 in0.0 mm
12:53 AM 58.8°F14.9°C 54.0°F12.2°C 84% Calm Calm -- 30.05 in1017.6 mb 0.00 in0.0 mm 0.00 in0.0 mm 0.00 in0.0 mm
12:54 AM 58.8°F14.9°C 54.0°F12.2°C 84% Calm Calm -- 30.05 in1017.6 mb 0.00 in0.0 mm 0.00 in0.0 mm 0.00 in0.0 mm
12:55 AM 58.6°F14.8°C 53.8°F12.1°C 84% Calm Calm -- 30.05 in1017.6 mb 0.00 in0.0 mm 0.00 in0.0 mm 0.00 in0.0 mm
12:56 AM 58.6°F14.8°C 53.8°F12.1°C 84% Calm Calm -- 30.05 in1017.6 mb 0.00 in0.0 mm 0.00 in0.0 mm 0.00 in0.0 mm
12:57 AM 58.6°F14.8°C 53.8°F12.1°C 84% Calm Calm -- 30.05 in1017.6 mb 0.00 in0.0 mm 0.00 in0.0 mm 0.00 in0.0 mm
12:58 AM 58.6°F14.8°C 53.8°F12.1°C 84% Calm Calm -- 30.05 in1017.6 mb 0.00 in0.0 mm 0.00 in0.0 mm 0.00 in0.0 mm
12:59 AM 58.6°F14.8°C 53.8°F12.1°C 84% Calm Calm -- 30.05 in1017.6 mb 0.00 in0.0 mm 0.00 in0.0 mm 0.00 in0.0 mm
01:00 AM 58.6°F14.8°C 53.8°F12.1°C 84% Calm Calm -- 30.05 in1017.6 mb 0.00 in0.0 mm 0.00 in0.0 mm 0.00 in0.0 mm
01:01 AM 58.6°F14.8°C 53.8°F12.1°C 84% Calm Calm -- 30.05 in1017.6 mb 0.00 in0.0 mm 0.00 in0.0 mm 0.00 in0.0 mm
01:02 AM 58.6°F14.8°C 53.8°F12.1°C 84% Calm Calm -- 30.05 in1017.6 mb 0.00 in0.0 mm 0.00 in0.0 mm 0.00 in0.0 mm
01:03 AM 58.5°F14.7°C 53.7°F12.1°C 84% Calm Calm -- 30.05 in1017.6 mb 0.00 in0.0 mm 0.00 in0.0 mm 0.00 in0.0 mm
01:04 AM 58.5°F14.7°C 53.7°F12.1°C 84% Calm Calm -- 30.05 in1017.6 mb 0.00 in0.0 mm 0.00 in0.0 mm 0.00 in0.0 mm
01:05 AM 58.5°F14.7°C 53.7°F12.1°C 84% Calm Calm -- 30.05 in1017.6 mb 0.00 in0.0 mm 0.00 in0.0 mm 0.00 in0.0 mm
01:06 AM 58.5°F14.7°C 53.7°F12.1°C 84% Calm Calm -- 30.05 in1017.6 mb 0.00 in0.0 mm 0.00 in0.0 mm 0.00 in0.0 mm
01:07 AM 58.5°F14.7°C 53.7°F12.1°C 84% Calm Calm -- 30.05 in1017.6 mb 0.00 in0.0 mm 0.00 in0.0 mm 0.00 in0.0 mm
01:08 AM 58.5°F14.7°C 53.7°F12.1°C 84% Calm Calm -- 30.05 in1017.6 mb 0.00 in0.0 mm 0.00 in0.0 mm 0.00 in0.0 mm
01:09 AM 58.5°F14.7°C 53.7°F12.1°C 84% Calm Calm -- 30.05 in1017.6 mb 0.00 in0.0 mm 0.00 in0.0 mm 0.00 in0.0 mm
01:10 AM 58.3°F14.6°C 53.5°F11.9°C 84% Calm Calm -- 30.05 in1017.6 mb 0.00 in0.0 mm 0.00 in0.0 mm 0.00 in0.0 mm
01:11 AM 58.3°F14.6°C 53.5°F11.9°C 84% Calm Calm -- 30.05 in1017.6 mb 0.00 in0.0 mm 0.00 in0.0 mm 0.00 in0.0 mm
01:12 AM 58.3°F14.6°C 53.5°F11.9°C 84% Calm Calm -- 30.05 in1017.6 mb 0.00 in0.0 mm 0.00 in0.0 mm 0.00 in0.0 mm
01:13 AM 58.3°F14.6°C 53.5°F11.9°C 84% Calm Calm -- 30.05 in1017.6 mb 0.00 in0.0 mm 0.00 in0.0 mm 0.00 in0.0 mm
01:14 AM 58.3°F14.6°C 53.5°F11.9°C 84% Calm Calm -- 30.05 in1017.6 mb 0.00 in0.0 mm 0.00 in0.0 mm 0.00 in0.0 mm
01:15 AM 58.3°F14.6°C 53.5°F11.9°C 84% Calm Calm -- 30.05 in1017.6 mb 0.00 in0.0 mm 0.00 in0.0 mm 0.00 in0.0 mm
01:16 AM 58.3°F14.6°C 53.5°F11.9°C 84% Calm Calm -- 30.05 in1017.6 mb 0.00 in0.0 mm 0.00 in0.0 mm 0.00 in0.0 mm
01:17 AM 58.1°F14.5°C 53.3°F11.8°C 84% Calm Calm -- 30.05 in1017.6 mb 0.00 in0.0 mm 0.00 in0.0 mm 0.00 in0.0 mm
01:18 AM 58.1°F14.5°C 53.3°F11.8°C 84% Calm Calm -- 30.05 in1017.6 mb 0.00 in0.0 mm 0.00 in0.0 mm 0.00 in0.0 mm
01:19 AM 58.1°F14.5°C 53.3°F11.8°C 84% Calm Calm -- 30.05 in1017.6 mb 0.00 in0.0 mm 0.00 in0.0 mm 0.00 in0.0 mm
01:20 AM 58.1°F14.5°C 53.6°F12.0°C 85% Calm Calm -- 30.05 in1017.6 mb 0.00 in0.0 mm 0.00 in0.0 mm 0.00 in0.0 mm
01:21 AM 57.9°F14.4°C 53.4°F11.9°C 85% Calm Calm -- 30.05 in1017.6 mb 0.00 in0.0 mm 0.00 in0.0 mm 0.00 in0.0 mm
01:22 AM 57.9°F14.4°C 53.7°F12.1°C 86% Calm Calm -- 30.05 in1017.6 mb 0.00 in0.0 mm 0.00 in0.0 mm 0.00 in0.0 mm
01:23 AM 57.9°F14.4°C 53.7°F12.1°C 86% Calm Calm -- 30.05 in1017.6 mb 0.00 in0.0 mm 0.00 in0.0 mm 0.00 in0.0 mm
01:24 AM 57.9°F14.4°C 53.7°F12.1°C 86% Calm Calm -- 30.05 in1017.6 mb 0.00 in0.0 mm 0.00 in0.0 mm 0.00 in0.0 mm
01:25 AM 57.9°F14.4°C 53.7°F12.1°C 86% Calm Calm -- 30.05 in1017.6 mb 0.00 in0.0 mm 0.00 in0.0 mm 0.00 in0.0 mm
01:26 AM 57.9°F14.4°C 53.7°F12.1°C 86% Calm Calm -- 30.05 in1017.6 mb 0.00 in0.0 mm 0.00 in0.0 mm 0.00 in0.0 mm
01:27 AM 57.9°F14.4°C 53.7°F12.1°C 86% Calm Calm -- 30.05 in1017.6 mb 0.00 in0.0 mm 0.00 in0.0 mm 0.00 in0.0 mm
01:28 AM 57.9°F14.4°C 53.7°F12.1°C 86% Calm Calm -- 30.05 in1017.6 mb 0.00 in0.0 mm 0.00 in0.0 mm 0.00 in0.0 mm
01:29 AM 57.9°F14.4°C 53.7°F12.1°C 86% Calm Calm -- 30.05 in1017.6 mb 0.00 in0.0 mm 0.00 in0.0 mm 0.00 in0.0 mm
01:30 AM 57.7°F14.3°C 53.5°F11.9°C 86% Calm Calm -- 30.05 in1017.6 mb 0.00 in0.0 mm 0.00 in0.0 mm 0.00 in0.0 mm
01:31 AM 57.7°F14.3°C 53.5°F11.9°C 86% Calm Calm -- 30.04 in1017.3 mb 0.00 in0.0 mm 0.00 in0.0 mm 0.00 in0.0 mm
01:32 AM 57.7°F14.3°C 53.5°F11.9°C 86% Calm Calm -- 30.04 in1017.3 mb 0.00 in0.0 mm 0.00 in0.0 mm 0.00 in0.0 mm
01:33 AM 57.7°F14.3°C 53.5°F11.9°C 86% Calm Calm -- 30.04 in1017.3 mb 0.00 in0.0 mm 0.00 in0.0 mm 0.00 in0.0 mm
01:34 AM 57.7°F14.3°C 53.5°F11.9°C 86% Calm Calm -- 30.04 in1017.3 mb 0.00 in0.0 mm 0.00 in0.0 mm 0.00 in0.0 mm
01:35 AM 57.7°F14.3°C 53.5°F11.9°C 86% Calm Calm -- 30.04 in1017.3 mb 0.00 in0.0 mm 0.00 in0.0 mm 0.00 in0.0 mm
01:36 AM 57.7°F14.3°C 53.5°F11.9°C 86% Calm Calm -- 30.04 in1017.3 mb 0.00 in0.0 mm 0.00 in0.0 mm 0.00 in0.0 mm
01:37 AM 57.7°F14.3°C 53.2°F11.8°C 85% Calm Calm -- 30.04 in1017.3 mb 0.00 in0.0 mm 0.00 in0.0 mm 0.00 in0.0 mm
01:38 AM 57.7°F14.3°C 53.2°F11.8°C 85% Calm Calm -- 30.04 in1017.3 mb 0.00 in0.0 mm 0.00 in0.0 mm 0.00 in0.0 mm
01:39 AM 57.6°F14.2°C 53.1°F11.7°C 85% Calm Calm -- 30.04 in1017.3 mb 0.00 in0.0 mm 0.00 in0.0 mm 0.00 in0.0 mm
01:40 AM 57.6°F14.2°C 53.1°F11.7°C 85% Calm Calm -- 30.04 in1017.3 mb 0.00 in0.0 mm 0.00 in0.0 mm 0.00 in0.0 mm
01:41 AM 57.6°F14.2°C 53.4°F11.9°C 86% Calm Calm -- 30.04 in1017.3 mb 0.00 in0.0 mm 0.00 in0.0 mm 0.00 in0.0 mm
01:42 AM 57.6°F14.2°C 53.4°F11.9°C 86% Calm Calm -- 30.04 in1017.3 mb 0.00 in0.0 mm 0.00 in0.0 mm 0.00 in0.0 mm
01:43 AM 57.6°F14.2°C 53.8°F12.1°C 87% Calm Calm -- 30.04 in1017.3 mb 0.00 in0.0 mm 0.00 in0.0 mm 0.00 in0.0 mm
01:44 AM 57.6°F14.2°C 53.8°F12.1°C 87% Calm Calm -- 30.04 in1017.3 mb 0.00 in0.0 mm 0.00 in0.0 mm 0.00 in0.0 mm
01:45 AM 57.4°F14.1°C 53.6°F12.0°C 87% Calm Calm -- 30.04 in1017.3 mb 0.00 in0.0 mm 0.00 in0.0 mm 0.00 in0.0 mm
01:46 AM 57.4°F14.1°C 53.6°F12.0°C 87% Calm Calm -- 30.04 in1017.3 mb 0.00 in0.0 mm 0.00 in0.0 mm 0.00 in0.0 mm
01:47 AM 57.4°F14.1°C 53.6°F12.0°C 87% Calm Calm -- 30.04 in1017.3 mb 0.00 in0.0 mm 0.00 in0.0 mm 0.00 in0.0 mm
01:48 AM 57.4°F14.1°C 53.6°F12.0°C 87% Calm Calm -- 30.04 in1017.3 mb 0.00 in0.0 mm 0.00 in0.0 mm 0.00 in0.0 mm
01:49 AM 57.4°F14.1°C 53.6°F12.0°C 87% Calm Calm -- 30.04 in1017.3 mb 0.00 in0.0 mm 0.00 in0.0 mm 0.00 in0.0 mm
01:50 AM 57.4°F14.1°C 53.6°F12.0°C 87% Calm Calm -- 30.04 in1017.3 mb 0.00 in0.0 mm 0.00 in0.0 mm 0.00 in0.0 mm
01:51 AM 57.4°F14.1°C 53.6°F12.0°C 87% Calm Calm -- 30.04 in1017.3 mb 0.00 in0.0 mm 0.00 in0.0 mm 0.00 in0.0 mm
01:52 AM 57.4°F14.1°C 53.6°F12.0°C 87% Calm Calm -- 30.04 in1017.3 mb 0.00 in0.0 mm 0.00 in0.0 mm 0.00 in0.0 mm
01:53 AM 57.4°F14.1°C 53.6°F12.0°C 87% Calm Calm -- 30.04 in1017.3 mb 0.00 in0.0 mm 0.00 in0.0 mm 0.00 in0.0 mm
01:54 AM 57.2°F14.0°C 53.4°F11.9°C 87% Calm Calm -- 30.04 in1017.3 mb 0.00 in0.0 mm 0.00 in0.0 mm 0.00 in0.0 mm
01:55 AM 57.2°F14.0°C 53.4°F11.9°C 87% Calm Calm -- 30.04 in1017.3 mb 0.00 in0.0 mm 0.00 in0.0 mm 0.00 in0.0 mm
01:56 AM 57.2°F14.0°C 53.4°F11.9°C 87% Calm Calm -- 30.04 in1017.3 mb 0.00 in0.0 mm 0.00 in0.0 mm 0.00 in0.0 mm
01:57 AM 57.2°F14.0°C 53.4°F11.9°C 87% Calm Calm -- 30.04 in1017.3 mb 0.00 in0.0 mm 0.00 in0.0 mm 0.00 in0.0 mm
01:58 AM 57.2°F14.0°C 53.4°F11.9°C 87% Calm Calm -- 30.04 in1017.3 mb 0.00 in0.0 mm 0.00 in0.0 mm 0.00 in0.0 mm
01:59 AM 57.2°F14.0°C 53.4°F11.9°C 87% Calm Calm -- 30.04 in1017.3 mb 0.00 in0.0 mm 0.00 in0.0 mm 0.00 in0.0 mm
02:00 AM 57.2°F14.0°C 53.4°F11.9°C 87% Calm Calm -- 30.04 in1017.3 mb 0.00 in0.0 mm 0.00 in0.0 mm 0.00 in0.0 mm
02:01 AM 57.2°F14.0°C 53.7°F12.1°C 88% Calm Calm -- 30.04 in1017.3 mb 0.00 in0.0 mm 0.00 in0.0 mm 0.00 in0.0 mm
02:02 AM 57.2°F14.0°C 53.7°F12.1°C 88% Calm Calm -- 30.04 in1017.3 mb 0.00 in0.0 mm 0.00 in0.0 mm 0.00 in0.0 mm
02:03 AM 57.2°F14.0°C 53.7°F12.1°C 88% Calm Calm -- 30.04 in1017.3 mb 0.00 in0.0 mm 0.00 in0.0 mm 0.00 in0.0 mm
02:04 AM 57.2°F14.0°C 53.7°F12.1°C 88% Calm Calm -- 30.04 in1017.3 mb 0.00 in0.0 mm 0.00 in0.0 mm 0.00 in0.0 mm
02:05 AM 57.2°F14.0°C 54.0°F12.2°C 89% Calm Calm -- 30.04 in1017.3 mb 0.00 in0.0 mm 0.00 in0.0 mm 0.00 in0.0 mm
02:06 AM 57.2°F14.0°C 54.0°F12.2°C 89% Calm Calm -- 30.04 in1017.3 mb 0.00 in0.0 mm 0.00 in0.0 mm 0.00 in0.0 mm
02:07 AM 57.2°F14.0°C 54.0°F12.2°C 89% Calm Calm -- 30.03 in1016.9 mb 0.00 in0.0 mm 0.00 in0.0 mm 0.00 in0.0 mm
02:08 AM 57.2°F14.0°C 54.0°F12.2°C 89% Calm Calm -- 30.03 in1016.9 mb 0.00 in0.0 mm 0.00 in0.0 mm 0.00 in0.0 mm
02:09 AM 57.2°F14.0°C 54.0°F12.2°C 89% Calm Calm -- 30.03 in1016.9 mb 0.00 in0.0 mm 0.00 in0.0 mm 0.00 in0.0 mm
02:10 AM 57.2°F14.0°C 54.0°F12.2°C 89% Calm Calm -- 30.03 in1016.9 mb 0.00 in0.0 mm 0.00 in0.0 mm 0.00 in0.0 mm
02:11 AM 57.2°F14.0°C 54.0°F12.2°C 89% Calm Calm -- 30.03 in1016.9 mb 0.00 in0.0 mm 0.00 in0.0 mm 0.00 in0.0 mm
02:12 AM 57.2°F14.0°C 54.0°F12.2°C 89% Calm Calm -- 30.03 in1016.9 mb 0.00 in0.0 mm 0.00 in0.0 mm 0.00 in0.0 mm
02:13 AM 57.2°F14.0°C 54.0°F12.2°C 89% Calm Calm -- 30.03 in1016.9 mb 0.00 in0.0 mm 0.00 in0.0 mm 0.00 in0.0 mm
02:14 AM 57.0°F13.9°C 53.8°F12.1°C 89% Calm Calm -- 30.03 in1016.9 mb 0.00 in0.0 mm 0.00 in0.0 mm 0.00 in0.0 mm
02:15 AM 57.0°F13.9°C 53.8°F12.1°C 89% Calm Calm -- 30.03 in1016.9 mb 0.00 in0.0 mm 0.00 in0.0 mm 0.00 in0.0 mm
02:16 AM 57.0°F13.9°C 53.8°F12.1°C 89% Calm Calm -- 30.03 in1016.9 mb 0.00 in0.0 mm 0.00 in0.0 mm 0.00 in0.0 mm
02:17 AM 57.0°F13.9°C 53.8°F12.1°C 89% Calm Calm -- 30.03 in1016.9 mb 0.00 in0.0 mm 0.00 in0.0 mm 0.00 in0.0 mm
02:18 AM 57.0°F13.9°C 53.8°F12.1°C 89% Calm Calm -- 30.03 in1016.9 mb 0.00 in0.0 mm 0.00 in0.0 mm 0.00 in0.0 mm
02:19 AM 57.0°F13.9°C 53.8°F12.1°C 89% Calm Calm -- 30.04 in1017.3 mb 0.00 in0.0 mm 0.00 in0.0 mm 0.00 in0.0 mm
02:20 AM 57.0°F13.9°C 53.8°F12.1°C 89% Calm Calm -- 30.04 in1017.3 mb 0.00 in0.0 mm 0.00 in0.0 mm 0.00 in0.0 mm
02:21 AM 56.8°F13.8°C 53.6°F12.0°C 89% Calm Calm -- 30.04 in1017.3 mb 0.00 in0.0 mm 0.00 in0.0 mm 0.00 in0.0 mm
02:22 AM 56.8°F13.8°C 53.6°F12.0°C 89% Calm Calm -- 30.04 in1017.3 mb 0.00 in0.0 mm 0.00 in0.0 mm 0.00 in0.0 mm
02:23 AM 56.8°F13.8°C 53.6°F12.0°C 89% Calm Calm -- 30.04 in1017.3 mb 0.00 in0.0 mm 0.00 in0.0 mm 0.00 in0.0 mm
02:24 AM 56.8°F13.8°C 53.6°F12.0°C 89% Calm Calm -- 30.04 in1017.3 mb 0.00 in0.0 mm 0.00 in0.0 mm 0.00 in0.0 mm
02:25 AM 56.8°F13.8°C 53.6°F12.0°C 89% Calm Calm -- 30.04 in1017.3 mb 0.00 in0.0 mm 0.00 in0.0 mm 0.00 in0.0 mm
02:26 AM 56.8°F13.8°C 53.6°F12.0°C 89% Calm Calm -- 30.04 in1017.3 mb 0.00 in0.0 mm 0.00 in0.0 mm 0.00 in0.0 mm
02:27 AM 56.8°F13.8°C 53.6°F12.0°C 89% Calm Calm -- 30.04 in1017.3 mb 0.00 in0.0 mm 0.00 in0.0 mm 0.00 in0.0 mm
02:28 AM 56.7°F13.7°C 53.5°F11.9°C 89% Calm Calm -- 30.04 in1017.3 mb 0.00 in0.0 mm 0.00 in0.0 mm 0.00 in0.0 mm
02:29 AM 56.7°F13.7°C 53.5°F11.9°C 89% Calm Calm -- 30.04 in1017.3 mb 0.00 in0.0 mm 0.00 in0.0 mm 0.00 in0.0 mm
02:30 AM 56.7°F13.7°C 53.5°F11.9°C 89% Calm Calm -- 30.04 in1017.3 mb 0.00 in0.0 mm 0.00 in0.0 mm 0.00 in0.0 mm
02:31 AM 56.7°F13.7°C 53.5°F11.9°C 89% Calm Calm -- 30.04 in1017.3 mb 0.00 in0.0 mm 0.00 in0.0 mm 0.00 in0.0 mm
02:32 AM 56.7°F13.7°C 53.5°F11.9°C 89% Calm Calm -- 30.04 in1017.3 mb 0.00 in0.0 mm 0.00 in0.0 mm 0.00 in0.0 mm
02:33 AM 56.7°F13.7°C 53.5°F11.9°C 89% Calm Calm -- 30.04 in1017.3 mb 0.00 in0.0 mm 0.00 in0.0 mm 0.00 in0.0 mm
02:34 AM 56.7°F13.7°C 53.5°F11.9°C 89% Calm Calm -- 30.04 in1017.3 mb 0.00 in0.0 mm 0.00 in0.0 mm 0.00 in0.0 mm
02:35 AM 56.7°F13.7°C 53.5°F11.9°C 89% Calm Calm -- 30.04 in1017.3 mb 0.00 in0.0 mm 0.00 in0.0 mm 0.00 in0.0 mm
02:36 AM 56.5°F13.6°C 53.3°F11.8°C 89% Calm Calm -- 30.04 in1017.3 mb 0.00 in0.0 mm 0.00 in0.0 mm 0.00 in0.0 mm
02:37 AM 56.5°F13.6°C 53.3°F11.8°C 89% Calm Calm -- 30.04 in1017.3 mb 0.00 in0.0 mm 0.00 in0.0 mm 0.00 in0.0 mm
02:38 AM 56.5°F13.6°C 53.3°F11.8°C 89% Calm Calm -- 30.04 in1017.3 mb 0.00 in0.0 mm 0.00 in0.0 mm 0.00 in0.0 mm
02:39 AM 56.5°F13.6°C 53.3°F11.8°C 89% Calm Calm -- 30.04 in1017.3 mb 0.00 in0.0 mm 0.00 in0.0 mm 0.00 in0.0 mm
02:40 AM 56.3°F13.5°C 53.1°F11.7°C 89% Calm Calm -- 30.04 in1017.3 mb 0.00 in0.0 mm 0.00 in0.0 mm 0.00 in0.0 mm
02:41 AM 56.3°F13.5°C 53.1°F11.7°C 89% Calm Calm -- 30.04 in1017.3 mb 0.00 in0.0 mm 0.00 in0.0 mm 0.00 in0.0 mm
02:42 AM 56.3°F13.5°C 53.1°F11.7°C 89% Calm Calm -- 30.04 in1017.3 mb 0.00 in0.0 mm 0.00 in0.0 mm 0.00 in0.0 mm
02:43 AM 56.3°F13.5°C 53.1°F11.7°C 89% Calm Calm -- 30.03 in1016.9 mb 0.00 in0.0 mm 0.00 in0.0 mm 0.00 in0.0 mm
02:44 AM 56.3°F13.5°C 53.1°F11.7°C 89% Calm Calm -- 30.03 in1016.9 mb 0.00 in0.0 mm 0.00 in0.0 mm 0.00 in0.0 mm
02:45 AM 56.3°F13.5°C 53.1°F11.7°C 89% Calm Calm -- 30.03 in1016.9 mb 0.00 in0.0 mm 0.00 in0.0 mm 0.00 in0.0 mm
02:46 AM 56.3°F13.5°C 53.1°F11.7°C 89% Calm Calm -- 30.03 in1016.9 mb 0.00 in0.0 mm 0.00 in0.0 mm 0.00 in0.0 mm
02:47 AM 56.1°F13.4°C 52.9°F11.6°C 89% Calm Calm -- 30.03 in1016.9 mb 0.00 in0.0 mm 0.00 in0.0 mm 0.00 in0.0 mm
02:48 AM 56.1°F13.4°C 52.9°F11.6°C 89% Calm Calm -- 30.03 in1016.9 mb 0.00 in0.0 mm 0.00 in0.0 mm 0.00 in0.0 mm
02:49 AM 56.1°F13.4°C 52.9°F11.6°C 89% Calm Calm -- 30.03 in1016.9 mb 0.00 in0.0 mm 0.00 in0.0 mm 0.00 in0.0 mm
02:50 AM 56.1°F13.4°C 52.9°F11.6°C 89% Calm Calm -- 30.03 in1016.9 mb 0.00 in0.0 mm 0.00 in0.0 mm 0.00 in0.0 mm
02:51 AM 56.1°F13.4°C 52.9°F11.6°C 89% Calm Calm -- 30.03 in1016.9 mb 0.00 in0.0 mm 0.00 in0.0 mm 0.00 in0.0 mm
02:52 AM 56.1°F13.4°C 52.9°F11.6°C 89% Calm Calm -- 30.03 in1016.9 mb 0.00 in0.0 mm 0.00 in0.0 mm 0.00 in0.0 mm
02:53 AM 56.1°F13.4°C 52.9°F11.6°C 89% Calm Calm -- 30.03 in1016.9 mb 0.00 in0.0 mm 0.00 in0.0 mm 0.00 in0.0 mm
02:54 AM 56.1°F13.4°C 52.9°F11.6°C 89% Calm Calm -- 30.03 in1016.9 mb 0.00 in0.0 mm 0.00 in0.0 mm 0.00 in0.0 mm
02:55 AM 56.1°F13.4°C 52.9°F11.6°C 89% Calm Calm -- 30.03 in1016.9 mb 0.00 in0.0 mm 0.00 in0.0 mm 0.00 in0.0 mm
02:56 AM 56.1°F13.4°C 52.9°F11.6°C 89% Calm Calm -- 30.03 in1016.9 mb 0.00 in0.0 mm 0.00 in0.0 mm 0.00 in0.0 mm
02:57 AM 56.1°F13.4°C 52.9°F11.6°C 89% Calm Calm -- 30.03 in1016.9 mb 0.00 in0.0 mm 0.00 in0.0 mm 0.00 in0.0 mm
02:58 AM 56.1°F13.4°C 52.9°F11.6°C 89% Calm Calm -- 30.03 in1016.9 mb 0.00 in0.0 mm 0.00 in0.0 mm 0.00 in0.0 mm
02:59 AM 56.1°F13.4°C 52.9°F11.6°C 89% Calm Calm -- 30.03 in1016.9 mb 0.00 in0.0 mm 0.00 in0.0 mm 0.00 in0.0 mm
03:00 AM 56.1°F13.4°C 52.9°F11.6°C 89% Calm Calm -- 30.03 in1016.9 mb 0.00 in0.0 mm 0.00 in0.0 mm 0.00 in0.0 mm
03:01 AM 56.1°F13.4°C 52.9°F11.6°C 89% Calm Calm -- 30.03 in1016.9 mb 0.00 in0.0 mm 0.00 in0.0 mm 0.00 in0.0 mm
03:02 AM 55.9°F13.3°C 52.7°F11.5°C 89% Calm Calm -- 30.03 in1016.9 mb 0.00 in0.0 mm 0.00 in0.0 mm 0.00 in0.0 mm
03:03 AM 55.9°F13.3°C 52.7°F11.5°C 89% Calm Calm -- 30.03 in1016.9 mb 0.00 in0.0 mm 0.00 in0.0 mm 0.00 in0.0 mm
03:04 AM 55.9°F13.3°C 52.7°F11.5°C 89% Calm Calm -- 30.03 in1016.9 mb 0.00 in0.0 mm 0.00 in0.0 mm 0.00 in0.0 mm
03:05 AM 55.9°F13.3°C 52.7°F11.5°C 89% Calm Calm -- 30.03 in1016.9 mb 0.00 in0.0 mm 0.00 in0.0 mm 0.00 in0.0 mm
03:06 AM 55.9°F13.3°C 52.7°F11.5°C 89% Calm Calm -- 30.03 in1016.9 mb 0.00 in0.0 mm 0.00 in0.0 mm 0.00 in0.0 mm
03:07 AM 55.9°F13.3°C 52.7°F11.5°C 89% Calm Calm -- 30.03 in1016.9 mb 0.00 in0.0 mm 0.00 in0.0 mm 0.00 in0.0 mm
03:08 AM 55.9°F13.3°C 52.7°F11.5°C 89% Calm Calm -- 30.03 in1016.9 mb 0.00 in0.0 mm 0.00 in0.0 mm 0.00 in0.0 mm
03:09 AM 55.9°F13.3°C 53.0°F11.7°C 90% Calm Calm -- 30.03 in1016.9 mb 0.00 in0.0 mm 0.00 in0.0 mm 0.00 in0.0 mm
03:10 AM 55.9°F13.3°C 53.0°F11.7°C 90% Calm Calm -- 30.03 in1016.9 mb 0.00 in0.0 mm 0.00 in0.0 mm 0.00 in0.0 mm
03:11 AM 55.9°F13.3°C 53.0°F11.7°C 90% Calm Calm -- 30.03 in1016.9 mb 0.00 in0.0 mm 0.00 in0.0 mm 0.00 in0.0 mm
03:12 AM 55.9°F13.3°C 53.0°F11.7°C 90% Calm Calm -- 30.03 in1016.9 mb 0.00 in0.0 mm 0.00 in0.0 mm 0.00 in0.0 mm
03:13 AM 55.9°F13.3°C 53.0°F11.7°C 90% Calm Calm -- 30.03 in1016.9 mb 0.00 in0.0 mm 0.00 in0.0 mm 0.00 in0.0 mm
03:14 AM 55.9°F13.3°C 53.0°F11.7°C 90% Calm Calm -- 30.03 in1016.9 mb 0.00 in0.0 mm 0.00 in0.0 mm 0.00 in0.0 mm
03:15 AM 55.9°F13.3°C 53.0°F11.7°C 90% Calm Calm -- 30.03 in1016.9 mb 0.00 in0.0 mm 0.00 in0.0 mm 0.00 in0.0 mm
03:16 AM 55.9°F13.3°C 53.0°F11.7°C 90% Calm Calm -- 30.03 in1016.9 mb 0.00 in0.0 mm 0.00 in0.0 mm 0.00 in0.0 mm
03:17 AM 55.9°F13.3°C 53.0°F11.7°C 90% Calm Calm -- 30.03 in1016.9 mb 0.00 in0.0 mm 0.00 in0.0 mm 0.00 in0.0 mm
03:18 AM 55.9°F13.3°C 53.0°F11.7°C 90% Calm Calm -- 30.03 in1016.9 mb 0.00 in0.0 mm 0.00 in0.0 mm 0.00 in0.0 mm
03:19 AM 55.8°F13.2°C 52.9°F11.6°C 90% Calm Calm -- 30.02 in1016.6 mb 0.00 in0.0 mm 0.00 in0.0 mm 0.00 in0.0 mm
03:20 AM 55.8°F13.2°C 52.9°F11.6°C 90% Calm Calm -- 30.02 in1016.6 mb 0.00 in0.0 mm 0.00 in0.0 mm 0.00 in0.0 mm
03:21 AM 55.8°F13.2°C 52.9°F11.6°C 90% Calm Calm -- 30.02 in1016.6 mb 0.00 in0.0 mm 0.00 in0.0 mm 0.00 in0.0 mm
03:22 AM 55.8°F13.2°C 52.9°F11.6°C 90% Calm Calm -- 30.02 in1016.6 mb 0.00 in0.0 mm 0.00 in0.0 mm 0.00 in0.0 mm
03:23 AM 55.8°F13.2°C 52.9°F11.6°C 90% Calm Calm -- 30.02 in1016.6 mb 0.00 in0.0 mm 0.00 in0.0 mm 0.00 in0.0 mm
03:24 AM 55.8°F13.2°C 52.9°F11.6°C 90% Calm Calm -- 30.02 in1016.6 mb 0.00 in0.0 mm 0.00 in0.0 mm 0.00 in0.0 mm
03:25 AM 55.8°F13.2°C 52.9°F11.6°C 90% Calm Calm -- 30.02 in1016.6 mb 0.00 in0.0 mm 0.00 in0.0 mm 0.00 in0.0 mm
03:26 AM 55.8°F13.2°C 52.9°F11.6°C 90% Calm Calm -- 30.02 in1016.6 mb 0.00 in0.0 mm 0.00 in0.0 mm 0.00 in0.0 mm
03:27 AM 55.8°F13.2°C 52.9°F11.6°C 90% Calm Calm -- 30.02 in1016.6 mb 0.00 in0.0 mm 0.00 in0.0 mm 0.00 in0.0 mm
03:28 AM 55.8°F13.2°C 52.9°F11.6°C 90% Calm Calm -- 30.02 in1016.6 mb 0.00 in0.0 mm 0.00 in0.0 mm 0.00 in0.0 mm
03:29 AM 55.8°F13.2°C 52.9°F11.6°C 90% Calm Calm -- 30.02 in1016.6 mb 0.00 in0.0 mm 0.00 in0.0 mm 0.00 in0.0 mm
03:30 AM 55.8°F13.2°C 52.9°F11.6°C 90% Calm Calm -- 30.02 in1016.6 mb 0.00 in0.0 mm 0.00 in0.0 mm 0.00 in0.0 mm
03:31 AM 55.8°F13.2°C 52.9°F11.6°C 90% Calm Calm -- 30.02 in1016.6 mb 0.00 in0.0 mm 0.00 in0.0 mm 0.00 in0.0 mm
03:32 AM 55.8°F13.2°C 52.9°F11.6°C 90% Calm Calm -- 30.02 in1016.6 mb 0.00 in0.0 mm 0.00 in0.0 mm 0.00 in0.0 mm
03:33 AM 55.8°F13.2°C 52.9°F11.6°C 90% Calm Calm -- 30.02 in1016.6 mb 0.00 in0.0 mm 0.00 in0.0 mm 0.00 in0.0 mm
03:34 AM 55.8°F13.2°C 52.9°F11.6°C 90% Calm Calm -- 30.02 in1016.6 mb 0.00 in0.0 mm 0.00 in0.0 mm 0.00 in0.0 mm
03:35 AM 55.8°F13.2°C 52.9°F11.6°C 90% Calm Calm -- 30.02 in1016.6 mb 0.00 in0.0 mm 0.00 in0.0 mm 0.00 in0.0 mm
03:36 AM 55.8°F13.2°C 52.9°F11.6°C 90% Calm Calm -- 30.02 in1016.6 mb 0.00 in0.0 mm 0.00 in0.0 mm 0.00 in0.0 mm
03:37 AM 55.8°F13.2°C 52.9°F11.6°C 90% Calm Calm -- 30.02 in1016.6 mb 0.00 in0.0 mm 0.00 in0.0 mm 0.00 in0.0 mm
03:38 AM 55.8°F13.2°C 52.9°F11.6°C 90% Calm Calm -- 30.02 in1016.6 mb 0.00 in0.0 mm 0.00 in0.0 mm 0.00 in0.0 mm
03:39 AM 55.8°F13.2°C 52.9°F11.6°C 90% Calm Calm -- 30.02 in1016.6 mb 0.00 in0.0 mm 0.00 in0.0 mm 0.00 in0.0 mm
03:40 AM 55.8°F13.2°C 52.9°F11.6°C 90% Calm Calm -- 30.02 in1016.6 mb 0.00 in0.0 mm 0.00 in0.0 mm 0.00 in0.0 mm
03:41 AM 55.8°F13.2°C 52.9°F11.6°C 90% Calm Calm -- 30.02 in1016.6 mb 0.00 in0.0 mm 0.00 in0.0 mm 0.00 in0.0 mm
03:42 AM 55.6°F13.1°C 52.7°F11.5°C 90% Calm Calm -- 30.02 in1016.6 mb 0.00 in0.0 mm 0.00 in0.0 mm 0.00 in0.0 mm
03:43 AM 55.6°F13.1°C 52.7°F11.5°C 90% Calm Calm -- 30.02 in1016.6 mb 0.00 in0.0 mm 0.00 in0.0 mm 0.00 in0.0 mm
03:44 AM 55.6°F13.1°C 52.7°F11.5°C 90% Calm Calm -- 30.02 in1016.6 mb 0.00 in0.0 mm 0.00 in0.0 mm 0.00 in0.0 mm
03:45 AM 55.6°F13.1°C 52.7°F11.5°C 90% Calm Calm -- 30.02 in1016.6 mb 0.00 in0.0 mm 0.00 in0.0 mm 0.00 in0.0 mm
03:46 AM 55.6°F13.1°C 52.7°F11.5°C 90% Calm Calm -- 30.02 in1016.6 mb 0.00 in0.0 mm 0.00 in0.0 mm 0.00 in0.0 mm
03:47 AM 55.6°F13.1°C 52.7°F11.5°C 90% Calm Calm -- 30.02 in1016.6 mb 0.00 in0.0 mm 0.00 in0.0 mm 0.00 in0.0 mm
03:48 AM 55.6°F13.1°C 52.7°F11.5°C 90% Calm Calm -- 30.02 in1016.6 mb 0.00 in0.0 mm 0.00 in0.0 mm 0.00 in0.0 mm
03:49 AM 55.6°F13.1°C 52.7°F11.5°C 90% Calm Calm -- 30.02 in1016.6 mb 0.00 in0.0 mm 0.00 in0.0 mm 0.00 in0.0 mm
03:50 AM 55.6°F13.1°C 52.7°F11.5°C 90% Calm Calm -- 30.02 in1016.6 mb 0.00 in0.0 mm 0.00 in0.0 mm 0.00 in0.0 mm
03:51 AM 55.4°F13.0°C 52.5°F11.4°C 90% Calm Calm -- 30.02 in1016.6 mb 0.00 in0.0 mm 0.00 in0.0 mm 0.00 in0.0 mm
03:52 AM 55.4°F13.0°C 52.5°F11.4°C 90% Calm Calm -- 30.02 in1016.6 mb 0.00 in0.0 mm 0.00 in0.0 mm 0.00 in0.0 mm
03:53 AM 55.4°F13.0°C 52.5°F11.4°C 90% Calm Calm -- 30.02 in1016.6 mb 0.00 in0.0 mm 0.00 in0.0 mm 0.00 in0.0 mm
03:54 AM 55.4°F13.0°C 52.5°F11.4°C 90% Calm Calm -- 30.02 in1016.6 mb 0.00 in0.0 mm 0.00 in0.0 mm 0.00 in0.0 mm
03:55 AM 55.4°F13.0°C 52.8°F11.6°C 91% Calm Calm -- 30.01 in1016.3 mb 0.00 in0.0 mm 0.00 in0.0 mm 0.00 in0.0 mm
03:56 AM 55.4°F13.0°C 52.8°F11.6°C 91% Calm Calm -- 30.01 in1016.3 mb 0.00 in0.0 mm 0.00 in0.0 mm 0.00 in0.0 mm
03:57 AM 55.4°F13.0°C 52.8°F11.6°C 91% Calm Calm -- 30.01 in1016.3 mb 0.00 in0.0 mm 0.00 in0.0 mm 0.00 in0.0 mm
03:58 AM 55.4°F13.0°C 52.8°F11.6°C 91% Calm Calm -- 30.01 in1016.3 mb 0.00 in0.0 mm 0.00 in0.0 mm 0.00 in0.0 mm
03:59 AM 55.4°F13.0°C 52.8°F11.6°C 91% Calm Calm -- 30.01 in1016.3 mb 0.00 in0.0 mm 0.00 in0.0 mm 0.00 in0.0 mm
04:00 AM 55.4°F13.0°C 52.8°F11.6°C 91% Calm Calm -- 30.01 in1016.3 mb 0.00 in0.0 mm 0.00 in0.0 mm 0.00 in0.0 mm
04:01 AM 55.4°F13.0°C 52.8°F11.6°C 91% Calm Calm -- 30.01 in1016.3 mb 0.00 in0.0 mm 0.00 in0.0 mm 0.00 in0.0 mm
04:02 AM 55.4°F13.0°C 52.8°F11.6°C 91% Calm Calm -- 30.01 in1016.3 mb 0.00 in0.0 mm 0.00 in0.0 mm 0.00 in0.0 mm
04:03 AM 55.4°F13.0°C 52.8°F11.6°C 91% Calm Calm -- 30.01 in1016.3 mb 0.00 in0.0 mm 0.00 in0.0 mm 0.00 in0.0 mm
04:04 AM 55.4°F13.0°C 52.8°F11.6°C 91% Calm Calm -- 30.01 in1016.3 mb 0.00 in0.0 mm 0.00 in0.0 mm 0.00 in0.0 mm
04:05 AM 55.4°F13.0°C 52.8°F11.6°C 91% Calm Calm -- 30.01 in1016.3 mb 0.00 in0.0 mm 0.00 in0.0 mm 0.00 in0.0 mm
04:06 AM 55.2°F12.9°C 52.6°F11.4°C 91% Calm Calm -- 30.01 in1016.3 mb 0.00 in0.0 mm 0.00 in0.0 mm 0.00 in0.0 mm
04:07 AM 55.2°F12.9°C 52.6°F11.4°C 91% Calm Calm -- 30.02 in1016.6 mb 0.00 in0.0 mm 0.00 in0.0 mm 0.00 in0.0 mm
04:08 AM 55.2°F12.9°C 52.6°F11.4°C 91% Calm Calm -- 30.02 in1016.6 mb 0.00 in0.0 mm 0.00 in0.0 mm 0.00 in0.0 mm
04:09 AM 55.2°F12.9°C 52.6°F11.4°C 91% Calm Calm -- 30.02 in1016.6 mb 0.00 in0.0 mm 0.00 in0.0 mm 0.00 in0.0 mm
04:10 AM 55.2°F12.9°C 52.6°F11.4°C 91% Calm Calm -- 30.02 in1016.6 mb 0.00 in0.0 mm 0.00 in0.0 mm 0.00 in0.0 mm
04:11 AM 55.2°F12.9°C 52.6°F11.4°C 91% Calm Calm -- 30.02 in1016.6 mb 0.00 in0.0 mm 0.00 in0.0 mm 0.00 in0.0 mm
04:12 AM 55.2°F12.9°C 52.6°F11.4°C 91% Calm Calm -- 30.02 in1016.6 mb 0.00 in0.0 mm 0.00 in0.0 mm 0.00 in0.0 mm
04:13 AM 55.2°F12.9°C 52.6°F11.4°C 91% Calm Calm -- 30.02 in1016.6 mb 0.00 in0.0 mm 0.00 in0.0 mm 0.00 in0.0 mm
04:14 AM 55.0°F12.8°C 52.4°F11.3°C 91% Calm Calm -- 30.02 in1016.6 mb 0.00 in0.0 mm 0.00 in0.0 mm 0.00 in0.0 mm
04:15 AM 55.0°F12.8°C 52.4°F11.3°C 91% Calm Calm -- 30.02 in1016.6 mb 0.00 in0.0 mm 0.00 in0.0 mm 0.00 in0.0 mm
04:16 AM 55.0°F12.8°C 52.4°F11.3°C 91% Calm Calm -- 30.02 in1016.6 mb 0.00 in0.0 mm 0.00 in0.0 mm 0.00 in0.0 mm
04:17 AM 55.0°F12.8°C 52.4°F11.3°C 91% Calm Calm -- 30.02 in1016.6 mb 0.00 in0.0 mm 0.00 in0.0 mm 0.00 in0.0 mm
04:18 AM 55.0°F12.8°C 52.4°F11.3°C 91% Calm Calm -- 30.02 in1016.6 mb 0.00 in0.0 mm 0.00 in0.0 mm 0.00 in0.0 mm
04:19 AM 54.9°F12.7°C 52.3°F11.3°C 91% Calm Calm -- 30.02 in1016.6 mb 0.00 in0.0 mm 0.00 in0.0 mm 0.00 in0.0 mm
04:20 AM 54.9°F12.7°C 52.3°F11.3°C 91% Calm Calm -- 30.02 in1016.6 mb 0.00 in0.0 mm 0.00 in0.0 mm 0.00 in0.0 mm
04:21 AM 54.9°F12.7°C 52.3°F11.3°C 91% Calm Calm -- 30.02 in1016.6 mb 0.00 in0.0 mm 0.00 in0.0 mm 0.00 in0.0 mm
04:22 AM 54.9°F12.7°C 52.3°F11.3°C 91% Calm Calm -- 30.02 in1016.6 mb 0.00 in0.0 mm 0.00 in0.0 mm 0.00 in0.0 mm
04:23 AM 54.9°F12.7°C 52.3°F11.3°C 91% Calm Calm -- 30.02 in1016.6 mb 0.00 in0.0 mm 0.00 in0.0 mm 0.00 in0.0 mm
04:24 AM 54.9°F12.7°C 52.3°F11.3°C 91% Calm Calm -- 30.02 in1016.6 mb 0.00 in0.0 mm 0.00 in0.0 mm 0.00 in0.0 mm
04:25 AM 54.9°F12.7°C 52.3°F11.3°C 91% Calm Calm -- 30.02 in1016.6 mb 0.00 in0.0 mm 0.00 in0.0 mm 0.00 in0.0 mm
04:26 AM 54.9°F12.7°C 52.3°F11.3°C 91% Calm Calm -- 30.02 in1016.6 mb 0.00 in0.0 mm 0.00 in0.0 mm 0.00 in0.0 mm
04:27 AM 54.9°F12.7°C 52.0°F11.1°C 90% Calm Calm -- 30.02 in1016.6 mb 0.00 in0.0 mm 0.00 in0.0 mm 0.00 in0.0 mm
04:28 AM 54.9°F12.7°C 52.0°F11.1°C 90% Calm Calm -- 30.02 in1016.6 mb 0.00 in0.0 mm 0.00 in0.0 mm 0.00 in0.0 mm
04:29 AM 54.7°F12.6°C 51.8°F11.0°C 90% Calm Calm -- 30.02 in1016.6 mb 0.00 in0.0 mm 0.00 in0.0 mm 0.00 in0.0 mm
04:30 AM 54.7°F12.6°C 51.8°F11.0°C 90% Calm Calm -- 30.02 in1016.6 mb 0.00 in0.0 mm 0.00 in0.0 mm 0.00 in0.0 mm
04:31 AM 54.7°F12.6°C 51.8°F11.0°C 90% Calm Calm -- 30.01 in1016.3 mb 0.00 in0.0 mm 0.00 in0.0 mm 0.00 in0.0 mm
04:32 AM 54.7°F12.6°C 51.8°F11.0°C 90% Calm Calm -- 30.01 in1016.3 mb 0.00 in0.0 mm 0.00 in0.0 mm 0.00 in0.0 mm
04:33 AM 54.7°F12.6°C 51.8°F11.0°C 90% Calm Calm -- 30.01 in1016.3 mb 0.00 in0.0 mm 0.00 in0.0 mm 0.00 in0.0 mm
04:34 AM 54.7°F12.6°C 51.8°F11.0°C 90% Calm Calm -- 30.01 in1016.3 mb 0.00 in0.0 mm 0.00 in0.0 mm 0.00 in0.0 mm
04:35 AM 54.7°F12.6°C 51.8°F11.0°C 90% Calm Calm -- 30.01 in1016.3 mb 0.00 in0.0 mm 0.00 in0.0 mm 0.00 in0.0 mm
04:36 AM 54.7°F12.6°C 51.8°F11.0°C 90% Calm Calm -- 30.01 in1016.3 mb 0.00 in0.0 mm 0.00 in0.0 mm 0.00 in0.0 mm
04:37 AM 54.7°F12.6°C 51.8°F11.0°C 90% Calm Calm -- 30.01 in1016.3 mb 0.00 in0.0 mm 0.00 in0.0 mm 0.00 in0.0 mm
04:38 AM 54.7°F12.6°C 51.8°F11.0°C 90% Calm Calm -- 30.01 in1016.3 mb 0.00 in0.0 mm 0.00 in0.0 mm 0.00 in0.0 mm
04:39 AM 54.7°F12.6°C 51.8°F11.0°C 90% Calm Calm -- 30.01 in1016.3 mb 0.00 in0.0 mm 0.00 in0.0 mm 0.00 in0.0 mm
04:40 AM 54.7°F12.6°C 51.8°F11.0°C 90% Calm Calm -- 30.01 in1016.3 mb 0.00 in0.0 mm 0.00 in0.0 mm 0.00 in0.0 mm
04:41 AM 54.5°F12.5°C 51.6°F10.9°C 90% Calm Calm -- 30.01 in1016.3 mb 0.00 in0.0 mm 0.00 in0.0 mm 0.00 in0.0 mm
04:42 AM 54.5°F12.5°C 51.6°F10.9°C 90% Calm Calm -- 30.01 in1016.3 mb 0.00 in0.0 mm 0.00 in0.0 mm 0.00 in0.0 mm
04:43 AM 54.5°F12.5°C 51.6°F10.9°C 90% Calm Calm -- 30.01 in1016.3 mb 0.00 in0.0 mm 0.00 in0.0 mm 0.00 in0.0 mm
04:44 AM 54.5°F12.5°C 51.6°F10.9°C 90% Calm Calm -- 30.01 in1016.3 mb 0.00 in0.0 mm 0.00 in0.0 mm 0.00 in0.0 mm
04:45 AM 54.5°F12.5°C 51.6°F10.9°C 90% Calm Calm -- 30.01 in1016.3 mb 0.00 in0.0 mm 0.00 in0.0 mm 0.00 in0.0 mm
04:46 AM 54.5°F12.5°C 51.6°F10.9°C 90% Calm Calm -- 30.01 in1016.3 mb 0.00 in0.0 mm 0.00 in0.0 mm 0.00 in0.0 mm
04:47 AM 54.5°F12.5°C 51.6°F10.9°C 90% Calm Calm -- 30.01 in1016.3 mb 0.00 in0.0 mm 0.00 in0.0 mm 0.00 in0.0 mm
04:48 AM 54.5°F12.5°C 51.6°F10.9°C 90% Calm Calm -- 30.01 in1016.3 mb 0.00 in0.0 mm 0.00 in0.0 mm 0.00 in0.0 mm
04:49 AM 54.5°F12.5°C 51.6°F10.9°C 90% Calm Calm -- 30.01 in1016.3 mb 0.00 in0.0 mm 0.00 in0.0 mm 0.00 in0.0 mm
04:50 AM 54.5°F12.5°C 51.9°F11.1°C 91% Calm Calm -- 30.01 in1016.3 mb 0.00 in0.0 mm 0.00 in0.0 mm 0.00 in0.0 mm
04:51 AM 54.5°F12.5°C 51.9°F11.1°C 91% Calm Calm -- 30.01 in1016.3 mb 0.00 in0.0 mm 0.00 in0.0 mm 0.00 in0.0 mm
04:52 AM 54.5°F12.5°C 51.9°F11.1°C 91% Calm Calm -- 30.01 in1016.3 mb 0.00 in0.0 mm 0.00 in0.0 mm 0.00 in0.0 mm
04:53 AM 54.5°F12.5°C 51.9°F11.1°C 91% Calm Calm -- 30.01 in1016.3 mb 0.00 in0.0 mm 0.00 in0.0 mm 0.00 in0.0 mm
04:54 AM 54.5°F12.5°C 51.9°F11.1°C 91% Calm Calm -- 30.01 in1016.3 mb 0.00 in0.0 mm 0.00 in0.0 mm 0.00 in0.0 mm
04:55 AM 54.5°F12.5°C 51.9°F11.1°C 91% Calm Calm -- 30.01 in1016.3 mb 0.00 in0.0 mm 0.00 in0.0 mm 0.00 in0.0 mm
04:56 AM 54.5°F12.5°C 51.9°F11.1°C 91% Calm Calm -- 30.01 in1016.3 mb 0.00 in0.0 mm 0.00 in0.0 mm 0.00 in0.0 mm
04:57 AM 54.5°F12.5°C 51.9°F11.1°C 91% Calm Calm -- 30.01 in1016.3 mb 0.00 in0.0 mm 0.00 in0.0 mm 0.00 in0.0 mm
04:58 AM 54.5°F12.5°C 51.9°F11.1°C 91% Calm Calm -- 30.01 in1016.3 mb 0.00 in0.0 mm 0.00 in0.0 mm 0.00 in0.0 mm
04:59 AM 54.5°F12.5°C 51.9°F11.1°C 91% Calm Calm -- 30.01 in1016.3 mb 0.00 in0.0 mm 0.00 in0.0 mm 0.00 in0.0 mm
05:00 AM 54.5°F12.5°C 51.9°F11.1°C 91% Calm Calm -- 30.01 in1016.3 mb 0.00 in0.0 mm 0.00 in0.0 mm 0.00 in0.0 mm
05:01 AM 54.5°F12.5°C 51.9°F11.1°C 91% Calm Calm -- 30.01 in1016.3 mb 0.00 in0.0 mm 0.00 in0.0 mm 0.00 in0.0 mm
05:02 AM 54.5°F12.5°C 51.9°F11.1°C 91% Calm Calm -- 30.01 in1016.3 mb 0.00 in0.0 mm 0.00 in0.0 mm 0.00 in0.0 mm
05:03 AM 54.5°F12.5°C 51.9°F11.1°C 91% Calm Calm -- 30.01 in1016.3 mb 0.00 in0.0 mm 0.00 in0.0 mm 0.00 in0.0 mm
05:04 AM 54.5°F12.5°C 51.9°F11.1°C 91% Calm Calm -- 30.01 in1016.3 mb 0.00 in0.0 mm 0.00 in0.0 mm 0.00 in0.0 mm
05:05 AM 54.5°F12.5°C 51.9°F11.1°C 91% Calm Calm -- 30.01 in1016.3 mb 0.00 in0.0 mm 0.00 in0.0 mm 0.00 in0.0 mm
05:06 AM 54.5°F12.5°C 51.9°F11.1°C 91% Calm Calm -- 30.01 in1016.3 mb 0.00 in0.0 mm 0.00 in0.0 mm 0.00 in0.0 mm
05:07 AM 54.5°F12.5°C 51.9°F11.1°C 91% Calm Calm -- 30.01 in1016.3 mb 0.00 in0.0 mm 0.00 in0.0 mm 0.00 in0.0 mm
05:08 AM 54.5°F12.5°C 51.9°F11.1°C 91% Calm Calm -- 30.01 in1016.3 mb 0.00 in0.0 mm 0.00 in0.0 mm 0.00 in0.0 mm
05:09 AM 54.5°F12.5°C 51.9°F11.1°C 91% Calm Calm -- 30.01 in1016.3 mb 0.00 in0.0 mm 0.00 in0.0 mm 0.00 in0.0 mm
05:10 AM 54.5°F12.5°C 51.9°F11.1°C 91% Calm Calm -- 30.01 in1016.3 mb 0.00 in0.0 mm 0.00 in0.0 mm 0.00 in0.0 mm
05:11 AM 54.5°F12.5°C 51.9°F11.1°C 91% Calm Calm -- 30.01 in1016.3 mb 0.00 in0.0 mm 0.00 in0.0 mm 0.00 in0.0 mm
05:12 AM 54.5°F12.5°C 51.9°F11.1°C 91% Calm Calm -- 30.01 in1016.3 mb 0.00 in0.0 mm 0.00 in0.0 mm 0.00 in0.0 mm
05:13 AM 54.5°F12.5°C 51.9°F11.1°C 91% Calm Calm -- 30.01 in1016.3 mb 0.00 in0.0 mm 0.00 in0.0 mm 0.00 in0.0 mm
05:14 AM 54.5°F12.5°C 51.9°F11.1°C 91% Calm Calm -- 30.01 in1016.3 mb 0.00 in0.0 mm 0.00 in0.0 mm 0.00 in0.0 mm
05:15 AM 54.5°F12.5°C 51.9°F11.1°C 91% Calm Calm -- 30.01 in1016.3 mb 0.00 in0.0 mm 0.00 in0.0 mm 0.00 in0.0 mm
05:16 AM 54.5°F12.5°C 51.9°F11.1°C 91% Calm Calm -- 30.01 in1016.3 mb 0.00 in0.0 mm 0.00 in0.0 mm 0.00 in0.0 mm
05:17 AM 54.3°F12.4°C 51.7°F10.9°C 91% Calm Calm -- 30.01 in1016.3 mb 0.00 in0.0 mm 0.00 in0.0 mm 0.00 in0.0 mm
05:18 AM 54.3°F12.4°C 51.7°F10.9°C 91% Calm Calm -- 30.01 in1016.3 mb 0.00 in0.0 mm 0.00 in0.0 mm 0.00 in0.0 mm
05:19 AM 54.3°F12.4°C 51.7°F10.9°C 91% Calm Calm -- 30.01 in1016.3 mb 0.00 in0.0 mm 0.00 in0.0 mm 0.00 in0.0 mm
05:20 AM 54.3°F12.4°C 51.7°F10.9°C 91% Calm Calm -- 30.01 in1016.3 mb 0.00 in0.0 mm 0.00 in0.0 mm 0.00 in0.0 mm
05:21 AM 54.3°F12.4°C 51.7°F10.9°C 91% Calm Calm -- 30.01 in1016.3 mb 0.00 in0.0 mm 0.00 in0.0 mm 0.00 in0.0 mm
05:22 AM 54.3°F12.4°C 51.7°F10.9°C 91% Calm Calm -- 30.01 in1016.3 mb 0.00 in0.0 mm 0.00 in0.0 mm 0.00 in0.0 mm
05:23 AM 54.3°F12.4°C 51.7°F10.9°C 91% Calm Calm -- 30.01 in1016.3 mb 0.00 in0.0 mm 0.00 in0.0 mm 0.00 in0.0 mm
05:24 AM 54.3°F12.4°C 51.7°F10.9°C 91% Calm Calm -- 30.01 in1016.3 mb 0.00 in0.0 mm 0.00 in0.0 mm 0.00 in0.0 mm
05:25 AM 54.1°F12.3°C 51.5°F10.8°C 91% Calm Calm -- 30.01 in1016.3 mb 0.00 in0.0 mm 0.00 in0.0 mm 0.00 in0.0 mm
05:26 AM 54.1°F12.3°C 51.5°F10.8°C 91% Calm Calm -- 30.01 in1016.3 mb 0.00 in0.0 mm 0.00 in0.0 mm 0.00 in0.0 mm
05:27 AM 54.1°F12.3°C 51.5°F10.8°C 91% Calm Calm -- 30.01 in1016.3 mb 0.00 in0.0 mm 0.00 in0.0 mm 0.00 in0.0 mm
05:28 AM 54.1°F12.3°C 51.5°F10.8°C 91% Calm Calm -- 30.01 in1016.3 mb 0.00 in0.0 mm 0.00 in0.0 mm 0.00 in0.0 mm
05:29 AM 54.1°F12.3°C 51.5°F10.8°C 91% Calm Calm -- 30.01 in1016.3 mb 0.00 in0.0 mm 0.00 in0.0 mm 0.00 in0.0 mm
05:30 AM 54.1°F12.3°C 51.5°F10.8°C 91% Calm Calm -- 30.01 in1016.3 mb 0.00 in0.0 mm 0.00 in0.0 mm 0.00 in0.0 mm
05:31 AM 54.1°F12.3°C 51.5°F10.8°C 91% Calm Calm -- 30.01 in1016.3 mb 0.00 in0.0 mm 0.00 in0.0 mm 0.00 in0.0 mm
05:32 AM 54.1°F12.3°C 51.5°F10.8°C 91% Calm Calm -- 30.01 in1016.3 mb 0.00 in0.0 mm 0.00 in0.0 mm 0.00 in0.0 mm
05:33 AM 54.1°F12.3°C 51.5°F10.8°C 91% Calm Calm -- 30.01 in1016.3 mb 0.00 in0.0 mm 0.00 in0.0 mm 0.00 in0.0 mm
05:34 AM 54.1°F12.3°C 51.5°F10.8°C 91% Calm Calm -- 30.01 in1016.3 mb 0.00 in0.0 mm 0.00 in0.0 mm 0.00 in0.0 mm
05:35 AM 54.1°F12.3°C 51.5°F10.8°C 91% Calm Calm -- 30.01 in1016.3 mb 0.00 in0.0 mm 0.00 in0.0 mm 0.00 in0.0 mm
05:36 AM 54.1°F12.3°C 51.5°F10.8°C 91% Calm Calm -- 30.01 in1016.3 mb 0.00 in0.0 mm 0.00 in0.0 mm 0.00 in0.0 mm
05:37 AM 54.1°F12.3°C 51.5°F10.8°C 91% Calm Calm -- 30.01 in1016.3 mb 0.00 in0.0 mm 0.00 in0.0 mm 0.00 in0.0 mm
05:38 AM 54.1°F12.3°C 51.5°F10.8°C 91% Calm Calm -- 30.01 in1016.3 mb 0.00 in0.0 mm 0.00 in0.0 mm 0.00 in0.0 mm
05:39 AM 54.1°F12.3°C 51.5°F10.8°C 91% Calm Calm -- 30.01 in1016.3 mb 0.00 in0.0 mm 0.00 in0.0 mm 0.00 in0.0 mm
05:40 AM 54.1°F12.3°C 51.5°F10.8°C 91% Calm Calm -- 30.01 in1016.3 mb 0.00 in0.0 mm 0.00 in0.0 mm 0.00 in0.0 mm
05:41 AM 54.1°F12.3°C 51.5°F10.8°C 91% Calm Calm -- 30.01 in1016.3 mb 0.00 in0.0 mm 0.00 in0.0 mm 0.00 in0.0 mm
05:42 AM 54.1°F12.3°C 51.5°F10.8°C 91% Calm Calm -- 30.01 in1016.3 mb 0.00 in0.0 mm 0.00 in0.0 mm 0.00 in0.0 mm
05:43 AM 54.1°F12.3°C 51.5°F10.8°C 91% Calm Calm -- 30.01 in1016.3 mb 0.00 in0.0 mm 0.00 in0.0 mm 0.00 in0.0 mm
05:44 AM 54.1°F12.3°C 51.5°F10.8°C 91% Calm Calm -- 30.01 in1016.3 mb 0.00 in0.0 mm 0.00 in0.0 mm 0.00 in0.0 mm
05:45 AM 54.0°F12.2°C 51.4°F10.8°C 91% Calm Calm -- 30.01 in1016.3 mb 0.00 in0.0 mm 0.00 in0.0 mm 0.00 in0.0 mm
05:46 AM 54.0°F12.2°C 51.4°F10.8°C 91% Calm Calm -- 30.01 in1016.3 mb 0.00 in0.0 mm 0.00 in0.0 mm 0.00 in0.0 mm
05:47 AM 54.0°F12.2°C 51.4°F10.8°C 91% Calm Calm -- 30.01 in1016.3 mb 0.00 in0.0 mm 0.00 in0.0 mm 0.00 in0.0 mm
05:48 AM 54.0°F12.2°C 51.4°F10.8°C 91% Calm Calm -- 30.01 in1016.3 mb 0.00 in0.0 mm 0.00 in0.0 mm 0.00 in0.0 mm
05:49 AM 54.0°F12.2°C 51.4°F10.8°C 91% Calm Calm -- 30.01 in1016.3 mb 0.00 in0.0 mm 0.00 in0.0 mm 0.00 in0.0 mm
05:50 AM 54.0°F12.2°C 51.4°F10.8°C 91% Calm Calm -- 30.01 in1016.3 mb 0.00 in0.0 mm 0.00 in0.0 mm 0.00 in0.0 mm
05:51 AM 54.0°F12.2°C 51.4°F10.8°C 91% Calm Calm -- 30.01 in1016.3 mb 0.00 in0.0 mm 0.00 in0.0 mm 0.00 in0.0 mm
05:52 AM 54.0°F12.2°C 51.4°F10.8°C 91% Calm Calm -- 30.01 in1016.3 mb 0.00 in0.0 mm 0.00 in0.0 mm 0.00 in0.0 mm
05:53 AM 54.0°F12.2°C 51.4°F10.8°C 91% Calm Calm -- 30.01 in1016.3 mb 0.00 in0.0 mm 0.00 in0.0 mm 0.00 in0.0 mm
05:54 AM 54.0°F12.2°C 51.4°F10.8°C 91% Calm Calm -- 30.01 in1016.3 mb 0.00 in0.0 mm 0.00 in0.0 mm 0.00 in0.0 mm
05:55 AM 54.0°F12.2°C 51.4°F10.8°C 91% Calm Calm -- 30.02 in1016.6 mb 0.00 in0.0 mm 0.00 in0.0 mm 0.00 in0.0 mm
05:56 AM 54.0°F12.2°C 51.4°F10.8°C 91% Calm Calm -- 30.02 in1016.6 mb 0.00 in0.0 mm 0.00 in0.0 mm 0.00 in0.0 mm
05:57 AM 54.0°F12.2°C 51.4°F10.8°C 91% Calm Calm -- 30.02 in1016.6 mb 0.00 in0.0 mm 0.00 in0.0 mm 0.00 in0.0 mm
05:58 AM 54.0°F12.2°C 51.4°F10.8°C 91% Calm Calm -- 30.02 in1016.6 mb 0.00 in0.0 mm 0.00 in0.0 mm 0.00 in0.0 mm
05:59 AM 54.0°F12.2°C 51.4°F10.8°C 91% Calm Calm -- 30.02 in1016.6 mb 0.00 in0.0 mm 0.00 in0.0 mm 0.00 in0.0 mm
06:00 AM 54.0°F12.2°C 51.4°F10.8°C 91% Calm Calm -- 30.02 in1016.6 mb 0.00 in0.0 mm 0.00 in0.0 mm 0.00 in0.0 mm
06:01 AM 54.0°F12.2°C 51.4°F10.8°C 91% Calm Calm -- 30.02 in1016.6 mb 0.00 in0.0 mm 0.00 in0.0 mm 0.00 in0.0 mm
06:02 AM 54.0°F12.2°C 51.4°F10.8°C 91% Calm Calm -- 30.02 in1016.6 mb 0.00 in0.0 mm 0.00 in0.0 mm 0.00 in0.0 mm
06:03 AM 54.0°F12.2°C 51.4°F10.8°C 91% Calm Calm -- 30.02 in1016.6 mb 0.00 in0.0 mm 0.00 in0.0 mm 0.00 in0.0 mm
06:04 AM 54.0°F12.2°C 51.4°F10.8°C 91% Calm Calm -- 30.02 in1016.6 mb 0.00 in0.0 mm 0.00 in0.0 mm 0.00 in0.0 mm
06:05 AM 54.0°F12.2°C 51.4°F10.8°C 91% Calm Calm -- 30.02 in1016.6 mb 0.00 in0.0 mm 0.00 in0.0 mm 0.00 in0.0 mm
06:06 AM 54.0°F12.2°C 51.4°F10.8°C 91% Calm Calm -- 30.02 in1016.6 mb 0.00 in0.0 mm 0.00 in0.0 mm 0.00 in0.0 mm
06:07 AM 54.0°F12.2°C 51.4°F10.8°C 91% Calm Calm -- 30.02 in1016.6 mb 0.00 in0.0 mm 0.00 in0.0 mm 0.00 in0.0 mm
06:08 AM 54.0°F12.2°C 51.4°F10.8°C 91% Calm Calm -- 30.02 in1016.6 mb 0.00 in0.0 mm 0.00 in0.0 mm 0.00 in0.0 mm
06:09 AM 54.0°F12.2°C 51.4°F10.8°C 91% Calm Calm -- 30.02 in1016.6 mb 0.00 in0.0 mm 0.00 in0.0 mm 0.00 in0.0 mm
06:10 AM 54.0°F12.2°C 51.4°F10.8°C 91% Calm Calm -- 30.02 in1016.6 mb 0.00 in0.0 mm 0.00 in0.0 mm 0.00 in0.0 mm
06:11 AM 54.0°F12.2°C 51.4°F10.8°C 91% Calm Calm -- 30.02 in1016.6 mb 0.00 in0.0 mm 0.00 in0.0 mm 0.00 in0.0 mm
06:12 AM 54.0°F12.2°C 51.4°F10.8°C 91% Calm Calm -- 30.02 in1016.6 mb 0.00 in0.0 mm 0.00 in0.0 mm 0.00 in0.0 mm
06:13 AM 54.0°F12.2°C 51.4°F10.8°C 91% Calm Calm -- 30.02 in1016.6 mb 0.00 in0.0 mm 0.00 in0.0 mm 0.00 in0.0 mm
06:14 AM 54.0°F12.2°C 51.4°F10.8°C 91% Calm Calm -- 30.02 in1016.6 mb 0.00 in0.0 mm 0.00 in0.0 mm 0.00 in0.0 mm
06:15 AM 54.0°F12.2°C 51.4°F10.8°C 91% Calm Calm -- 30.02 in1016.6 mb 0.00 in0.0 mm 0.00 in0.0 mm 0.00 in0.0 mm
06:16 AM 54.0°F12.2°C 51.4°F10.8°C 91% Calm Calm -- 30.02 in1016.6 mb 0.00 in0.0 mm 0.00 in0.0 mm 0.00 in0.0 mm
06:17 AM 54.0°F12.2°C 51.4°F10.8°C 91% Calm Calm -- 30.02 in1016.6 mb 0.00 in0.0 mm 0.00 in0.0 mm 0.00 in0.0 mm
06:18 AM 54.0°F12.2°C 51.4°F10.8°C 91% Calm Calm -- 30.02 in1016.6 mb 0.00 in0.0 mm 0.00 in0.0 mm 0.00 in0.0 mm
06:19 AM 54.0°F12.2°C 51.4°F10.8°C 91% Calm Calm -- 30.03 in1016.9 mb 0.00 in0.0 mm 0.00 in0.0 mm 0.00 in0.0 mm
06:20 AM 54.0°F12.2°C 51.4°F10.8°C 91% Calm Calm -- 30.03 in1016.9 mb 0.00 in0.0 mm 0.00 in0.0 mm 0.00 in0.0 mm
06:21 AM 54.0°F12.2°C 51.4°F10.8°C 91% Calm Calm -- 30.03 in1016.9 mb 0.00 in0.0 mm 0.00 in0.0 mm 0.00 in0.0 mm
06:22 AM 54.0°F12.2°C 51.4°F10.8°C 91% Calm Calm -- 30.03 in1016.9 mb 0.00 in0.0 mm 0.00 in0.0 mm 0.00 in0.0 mm
06:23 AM 54.0°F12.2°C 51.4°F10.8°C 91% Calm Calm -- 30.03 in1016.9 mb 0.00 in0.0 mm 0.00 in0.0 mm 0.00 in0.0 mm
06:24 AM 54.0°F12.2°C 51.4°F10.8°C 91% Calm Calm -- 30.03 in1016.9 mb 0.00 in0.0 mm 0.00 in0.0 mm 0.00 in0.0 mm
06:25 AM 54.0°F12.2°C 51.4°F10.8°C 91% Calm Calm -- 30.03 in1016.9 mb 0.00 in0.0 mm 0.00 in0.0 mm 0.00 in0.0 mm
06:26 AM 54.0°F12.2°C 51.4°F10.8°C 91% Calm Calm -- 30.03 in1016.9 mb 0.00 in0.0 mm 0.00 in0.0 mm 0.00 in0.0 mm
06:27 AM 54.0°F12.2°C 51.7°F10.9°C 92% Calm Calm -- 30.03 in1016.9 mb 0.00 in0.0 mm 0.00 in0.0 mm 0.00 in0.0 mm
06:28 AM 54.0°F12.2°C 51.7°F10.9°C 92% Calm Calm -- 30.03 in1016.9 mb 0.00 in0.0 mm 0.00 in0.0 mm 0.00 in0.0 mm
06:29 AM 54.0°F12.2°C 51.7°F10.9°C 92% Calm Calm -- 30.03 in1016.9 mb 0.00 in0.0 mm 0.00 in0.0 mm 0.00 in0.0 mm
06:30 AM 54.0°F12.2°C 51.7°F10.9°C 92% Calm Calm -- 30.03 in1016.9 mb 0.00 in0.0 mm 0.00 in0.0 mm 0.00 in0.0 mm
06:31 AM 54.0°F12.2°C 51.7°F10.9°C 92% Calm Calm -- 30.03 in1016.9 mb 0.00 in0.0 mm 0.00 in0.0 mm 0.00 in0.0 mm
06:32 AM 54.0°F12.2°C 51.7°F10.9°C 92% Calm Calm -- 30.03 in1016.9 mb 0.00 in0.0 mm 0.00 in0.0 mm 0.00 in0.0 mm
06:33 AM 54.0°F12.2°C 51.7°F10.9°C 92% Calm Calm -- 30.03 in1016.9 mb 0.00 in0.0 mm 0.00 in0.0 mm 0.00 in0.0 mm
06:34 AM 54.0°F12.2°C 51.7°F10.9°C 92% Calm Calm -- 30.03 in1016.9 mb 0.00 in0.0 mm 0.00 in0.0 mm 0.00 in0.0 mm
06:35 AM 54.0°F12.2°C 51.7°F10.9°C 92% Calm Calm -- 30.03 in1016.9 mb 0.00 in0.0 mm 0.00 in0.0 mm 0.00 in0.0 mm
06:36 AM 54.0°F12.2°C 51.7°F10.9°C 92% Calm Calm -- 30.03 in1016.9 mb 0.00 in0.0 mm 0.00 in0.0 mm 0.00 in0.0 mm
06:37 AM 54.0°F12.2°C 51.7°F10.9°C 92% Calm Calm -- 30.03 in1016.9 mb 0.00 in0.0 mm 0.00 in0.0 mm 0.00 in0.0 mm
06:38 AM 54.0°F12.2°C 51.7°F10.9°C 92% Calm Calm -- 30.03 in1016.9 mb 0.00 in0.0 mm 0.00 in0.0 mm 0.00 in0.0 mm
06:39 AM 54.0°F12.2°C 51.7°F10.9°C 92% Calm Calm -- 30.03 in1016.9 mb 0.00 in0.0 mm 0.00 in0.0 mm 0.00 in0.0 mm
06:40 AM 54.0°F12.2°C 51.7°F10.9°C 92% Calm Calm -- 30.03 in1016.9 mb 0.00 in0.0 mm 0.00 in0.0 mm 0.00 in0.0 mm
06:41 AM 54.0°F12.2°C 51.7°F10.9°C 92% Calm Calm -- 30.03 in1016.9 mb 0.00 in0.0 mm 0.00 in0.0 mm 0.00 in0.0 mm
06:42 AM 54.0°F12.2°C 51.7°F10.9°C 92% Calm Calm -- 30.03 in1016.9 mb 0.00 in0.0 mm 0.00 in0.0 mm 0.00 in0.0 mm
06:43 AM 53.8°F12.1°C 51.5°F10.8°C 92% Calm Calm -- 30.03 in1016.9 mb 0.00 in0.0 mm 0.00 in0.0 mm 0.00 in0.0 mm
06:44 AM 53.8°F12.1°C 51.5°F10.8°C 92% Calm Calm -- 30.03 in1016.9 mb 0.00 in0.0 mm 0.00 in0.0 mm 0.00 in0.0 mm
06:45 AM 53.8°F12.1°C 51.5°F10.8°C 92% Calm Calm -- 30.03 in1016.9 mb 0.00 in0.0 mm 0.00 in0.0 mm 0.00 in0.0 mm
06:46 AM 53.8°F12.1°C 51.5°F10.8°C 92% Calm Calm -- 30.03 in1016.9 mb 0.00 in0.0 mm 0.00 in0.0 mm 0.00 in0.0 mm
06:47 AM 53.8°F12.1°C 51.5°F10.8°C 92% Calm Calm -- 30.03 in1016.9 mb 0.00 in0.0 mm 0.00 in0.0 mm 0.00 in0.0 mm
06:48 AM 53.8°F12.1°C 51.5°F10.8°C 92% Calm Calm -- 30.03 in1016.9 mb 0.00 in0.0 mm 0.00 in0.0 mm 0.00 in0.0 mm
06:49 AM 53.8°F12.1°C 51.5°F10.8°C 92% Calm Calm -- 30.03 in1016.9 mb 0.00 in0.0 mm 0.00 in0.0 mm 0.00 in0.0 mm
06:50 AM 53.8°F12.1°C 51.5°F10.8°C 92% Calm Calm -- 30.03 in1016.9 mb 0.00 in0.0 mm 0.00 in0.0 mm 0.00 in0.0 mm
06:51 AM 53.8°F12.1°C 51.5°F10.8°C 92% Calm Calm -- 30.03 in1016.9 mb 0.00 in0.0 mm 0.00 in0.0 mm 0.00 in0.0 mm
06:52 AM 53.8°F12.1°C 51.5°F10.8°C 92% Calm Calm -- 30.03 in1016.9 mb 0.00 in0.0 mm 0.00 in0.0 mm 0.00 in0.0 mm
06:53 AM 53.6°F12.0°C 51.3°F10.7°C 92% Calm Calm -- 30.03 in1016.9 mb 0.00 in0.0 mm 0.00 in0.0 mm 0.00 in0.0 mm
06:54 AM 53.6°F12.0°C 51.3°F10.7°C 92% Calm Calm -- 30.03 in1016.9 mb 0.00 in0.0 mm 0.00 in0.0 mm 0.00 in0.0 mm
06:55 AM 53.6°F12.0°C 51.3°F10.7°C 92% Calm Calm -- 30.03 in1016.9 mb 0.00 in0.0 mm 0.00 in0.0 mm 0.00 in0.0 mm
06:56 AM 53.6°F12.0°C 51.3°F10.7°C 92% Calm Calm -- 30.03 in1016.9 mb 0.00 in0.0 mm 0.00 in0.0 mm 0.00 in0.0 mm
06:57 AM 53.6°F12.0°C 51.3°F10.7°C 92% Calm Calm -- 30.03 in1016.9 mb 0.00 in0.0 mm 0.00 in0.0 mm 0.00 in0.0 mm
06:58 AM 53.6°F12.0°C 51.3°F10.7°C 92% Calm Calm -- 30.03 in1016.9 mb 0.00 in0.0 mm 0.00 in0.0 mm 0.00 in0.0 mm
06:59 AM 53.6°F12.0°C 51.3°F10.7°C 92% Calm Calm -- 30.03 in1016.9 mb 0.00 in0.0 mm 0.00 in0.0 mm 0.00 in0.0 mm
07:00 AM 53.6°F12.0°C 51.3°F10.7°C 92% Calm Calm -- 30.03 in1016.9 mb 0.00 in0.0 mm 0.00 in0.0 mm 0.00 in0.0 mm
07:01 AM 53.6°F12.0°C 51.3°F10.7°C 92% Calm Calm -- 30.03 in1016.9 mb 0.00 in0.0 mm 0.00 in0.0 mm 0.00 in0.0 mm
07:02 AM 53.6°F12.0°C 51.3°F10.7°C 92% Calm Calm -- 30.03 in1016.9 mb 0.00 in0.0 mm 0.00 in0.0 mm 0.00 in0.0 mm
07:03 AM 53.6°F12.0°C 51.3°F10.7°C 92% Calm Calm -- 30.03 in1016.9 mb 0.00 in0.0 mm 0.00 in0.0 mm 0.00 in0.0 mm
07:04 AM 53.6°F12.0°C 51.3°F10.7°C 92% Calm Calm -- 30.03 in1016.9 mb 0.00 in0.0 mm 0.00 in0.0 mm 0.00 in0.0 mm
07:05 AM 53.6°F12.0°C 51.3°F10.7°C 92% Calm Calm -- 30.03 in1016.9 mb 0.00 in0.0 mm 0.00 in0.0 mm 0.00 in0.0 mm
07:06 AM 53.6°F12.0°C 51.3°F10.7°C 92% Calm Calm -- 30.03 in1016.9 mb 0.00 in0.0 mm 0.00 in0.0 mm 0.00 in0.0 mm
07:07 AM 53.6°F12.0°C 51.3°F10.7°C 92% Calm Calm -- 30.03 in1016.9 mb 0.00 in0.0 mm 0.00 in0.0 mm 0.00 in0.0 mm
07:08 AM 53.6°F12.0°C 51.3°F10.7°C 92% Calm Calm -- 30.03 in1016.9 mb 0.00 in0.0 mm 0.00 in0.0 mm 0.00 in0.0 mm
07:09 AM 53.6°F12.0°C 51.3°F10.7°C 92% Calm Calm -- 30.03 in1016.9 mb 0.00 in0.0 mm 0.00 in0.0 mm 0.00 in0.0 mm
07:10 AM 53.6°F12.0°C 51.3°F10.7°C 92% Calm Calm -- 30.03 in1016.9 mb 0.00 in0.0 mm 0.00 in0.0 mm 0.00 in0.0 mm
07:11 AM 53.6°F12.0°C 51.3°F10.7°C 92% Calm Calm -- 30.03 in1016.9 mb 0.00 in0.0 mm 0.00 in0.0 mm 0.00 in0.0 mm
07:12 AM 53.6°F12.0°C 51.3°F10.7°C 92% Calm Calm -- 30.03 in1016.9 mb 0.00 in0.0 mm 0.00 in0.0 mm 0.00 in0.0 mm
07:13 AM 53.6°F12.0°C 51.3°F10.7°C 92% Calm Calm -- 30.03 in1016.9 mb 0.00 in0.0 mm 0.00 in0.0 mm 0.00 in0.0 mm
07:14 AM 53.6°F12.0°C 51.3°F10.7°C 92% Calm Calm -- 30.03 in1016.9 mb 0.00 in0.0 mm 0.00 in0.0 mm 0.00 in0.0 mm
07:15 AM 53.6°F12.0°C 51.3°F10.7°C 92% Calm Calm -- 30.03 in1016.9 mb 0.00 in0.0 mm 0.00 in0.0 mm 0.00 in0.0 mm
07:16 AM 53.6°F12.0°C 51.3°F10.7°C 92% Calm Calm -- 30.03 in1016.9 mb 0.00 in0.0 mm 0.00 in0.0 mm 0.00 in0.0 mm
07:17 AM 53.6°F12.0°C 51.3°F10.7°C 92% Calm Calm -- 30.03 in1016.9 mb 0.00 in0.0 mm 0.00 in0.0 mm 0.00 in0.0 mm
07:18 AM 53.6°F12.0°C 51.3°F10.7°C 92% Calm Calm -- 30.03 in1016.9 mb 0.00 in0.0 mm 0.00 in0.0 mm 0.00 in0.0 mm
07:19 AM 54.0°F12.2°C 52.0°F11.1°C 93% Calm Calm -- 30.04 in1017.3 mb 0.00 in0.0 mm 0.00 in0.0 mm 0.00 in0.0 mm
07:20 AM 54.0°F12.2°C 52.0°F11.1°C 93% Calm Calm -- 30.04 in1017.3 mb 0.00 in0.0 mm 0.00 in0.0 mm 0.00 in0.0 mm
07:21 AM 53.8°F12.1°C 51.8°F11.0°C 93% Calm Calm -- 30.04 in1017.3 mb 0.00 in0.0 mm 0.00 in0.0 mm 0.00 in0.0 mm
07:22 AM 53.8°F12.1°C 51.8°F11.0°C 93% Calm Calm -- 30.04 in1017.3 mb 0.00 in0.0 mm 0.00 in0.0 mm 0.00 in0.0 mm
07:23 AM 53.6°F12.0°C 51.6°F10.9°C 93% Calm Calm -- 30.04 in1017.3 mb 0.00 in0.0 mm 0.00 in0.0 mm 0.00 in0.0 mm
07:24 AM 53.6°F12.0°C 51.6°F10.9°C 93% Calm Calm -- 30.04 in1017.3 mb 0.00 in0.0 mm 0.00 in0.0 mm 0.00 in0.0 mm
07:25 AM 53.6°F12.0°C 51.6°F10.9°C 93% Calm Calm -- 30.04 in1017.3 mb 0.00 in0.0 mm 0.00 in0.0 mm 0.00 in0.0 mm
07:26 AM 53.6°F12.0°C 51.6°F10.9°C 93% Calm Calm -- 30.04 in1017.3 mb 0.00 in0.0 mm 0.00 in0.0 mm 0.00 in0.0 mm
07:27 AM 53.6°F12.0°C 51.6°F10.9°C 93% Calm Calm -- 30.04 in1017.3 mb 0.00 in0.0 mm 0.00 in0.0 mm 0.00 in0.0 mm
07:28 AM 53.6°F12.0°C 51.6°F10.9°C 93% Calm Calm -- 30.04 in1017.3 mb 0.00 in0.0 mm 0.00 in0.0 mm 0.00 in0.0 mm
07:29 AM 53.6°F12.0°C 51.6°F10.9°C 93% Calm Calm -- 30.04 in1017.3 mb 0.00 in0.0 mm 0.00 in0.0 mm 0.00 in0.0 mm
07:30 AM 53.6°F12.0°C 51.6°F10.9°C 93% Calm Calm -- 30.04 in1017.3 mb 0.00 in0.0 mm 0.00 in0.0 mm 0.00 in0.0 mm
07:31 AM 53.6°F12.0°C 51.6°F10.9°C 93% Calm Calm -- 30.04 in1017.3 mb 0.00 in0.0 mm 0.00 in0.0 mm 0.00 in0.0 mm
07:32 AM 53.6°F12.0°C 51.6°F10.9°C 93% Calm Calm -- 30.04 in1017.3 mb 0.00 in0.0 mm 0.00 in0.0 mm 0.00 in0.0 mm
07:33 AM 53.6°F12.0°C 51.6°F10.9°C 93% Calm Calm -- 30.04 in1017.3 mb 0.00 in0.0 mm 0.00 in0.0 mm 0.00 in0.0 mm
07:34 AM 53.6°F12.0°C 51.6°F10.9°C 93% Calm Calm -- 30.04 in1017.3 mb 0.00 in0.0 mm 0.00 in0.0 mm 0.00 in0.0 mm
07:35 AM 53.6°F12.0°C 51.6°F10.9°C 93% Calm Calm -- 30.04 in1017.3 mb 0.00 in0.0 mm 0.00 in0.0 mm 0.00 in0.0 mm
07:36 AM 53.6°F12.0°C 51.6°F10.9°C 93% Calm Calm -- 30.04 in1017.3 mb 0.00 in0.0 mm 0.00 in0.0 mm 0.00 in0.0 mm
07:37 AM 53.6°F12.0°C 51.6°F10.9°C 93% Calm Calm -- 30.04 in1017.3 mb 0.00 in0.0 mm 0.00 in0.0 mm 0.00 in0.0 mm
07:38 AM 53.6°F12.0°C 51.6°F10.9°C 93% Calm Calm -- 30.04 in1017.3 mb 0.00 in0.0 mm 0.00 in0.0 mm 0.00 in0.0 mm
07:39 AM 53.6°F12.0°C 51.6°F10.9°C 93% Calm Calm -- 30.04 in1017.3 mb 0.00 in0.0 mm 0.00 in0.0 mm 0.00 in0.0 mm
07:40 AM 53.8°F12.1°C 51.8°F11.0°C 93% Calm Calm -- 30.04 in1017.3 mb 0.00 in0.0 mm 0.00 in0.0 mm 0.00 in0.0 mm
07:41 AM 54.0°F12.2°C 52.0°F11.1°C 93% Calm Calm -- 30.04 in1017.3 mb 0.00 in0.0 mm 0.00 in0.0 mm 0.00 in0.0 mm
07:42 AM 54.1°F12.3°C 52.1°F11.2°C 93% Calm Calm -- 30.04 in1017.3 mb 0.00 in0.0 mm 0.00 in0.0 mm 0.00 in0.0 mm
07:43 AM 54.1°F12.3°C 52.1°F11.2°C 93% Calm Calm -- 30.03 in1016.9 mb 0.00 in0.0 mm 0.00 in0.0 mm 0.00 in0.0 mm
07:44 AM 54.1°F12.3°C 52.1°F11.2°C 93% Calm Calm -- 30.03 in1016.9 mb 0.00 in0.0 mm 0.00 in0.0 mm 0.00 in0.0 mm
07:45 AM 54.1°F12.3°C 52.1°F11.2°C 93% Calm Calm -- 30.03 in1016.9 mb 0.00 in0.0 mm 0.00 in0.0 mm 0.00 in0.0 mm
07:46 AM 54.0°F12.2°C 52.0°F11.1°C 93% Calm Calm -- 30.03 in1016.9 mb 0.00 in0.0 mm 0.00 in0.0 mm 0.00 in0.0 mm
07:47 AM 54.0°F12.2°C 52.0°F11.1°C 93% Calm Calm -- 30.03 in1016.9 mb 0.00 in0.0 mm 0.00 in0.0 mm 0.00 in0.0 mm
07:48 AM 54.0°F12.2°C 52.0°F11.1°C 93% Calm Calm -- 30.03 in1016.9 mb 0.00 in0.0 mm 0.00 in0.0 mm 0.00 in0.0 mm
07:49 AM 54.0°F12.2°C 52.0°F11.1°C 93% Calm Calm -- 30.03 in1016.9 mb 0.00 in0.0 mm 0.00 in0.0 mm 0.00 in0.0 mm
07:50 AM 54.0°F12.2°C 52.0°F11.1°C 93% Calm Calm -- 30.03 in1016.9 mb 0.00 in0.0 mm 0.00 in0.0 mm 0.00 in0.0 mm
07:51 AM 54.0°F12.2°C 52.0°F11.1°C 93% Calm Calm -- 30.03 in1016.9 mb 0.00 in0.0 mm 0.00 in0.0 mm 0.00 in0.0 mm
07:52 AM 54.0°F12.2°C 52.0°F11.1°C 93% Calm Calm -- 30.03 in1016.9 mb 0.00 in0.0 mm 0.00 in0.0 mm 0.00 in0.0 mm
07:53 AM 54.0°F12.2°C 52.0°F11.1°C 93% Calm Calm -- 30.03 in1016.9 mb 0.00 in0.0 mm 0.00 in0.0 mm 0.00 in0.0 mm
07:54 AM 54.0°F12.2°C 52.0°F11.1°C 93% Calm Calm -- 30.03 in1016.9 mb 0.00 in0.0 mm 0.00 in0.0 mm 0.00 in0.0 mm
07:55 AM 54.0°F12.2°C 52.0°F11.1°C 93% Calm Calm -- 30.03 in1016.9 mb 0.00 in0.0 mm 0.00 in0.0 mm 0.00 in0.0 mm
07:56 AM 54.0°F12.2°C 52.0°F11.1°C 93% Calm Calm -- 30.03 in1016.9 mb 0.00 in0.0 mm 0.00 in0.0 mm 0.00 in0.0 mm
07:57 AM 54.0°F12.2°C 52.0°F11.1°C 93% Calm Calm -- 30.03 in1016.9 mb 0.00 in0.0 mm 0.00 in0.0 mm 0.00 in0.0 mm
07:58 AM 54.0°F12.2°C 52.0°F11.1°C 93% Calm Calm -- 30.03 in1016.9 mb 0.00 in0.0 mm 0.00 in0.0 mm 0.00 in0.0 mm
07:59 AM 54.0°F12.2°C 52.0°F11.1°C 93% Calm Calm -- 30.03 in1016.9 mb 0.00 in0.0 mm 0.00 in0.0 mm 0.00 in0.0 mm
08:00 AM 54.0°F12.2°C 52.0°F11.1°C 93% Calm Calm -- 30.03 in1016.9 mb 0.00 in0.0 mm 0.00 in0.0 mm 0.00 in0.0 mm
08:01 AM 54.1°F12.3°C 52.1°F11.2°C 93% Calm Calm -- 30.03 in1016.9 mb 0.00 in0.0 mm 0.00 in0.0 mm 0.00 in0.0 mm
08:02 AM 54.1°F12.3°C 52.1°F11.2°C 93% Calm Calm -- 30.03 in1016.9 mb 0.00 in0.0 mm 0.00 in0.0 mm 0.00 in0.0 mm
08:03 AM 54.1°F12.3°C 52.1°F11.2°C 93% Calm Calm -- 30.03 in1016.9 mb 0.00 in0.0 mm 0.00 in0.0 mm 0.00 in0.0 mm
08:04 AM 54.1°F12.3°C 52.1°F11.2°C 93% Calm Calm -- 30.03 in1016.9 mb 0.00 in0.0 mm 0.00 in0.0 mm 0.00 in0.0 mm
08:05 AM 54.1°F12.3°C 52.1°F11.2°C 93% Calm Calm -- 30.03 in1016.9 mb 0.00 in0.0 mm 0.00 in0.0 mm 0.00 in0.0 mm
08:06 AM 54.1°F12.3°C 52.1°F11.2°C 93% Calm Calm -- 30.03 in1016.9 mb 0.00 in0.0 mm 0.00 in0.0 mm 0.00 in0.0 mm
08:07 AM 54.1°F12.3°C 52.1°F11.2°C 93% Calm Calm -- 30.04 in1017.3 mb 0.00 in0.0 mm 0.00 in0.0 mm 0.00 in0.0 mm
08:08 AM 54.1°F12.3°C 52.1°F11.2°C 93% Calm Calm -- 30.04 in1017.3 mb 0.00 in0.0 mm 0.00 in0.0 mm 0.00 in0.0 mm
08:09 AM 54.3°F12.4°C 52.3°F11.3°C 93% Calm Calm -- 30.04 in1017.3 mb 0.00 in0.0 mm 0.00 in0.0 mm 0.00 in0.0 mm
08:10 AM 54.3°F12.4°C 52.3°F11.3°C 93% Calm Calm -- 30.04 in1017.3 mb 0.00 in0.0 mm 0.00 in0.0 mm 0.00 in0.0 mm
08:11 AM 54.3°F12.4°C 52.3°F11.3°C 93% Calm Calm -- 30.04 in1017.3 mb 0.00 in0.0 mm 0.00 in0.0 mm 0.00 in0.0 mm
08:12 AM 54.3°F12.4°C 52.3°F11.3°C 93% Calm Calm -- 30.04 in1017.3 mb 0.00 in0.0 mm 0.00 in0.0 mm 0.00 in0.0 mm
08:13 AM 54.3°F12.4°C 52.3°F11.3°C 93% Calm Calm -- 30.04 in1017.3 mb 0.00 in0.0 mm 0.00 in0.0 mm 0.00 in0.0 mm
08:14 AM 54.3°F12.4°C 52.3°F11.3°C 93% Calm Calm -- 30.04 in1017.3 mb 0.00 in0.0 mm 0.00 in0.0 mm 0.00 in0.0 mm
08:15 AM 54.3°F12.4°C 52.3°F11.3°C 93% Calm Calm -- 30.04 in1017.3 mb 0.00 in0.0 mm 0.00 in0.0 mm 0.00 in0.0 mm
08:16 AM 54.3°F12.4°C 52.3°F11.3°C 93% Calm Calm -- 30.04 in1017.3 mb 0.00 in0.0 mm 0.00 in0.0 mm 0.00 in0.0 mm
08:17 AM 54.5°F12.5°C 52.5°F11.4°C 93% Calm Calm -- 30.04 in1017.3 mb 0.00 in0.0 mm 0.00 in0.0 mm 0.00 in0.0 mm
08:18 AM 54.5°F12.5°C 52.5°F11.4°C 93% Calm Calm -- 30.04 in1017.3 mb 0.00 in0.0 mm 0.00 in0.0 mm 0.00 in0.0 mm
08:19 AM 54.5°F12.5°C 52.5°F11.4°C 93% Calm Calm -- 30.04 in1017.3 mb 0.00 in0.0 mm 0.00 in0.0 mm 0.00 in0.0 mm
08:20 AM 54.7°F12.6°C 52.7°F11.5°C 93% Calm Calm -- 30.04 in1017.3 mb 0.00 in0.0 mm 0.00 in0.0 mm 0.00 in0.0 mm
08:21 AM 54.7°F12.6°C 52.7°F11.5°C 93% Calm Calm -- 30.04 in1017.3 mb 0.00 in0.0 mm 0.00 in0.0 mm 0.00 in0.0 mm
08:22 AM 54.7°F12.6°C 52.7°F11.5°C 93% Calm Calm -- 30.04 in1017.3 mb 0.00 in0.0 mm 0.00 in0.0 mm 0.00 in0.0 mm
08:23 AM 54.7°F12.6°C 52.7°F11.5°C 93% Calm Calm -- 30.04 in1017.3 mb 0.00 in0.0 mm 0.00 in0.0 mm 0.00 in0.0 mm
08:24 AM 54.7°F12.6°C 52.7°F11.5°C 93% Calm Calm -- 30.04 in1017.3 mb 0.00 in0.0 mm 0.00 in0.0 mm 0.00 in0.0 mm
08:25 AM 54.7°F12.6°C 52.7°F11.5°C 93% Calm Calm -- 30.04 in1017.3 mb 0.00 in0.0 mm 0.00 in0.0 mm 0.00 in0.0 mm
08:26 AM 54.9°F12.7°C 52.9°F11.6°C 93% Calm Calm -- 30.04 in1017.3 mb 0.00 in0.0 mm 0.00 in0.0 mm 0.00 in0.0 mm
08:27 AM 54.9°F12.7°C 52.9°F11.6°C 93% Calm Calm -- 30.04 in1017.3 mb 0.00 in0.0 mm 0.00 in0.0 mm 0.00 in0.0 mm
08:28 AM 55.0°F12.8°C 53.0°F11.7°C 93% Calm Calm -- 30.04 in1017.3 mb 0.00 in0.0 mm 0.00 in0.0 mm 0.00 in0.0 mm
08:29 AM 55.0°F12.8°C 53.0°F11.7°C 93% Calm Calm -- 30.04 in1017.3 mb 0.00 in0.0 mm 0.00 in0.0 mm 0.00 in0.0 mm
08:30 AM 55.0°F12.8°C 53.0°F11.7°C 93% Calm Calm -- 30.04 in1017.3 mb 0.00 in0.0 mm 0.00 in0.0 mm 0.00 in0.0 mm
08:31 AM 55.2°F12.9°C 53.2°F11.8°C 93% Calm Calm -- 30.05 in1017.6 mb 0.00 in0.0 mm 0.00 in0.0 mm 0.00 in0.0 mm
08:32 AM 55.2°F12.9°C 53.2°F11.8°C 93% Calm Calm -- 30.05 in1017.6 mb 0.00 in0.0 mm 0.00 in0.0 mm 0.00 in0.0 mm
08:33 AM 55.2°F12.9°C 53.2°F11.8°C 93% Calm Calm -- 30.05 in1017.6 mb 0.00 in0.0 mm 0.00 in0.0 mm 0.00 in0.0 mm
08:34 AM 55.4°F13.0°C 53.4°F11.9°C 93% Calm Calm -- 30.05 in1017.6 mb 0.00 in0.0 mm 0.00 in0.0 mm 0.00 in0.0 mm
08:35 AM 55.4°F13.0°C 53.4°F11.9°C 93% Calm Calm -- 30.05 in1017.6 mb 0.00 in0.0 mm 0.00 in0.0 mm 0.00 in0.0 mm
08:36 AM 55.6°F13.1°C 53.9°F12.2°C 94% Calm Calm -- 30.05 in1017.6 mb 0.00 in0.0 mm 0.00 in0.0 mm 0.00 in0.0 mm
08:37 AM 55.8°F13.2°C 54.1°F12.3°C 94% Calm Calm -- 30.05 in1017.6 mb 0.00 in0.0 mm 0.00 in0.0 mm 0.00 in0.0 mm
08:38 AM 55.9°F13.3°C 54.2°F12.3°C 94% Calm Calm -- 30.05 in1017.6 mb 0.00 in0.0 mm 0.00 in0.0 mm 0.00 in0.0 mm
08:39 AM 56.1°F13.4°C 54.4°F12.4°C 94% Calm Calm -- 30.05 in1017.6 mb 0.00 in0.0 mm 0.00 in0.0 mm 0.00 in0.0 mm
08:40 AM 56.1°F13.4°C 54.4°F12.4°C 94% Calm Calm -- 30.05 in1017.6 mb 0.00 in0.0 mm 0.00 in0.0 mm 0.00 in0.0 mm
08:41 AM 56.3°F13.5°C 54.6°F12.6°C 94% Calm Calm -- 30.05 in1017.6 mb 0.00 in0.0 mm 0.00 in0.0 mm 0.00 in0.0 mm
08:42 AM 56.5°F13.6°C 54.8°F12.7°C 94% Calm Calm -- 30.05 in1017.6 mb 0.00 in0.0 mm 0.00 in0.0 mm 0.00 in0.0 mm
08:43 AM 56.5°F13.6°C 54.8°F12.7°C 94% Calm Calm -- 30.05 in1017.6 mb 0.00 in0.0 mm 0.00 in0.0 mm 0.00 in0.0 mm
08:44 AM 56.7°F13.7°C 55.3°F12.9°C 95% Calm Calm -- 30.05 in1017.6 mb 0.00 in0.0 mm 0.00 in0.0 mm 0.00 in0.0 mm
08:45 AM 56.7°F13.7°C 55.3°F12.9°C 95% Calm Calm -- 30.05 in1017.6 mb 0.00 in0.0 mm 0.00 in0.0 mm 0.00 in0.0 mm
08:46 AM 56.8°F13.8°C 55.4°F13.0°C 95% Calm Calm -- 30.05 in1017.6 mb 0.00 in0.0 mm 0.00 in0.0 mm 0.00 in0.0 mm
08:47 AM 57.0°F13.9°C 55.6°F13.1°C 95% Calm Calm -- 30.05 in1017.6 mb 0.00 in0.0 mm 0.00 in0.0 mm 0.00 in0.0 mm
08:48 AM 57.0°F13.9°C 55.6°F13.1°C 95% Calm Calm -- 30.05 in1017.6 mb 0.00 in0.0 mm 0.00 in0.0 mm 0.00 in0.0 mm
08:49 AM 57.2°F14.0°C 55.8°F13.2°C 95% Calm Calm -- 30.05 in1017.6 mb 0.00 in0.0 mm 0.00 in0.0 mm 0.00 in0.0 mm
08:50 AM 57.2°F14.0°C 55.8°F13.2°C 95% Calm Calm -- 30.05 in1017.6 mb 0.00 in0.0 mm 0.00 in0.0 mm 0.00 in0.0 mm
08:51 AM 57.4°F14.1°C 56.0°F13.3°C 95% Calm Calm -- 30.05 in1017.6 mb 0.00 in0.0 mm 0.00 in0.0 mm 0.00 in0.0 mm
08:52 AM 57.6°F14.2°C 56.2°F13.4°C 95% Calm Calm -- 30.05 in1017.6 mb 0.00 in0.0 mm 0.00 in0.0 mm 0.00 in0.0 mm
08:53 AM 57.7°F14.3°C 56.3°F13.5°C 95% Calm Calm -- 30.05 in1017.6 mb 0.00 in0.0 mm 0.00 in0.0 mm 0.00 in0.0 mm
08:54 AM 57.7°F14.3°C 56.3°F13.5°C 95% Calm Calm -- 30.05 in1017.6 mb 0.00 in0.0 mm 0.00 in0.0 mm 0.00 in0.0 mm
08:55 AM 57.7°F14.3°C 56.3°F13.5°C 95% Calm Calm -- 30.05 in1017.6 mb 0.00 in0.0 mm 0.00 in0.0 mm 0.00 in0.0 mm
08:56 AM 57.9°F14.4°C 56.5°F13.6°C 95% Calm Calm -- 30.05 in1017.6 mb 0.00 in0.0 mm 0.00 in0.0 mm 0.00 in0.0 mm
08:57 AM 57.9°F14.4°C 56.5°F13.6°C 95% Calm Calm -- 30.05 in1017.6 mb 0.00 in0.0 mm 0.00 in0.0 mm 0.00 in0.0 mm
08:58 AM 58.1°F14.5°C 56.7°F13.7°C 95% Calm Calm -- 30.05 in1017.6 mb 0.00 in0.0 mm 0.00 in0.0 mm 0.00 in0.0 mm
08:59 AM 58.1°F14.5°C 56.7°F13.7°C 95% Calm Calm -- 30.05 in1017.6 mb 0.00 in0.0 mm 0.00 in0.0 mm 0.00 in0.0 mm
09:00 AM 58.1°F14.5°C 56.7°F13.7°C 95% Calm Calm -- 30.05 in1017.6 mb 0.00 in0.0 mm 0.00 in0.0 mm 0.00 in0.0 mm
09:01 AM 58.1°F14.5°C 56.7°F13.7°C 95% Calm Calm -- 30.05 in1017.6 mb 0.00 in0.0 mm 0.00 in0.0 mm 0.00 in0.0 mm
09:02 AM 58.1°F14.5°C 56.7°F13.7°C 95% Calm Calm -- 30.05 in1017.6 mb 0.00 in0.0 mm 0.00 in0.0 mm 0.00 in0.0 mm
09:03 AM 58.3°F14.6°C 56.9°F13.8°C 95% Calm Calm -- 30.05 in1017.6 mb 0.00 in0.0 mm 0.00 in0.0 mm 0.00 in0.0 mm
09:04 AM 58.5°F14.7°C 57.1°F13.9°C 95% Calm Calm -- 30.05 in1017.6 mb 0.00 in0.0 mm 0.00 in0.0 mm 0.00 in0.0 mm
09:05 AM 58.5°F14.7°C 57.1°F13.9°C 95% Calm Calm -- 30.05 in1017.6 mb 0.00 in0.0 mm 0.00 in0.0 mm 0.00 in0.0 mm
09:06 AM 58.5°F14.7°C 57.1°F13.9°C 95% Calm Calm -- 30.05 in1017.6 mb 0.00 in0.0 mm 0.00 in0.0 mm 0.00 in0.0 mm
09:07 AM 58.5°F14.7°C 57.1°F13.9°C 95% Calm Calm -- 30.06 in1017.9 mb 0.00 in0.0 mm 0.00 in0.0 mm 0.00 in0.0 mm
09:08 AM 58.5°F14.7°C 57.1°F13.9°C 95% Calm Calm -- 30.06 in1017.9 mb 0.00 in0.0 mm 0.00 in0.0 mm 0.00 in0.0 mm
09:09 AM 58.6°F14.8°C 57.2°F14.0°C 95% Calm Calm -- 30.06 in1017.9 mb 0.00 in0.0 mm 0.00 in0.0 mm 0.00 in0.0 mm
09:10 AM 58.6°F14.8°C 57.2°F14.0°C 95% Calm Calm -- 30.06 in1017.9 mb 0.00 in0.0 mm 0.00 in0.0 mm 0.00 in0.0 mm
09:11 AM 58.8°F14.9°C 57.4°F14.1°C 95% Calm Calm -- 30.06 in1017.9 mb 0.00 in0.0 mm 0.00 in0.0 mm 0.00 in0.0 mm
09:12 AM 58.8°F14.9°C 57.4°F14.1°C 95% Calm Calm -- 30.06 in1017.9 mb 0.00 in0.0 mm 0.00 in0.0 mm 0.00 in0.0 mm
09:13 AM 58.8°F14.9°C 57.4°F14.1°C 95% Calm Calm -- 30.06 in1017.9 mb 0.00 in0.0 mm 0.00 in0.0 mm 0.00 in0.0 mm
09:14 AM 59.2°F15.1°C 57.5°F14.2°C 94% Calm Calm -- 30.06 in1017.9 mb 0.00 in0.0 mm 0.00 in0.0 mm 0.00 in0.0 mm
09:15 AM 59.2°F15.1°C 57.5°F14.2°C 94% Calm Calm -- 30.06 in1017.9 mb 0.00 in0.0 mm 0.00 in0.0 mm 0.00 in0.0 mm
09:16 AM 59.2°F15.1°C 57.2°F14.0°C 93% Calm Calm -- 30.06 in1017.9 mb 0.00 in0.0 mm 0.00 in0.0 mm 0.00 in0.0 mm
09:17 AM 59.2°F15.1°C 57.2°F14.0°C 93% Calm Calm -- 30.06 in1017.9 mb 0.00 in0.0 mm 0.00 in0.0 mm 0.00 in0.0 mm
09:18 AM 59.2°F15.1°C 57.2°F14.0°C 93% Calm Calm -- 30.06 in1017.9 mb 0.00 in0.0 mm 0.00 in0.0 mm 0.00 in0.0 mm
09:19 AM 59.4°F15.2°C 57.1°F13.9°C 92% Calm Calm -- 30.06 in1017.9 mb 0.00 in0.0 mm 0.00 in0.0 mm 0.00 in0.0 mm
09:20 AM 59.4°F15.2°C 57.1°F13.9°C 92% Calm Calm -- 30.06 in1017.9 mb 0.00 in0.0 mm 0.00 in0.0 mm 0.00 in0.0 mm
09:21 AM 59.5°F15.3°C 57.2°F14.0°C 92% Calm Calm -- 30.06 in1017.9 mb 0.00 in0.0 mm 0.00 in0.0 mm 0.00 in0.0 mm
09:22 AM 59.7°F15.4°C 57.4°F14.1°C 92% Calm Calm -- 30.06 in1017.9 mb 0.00 in0.0 mm 0.00 in0.0 mm 0.00 in0.0 mm
09:23 AM 59.7°F15.4°C 57.4°F14.1°C 92% Calm Calm -- 30.06 in1017.9 mb 0.00 in0.0 mm 0.00 in0.0 mm 0.00 in0.0 mm
09:24 AM 59.7°F15.4°C 57.4°F14.1°C 92% Calm Calm -- 30.06 in1017.9 mb 0.00 in0.0 mm 0.00 in0.0 mm 0.00 in0.0 mm
09:25 AM 59.9°F15.5°C 57.6°F14.2°C 92% Calm Calm -- 30.06 in1017.9 mb 0.00 in0.0 mm 0.00 in0.0 mm 0.00 in0.0 mm
09:26 AM 59.9°F15.5°C 57.6°F14.2°C 92% Calm Calm -- 30.06 in1017.9 mb 0.00 in0.0 mm 0.00 in0.0 mm 0.00 in0.0 mm
09:27 AM 60.3°F15.7°C 57.4°F14.1°C 90% Calm Calm -- 30.06 in1017.9 mb 0.00 in0.0 mm 0.00 in0.0 mm 0.00 in0.0 mm
09:28 AM 60.3°F15.7°C 57.4°F14.1°C 90% Calm Calm -- 30.06 in1017.9 mb 0.00 in0.0 mm 0.00 in0.0 mm 0.00 in0.0 mm
09:29 AM 60.4°F15.8°C 57.5°F14.2°C 90% Calm Calm -- 30.06 in1017.9 mb 0.00 in0.0 mm 0.00 in0.0 mm 0.00 in0.0 mm
09:30 AM 60.4°F15.8°C 57.5°F14.2°C 90% Calm Calm -- 30.06 in1017.9 mb 0.00 in0.0 mm 0.00 in0.0 mm 0.00 in0.0 mm
09:31 AM 60.6°F15.9°C 57.6°F14.2°C 90% Calm Calm -- 30.06 in1017.9 mb 0.00 in0.0 mm 0.00 in0.0 mm 0.00 in0.0 mm
09:32 AM 60.8°F16.0°C 57.8°F14.3°C 90% Calm Calm -- 30.06 in1017.9 mb 0.00 in0.0 mm 0.00 in0.0 mm 0.00 in0.0 mm
09:33 AM 60.8°F16.0°C 57.5°F14.2°C 89% Calm Calm -- 30.06 in1017.9 mb 0.00 in0.0 mm 0.00 in0.0 mm 0.00 in0.0 mm
09:34 AM 61.0°F16.1°C 57.7°F14.3°C 89% Calm Calm -- 30.06 in1017.9 mb 0.00 in0.0 mm 0.00 in0.0 mm 0.00 in0.0 mm
09:35 AM 61.2°F16.2°C 57.9°F14.4°C 89% Calm Calm -- 30.06 in1017.9 mb 0.00 in0.0 mm 0.00 in0.0 mm 0.00 in0.0 mm
09:36 AM 61.2°F16.2°C 57.6°F14.2°C 88% Calm Calm -- 30.06 in1017.9 mb 0.00 in0.0 mm 0.00 in0.0 mm 0.00 in0.0 mm
09:37 AM 61.3°F16.3°C 57.7°F14.3°C 88% Calm Calm -- 30.06 in1017.9 mb 0.00 in0.0 mm 0.00 in0.0 mm 0.00 in0.0 mm
09:38 AM 61.3°F16.3°C 57.7°F14.3°C 88% Calm Calm -- 30.06 in1017.9 mb 0.00 in0.0 mm 0.00 in0.0 mm 0.00 in0.0 mm
09:39 AM 61.5°F16.4°C 57.9°F14.4°C 88% Calm Calm -- 30.06 in1017.9 mb 0.00 in0.0 mm 0.00 in0.0 mm 0.00 in0.0 mm
09:40 AM 61.7°F16.5°C 57.1°F13.9°C 85% Calm Calm -- 30.06 in1017.9 mb 0.00 in0.0 mm 0.00 in0.0 mm 0.00 in0.0 mm
09:41 AM 62.1°F16.7°C 57.2°F14.0°C 84% Calm Calm -- 30.06 in1017.9 mb 0.00 in0.0 mm 0.00 in0.0 mm 0.00 in0.0 mm
09:42 AM 62.2°F16.8°C 57.3°F14.1°C 84% Calm Calm -- 30.06 in1017.9 mb 0.00 in0.0 mm 0.00 in0.0 mm 0.00 in0.0 mm
09:43 AM 62.2°F16.8°C 57.3°F14.1°C 84% Calm Calm -- 30.06 in1017.9 mb 0.00 in0.0 mm 0.00 in0.0 mm 0.00 in0.0 mm
09:44 AM 62.4°F16.9°C 57.2°F14.0°C 83% Calm Calm -- 30.06 in1017.9 mb 0.00 in0.0 mm 0.00 in0.0 mm 0.00 in0.0 mm
09:45 AM 62.6°F17.0°C 57.4°F14.1°C 83% Calm Calm -- 30.06 in1017.9 mb 0.00 in0.0 mm 0.00 in0.0 mm 0.00 in0.0 mm
09:46 AM 63.0°F17.2°C 57.4°F14.1°C 82% Calm Calm -- 30.06 in1017.9 mb 0.00 in0.0 mm 0.00 in0.0 mm 0.00 in0.0 mm
09:47 AM 63.1°F17.3°C 57.5°F14.2°C 82% Calm Calm -- 30.06 in1017.9 mb 0.00 in0.0 mm 0.00 in0.0 mm 0.00 in0.0 mm
09:48 AM 63.7°F17.6°C 57.4°F14.1°C 80% Calm Calm -- 30.06 in1017.9 mb 0.00 in0.0 mm 0.00 in0.0 mm 0.00 in0.0 mm
09:49 AM 64.2°F17.9°C 57.2°F14.0°C 78% Calm Calm -- 30.06 in1017.9 mb 0.00 in0.0 mm 0.00 in0.0 mm 0.00 in0.0 mm
09:50 AM 64.4°F18.0°C 57.0°F13.9°C 77% Calm Calm -- 30.06 in1017.9 mb 0.00 in0.0 mm 0.00 in0.0 mm 0.00 in0.0 mm
09:51 AM 64.6°F18.1°C 57.2°F14.0°C 77% Calm Calm -- 30.06 in1017.9 mb 0.00 in0.0 mm 0.00 in0.0 mm 0.00 in0.0 mm
09:52 AM 64.6°F18.1°C 57.2°F14.0°C 77% Calm Calm -- 30.06 in1017.9 mb 0.00 in0.0 mm 0.00 in0.0 mm 0.00 in0.0 mm
09:53 AM 64.4°F18.0°C 57.0°F13.9°C 77% Calm Calm -- 30.06 in1017.9 mb 0.00 in0.0 mm 0.00 in0.0 mm 0.00 in0.0 mm
09:54 AM 64.9°F18.3°C 57.1°F13.9°C 76% Calm Calm -- 30.06 in1017.9 mb 0.00 in0.0 mm 0.00 in0.0 mm 0.00 in0.0 mm
09:55 AM 65.3°F18.5°C 56.8°F13.8°C 74% Calm Calm -- 30.06 in1017.9 mb 0.00 in0.0 mm 0.00 in0.0 mm 0.00 in0.0 mm
09:56 AM 65.7°F18.7°C 57.2°F14.0°C 74% Calm Calm -- 30.06 in1017.9 mb 0.00 in0.0 mm 0.00 in0.0 mm 0.00 in0.0 mm
09:57 AM 66.2°F19.0°C 57.3°F14.1°C 73% Calm Calm -- 30.06 in1017.9 mb 0.00 in0.0 mm 0.00 in0.0 mm 0.00 in0.0 mm
09:58 AM 66.0°F18.9°C 57.5°F14.2°C 74% Calm Calm -- 30.06 in1017.9 mb 0.00 in0.0 mm 0.00 in0.0 mm 0.00 in0.0 mm
09:59 AM 66.0°F18.9°C 57.5°F14.2°C 74% Calm Calm -- 30.06 in1017.9 mb 0.00 in0.0 mm 0.00 in0.0 mm 0.00 in0.0 mm
10:00 AM 66.4°F19.1°C 57.1°F13.9°C 72% Calm Calm -- 30.06 in1017.9 mb 0.00 in0.0 mm 0.00 in0.0 mm 0.00 in0.0 mm
10:01 AM 66.7°F19.3°C 56.6°F13.7°C 70% Calm Calm -- 30.06 in1017.9 mb 0.00 in0.0 mm 0.00 in0.0 mm 0.00 in0.0 mm
10:02 AM 67.6°F19.8°C 56.7°F13.7°C 68% Calm Calm -- 30.06 in1017.9 mb 0.00 in0.0 mm 0.00 in0.0 mm 0.00 in0.0 mm
10:03 AM 68.0°F20.0°C 57.0°F13.9°C 68% Calm Calm -- 30.06 in1017.9 mb 0.00 in0.0 mm 0.00 in0.0 mm 0.00 in0.0 mm
10:04 AM 68.5°F20.3°C 57.1°F13.9°C 67% Calm Calm -- 30.06 in1017.9 mb 0.00 in0.0 mm 0.00 in0.0 mm 0.00 in0.0 mm
10:05 AM 68.5°F20.3°C 57.1°F13.9°C 67% Calm Calm -- 30.06 in1017.9 mb 0.00 in0.0 mm 0.00 in0.0 mm 0.00 in0.0 mm
10:06 AM 68.7°F20.4°C 57.7°F14.3°C 68% Calm Calm -- 30.06 in1017.9 mb 0.00 in0.0 mm 0.00 in0.0 mm 0.00 in0.0 mm
10:07 AM 68.5°F20.3°C 57.5°F14.2°C 68% Calm Calm -- 30.06 in1017.9 mb 0.00 in0.0 mm 0.00 in0.0 mm 0.00 in0.0 mm
10:08 AM 69.4°F20.8°C 57.1°F13.9°C 65% Calm Calm -- 30.06 in1017.9 mb 0.00 in0.0 mm 0.00 in0.0 mm 0.00 in0.0 mm
10:09 AM 70.9°F21.6°C 57.2°F14.0°C 62% Calm Calm -- 30.06 in1017.9 mb 0.00 in0.0 mm 0.00 in0.0 mm 0.00 in0.0 mm
10:10 AM 71.2°F21.8°C 57.1°F13.9°C 61% Calm Calm -- 30.06 in1017.9 mb 0.00 in0.0 mm 0.00 in0.0 mm 0.00 in0.0 mm
10:11 AM 72.0°F22.2°C 57.3°F14.1°C 60% Calm Calm -- 30.06 in1017.9 mb 0.00 in0.0 mm 0.00 in0.0 mm 0.00 in0.0 mm
10:12 AM 72.0°F22.2°C 57.3°F14.1°C 60% Calm Calm -- 30.06 in1017.9 mb 0.00 in0.0 mm 0.00 in0.0 mm 0.00 in0.0 mm
10:13 AM 72.1°F22.3°C 57.4°F14.1°C 60% Calm Calm -- 30.06 in1017.9 mb 0.00 in0.0 mm 0.00 in0.0 mm 0.00 in0.0 mm
10:14 AM 72.0°F22.2°C 58.7°F14.8°C 63% Calm Calm -- 30.06 in1017.9 mb 0.00 in0.0 mm 0.00 in0.0 mm 0.00 in0.0 mm
10:15 AM 72.0°F22.2°C 58.7°F14.8°C 63% Calm Calm -- 30.06 in1017.9 mb 0.00 in0.0 mm 0.00 in0.0 mm 0.00 in0.0 mm
10:16 AM 72.5°F22.5°C 57.8°F14.3°C 60% Calm Calm -- 30.06 in1017.9 mb 0.00 in0.0 mm 0.00 in0.0 mm 0.00 in0.0 mm
10:17 AM 72.9°F22.7°C 57.7°F14.3°C 59% Calm Calm -- 30.06 in1017.9 mb 0.00 in0.0 mm 0.00 in0.0 mm 0.00 in0.0 mm
10:18 AM 72.5°F22.5°C 57.8°F14.3°C 60% Calm Calm -- 30.06 in1017.9 mb 0.00 in0.0 mm 0.00 in0.0 mm 0.00 in0.0 mm
10:19 AM 72.1°F22.3°C 57.9°F14.4°C 61% Calm Calm -- 30.06 in1017.9 mb 0.00 in0.0 mm 0.00 in0.0 mm 0.00 in0.0 mm
10:20 AM 72.0°F22.2°C 57.8°F14.3°C 61% Calm Calm -- 30.06 in1017.9 mb 0.00 in0.0 mm 0.00 in0.0 mm 0.00 in0.0 mm
10:21 AM 71.6°F22.0°C 57.9°F14.4°C 62% Calm Calm -- 30.06 in1017.9 mb 0.00 in0.0 mm 0.00 in0.0 mm 0.00 in0.0 mm
10:22 AM 71.8°F22.1°C 58.5°F14.7°C 63% 2.2 mph S3.5 kmh S 2.2 mph3.5 kmh 30.06 in1017.9 mb 0.00 in0.0 mm 0.00 in0.0 mm 0.00 in0.0 mm
10:23 AM 72.0°F22.2°C 58.3°F14.6°C 62% Calm Calm 2.2 mph3.5 kmh 30.06 in1017.9 mb 0.00 in0.0 mm 0.00 in0.0 mm 0.00 in0.0 mm
10:24 AM 72.3°F22.4°C 58.1°F14.5°C 61% 2.7 mph WNW4.3 kmh WNW 2.7 mph4.3 kmh 30.06 in1017.9 mb 0.00 in0.0 mm 0.00 in0.0 mm 0.00 in0.0 mm
10:25 AM 72.3°F22.4°C 57.6°F14.2°C 60% 1.1 mph S1.8 kmh S 2.7 mph4.3 kmh 30.06 in1017.9 mb 0.00 in0.0 mm 0.00 in0.0 mm 0.00 in0.0 mm
10:26 AM 73.0°F22.8°C 57.8°F14.3°C 59% 2.2 mph E3.5 kmh E 2.7 mph4.3 kmh 30.06 in1017.9 mb 0.00 in0.0 mm 0.00 in0.0 mm 0.00 in0.0 mm
10:27 AM 73.2°F22.9°C 58.5°F14.7°C 60% Calm Calm 2.7 mph4.3 kmh 30.06 in1017.9 mb 0.00 in0.0 mm 0.00 in0.0 mm 0.00 in0.0 mm
10:28 AM 73.8°F23.2°C 58.6°F14.8°C 59% Calm Calm 2.7 mph4.3 kmh 30.06 in1017.9 mb 0.00 in0.0 mm 0.00 in0.0 mm 0.00 in0.0 mm
10:29 AM 73.9°F23.3°C 57.7°F14.3°C 57% Calm Calm 2.7 mph4.3 kmh 30.06 in1017.9 mb 0.00 in0.0 mm 0.00 in0.0 mm 0.00 in0.0 mm
10:30 AM 73.9°F23.3°C 57.7°F14.3°C 57% 3.2 mph SSE5.1 kmh SSE 3.7 mph6.0 kmh 30.06 in1017.9 mb 0.00 in0.0 mm 0.00 in0.0 mm 0.00 in0.0 mm
10:31 AM 73.8°F23.2°C 57.6°F14.2°C 57% 1.7 mph SSE2.7 kmh SSE 3.7 mph6.0 kmh 30.06 in1017.9 mb 0.00 in0.0 mm 0.00 in0.0 mm 0.00 in0.0 mm
10:32 AM 74.3°F23.5°C 57.6°F14.2°C 56% Calm Calm 3.7 mph6.0 kmh 30.06 in1017.9 mb 0.00 in0.0 mm 0.00 in0.0 mm 0.00 in0.0 mm
10:33 AM 73.9°F23.3°C 58.2°F14.6°C 58% Calm Calm 3.7 mph6.0 kmh 30.06 in1017.9 mb 0.00 in0.0 mm 0.00 in0.0 mm 0.00 in0.0 mm
10:34 AM 73.8°F23.2°C 58.1°F14.5°C 58% Calm Calm 3.7 mph6.0 kmh 30.06 in1017.9 mb 0.00 in0.0 mm 0.00 in0.0 mm 0.00 in0.0 mm
10:35 AM 74.5°F23.6°C 58.3°F14.6°C 57% 1.7 mph ESE2.7 kmh ESE 3.7 mph6.0 kmh 30.06 in1017.9 mb 0.00 in0.0 mm 0.00 in0.0 mm 0.00 in0.0 mm
10:36 AM 74.3°F23.5°C 58.6°F14.8°C 58% 1.1 mph SSE1.8 kmh SSE 3.7 mph6.0 kmh 30.06 in1017.9 mb 0.00 in0.0 mm 0.00 in0.0 mm 0.00 in0.0 mm
10:37 AM 74.7°F23.7°C 57.9°F14.4°C 56% Calm Calm 3.7 mph6.0 kmh 30.06 in1017.9 mb 0.00 in0.0 mm 0.00 in0.0 mm 0.00 in0.0 mm
10:38 AM 74.8°F23.8°C 58.0°F14.4°C 56% Calm Calm 3.7 mph6.0 kmh 30.06 in1017.9 mb 0.00 in0.0 mm 0.00 in0.0 mm 0.00 in0.0 mm
10:39 AM 74.7°F23.7°C 57.9°F14.4°C 56% Calm Calm 3.7 mph6.0 kmh 30.06 in1017.9 mb 0.00 in0.0 mm 0.00 in0.0 mm 0.00 in0.0 mm
10:40 AM 74.7°F23.7°C 57.9°F14.4°C 56% Calm Calm 2.7 mph4.3 kmh 30.06 in1017.9 mb 0.00 in0.0 mm 0.00 in0.0 mm 0.00 in0.0 mm
10:41 AM 74.7°F23.7°C 57.9°F14.4°C 56% Calm Calm 1.7 mph2.7 kmh 30.06 in1017.9 mb 0.00 in0.0 mm 0.00 in0.0 mm 0.00 in0.0 mm
10:42 AM 73.6°F23.1°C 57.9°F14.4°C 58% Calm Calm 1.7 mph2.7 kmh 30.06 in1017.9 mb 0.00 in0.0 mm 0.00 in0.0 mm 0.00 in0.0 mm
10:43 AM 73.4°F23.0°C 58.2°F14.6°C 59% Calm Calm 1.7 mph2.7 kmh 30.07 in1018.3 mb 0.00 in0.0 mm 0.00 in0.0 mm 0.00 in0.0 mm
10:44 AM 73.4°F23.0°C 57.7°F14.3°C 58% Calm Calm 1.7 mph2.7 kmh 30.07 in1018.3 mb 0.00 in0.0 mm 0.00 in0.0 mm 0.00 in0.0 mm
10:45 AM 73.9°F23.3°C 57.7°F14.3°C 57% Calm Calm 1.7 mph2.7 kmh 30.07 in1018.3 mb 0.00 in0.0 mm 0.00 in0.0 mm 0.00 in0.0 mm
10:46 AM 74.7°F23.7°C 57.9°F14.4°C 56% Calm Calm 1.1 mph1.8 kmh 30.07 in1018.3 mb 0.00 in0.0 mm 0.00 in0.0 mm 0.00 in0.0 mm
10:47 AM 74.7°F23.7°C 58.4°F14.7°C 57% Calm Calm -- 30.07 in1018.3 mb 0.00 in0.0 mm 0.00 in0.0 mm 0.00 in0.0 mm
10:48 AM 74.7°F23.7°C 58.4°F14.7°C 57% Calm Calm -- 30.07 in1018.3 mb 0.00 in0.0 mm 0.00 in0.0 mm 0.00 in0.0 mm
10:49 AM 74.5°F23.6°C 58.3°F14.6°C 57% Calm Calm -- 30.07 in1018.3 mb 0.00 in0.0 mm 0.00 in0.0 mm 0.00 in0.0 mm
10:50 AM 74.7°F23.7°C 57.9°F14.4°C 56% Calm Calm -- 30.07 in1018.3 mb 0.00 in0.0 mm 0.00 in0.0 mm 0.00 in0.0 mm
10:51 AM 74.8°F23.8°C 58.5°F14.7°C 57% Calm Calm -- 30.07 in1018.3 mb 0.00 in0.0 mm 0.00 in0.0 mm 0.00 in0.0 mm
10:52 AM 74.8°F23.8°C 58.0°F14.4°C 56% Calm Calm -- 30.07 in1018.3 mb 0.00 in0.0 mm 0.00 in0.0 mm 0.00 in0.0 mm
10:53 AM 75.0°F23.9°C 58.2°F14.6°C 56% Calm Calm -- 30.07 in1018.3 mb 0.00 in0.0 mm 0.00 in0.0 mm 0.00 in0.0 mm
10:54 AM 75.2°F24.0°C 58.4°F14.7°C 56% Calm Calm -- 30.07 in1018.3 mb 0.00 in0.0 mm 0.00 in0.0 mm 0.00 in0.0 mm
10:55 AM 75.0°F23.9°C 58.2°F14.6°C 56% Calm Calm -- 30.07 in1018.3 mb 0.00 in0.0 mm 0.00 in0.0 mm 0.00 in0.0 mm
10:56 AM 74.8°F23.8°C 58.5°F14.7°C 57% Calm Calm -- 30.07 in1018.3 mb 0.00 in0.0 mm 0.00 in0.0 mm 0.00 in0.0 mm
10:57 AM 74.8°F23.8°C 58.5°F14.7°C 57% Calm Calm -- 30.07 in1018.3 mb 0.00 in0.0 mm 0.00 in0.0 mm 0.00 in0.0 mm
10:58 AM 74.7°F23.7°C 58.4°F14.7°C 57% Calm Calm -- 30.07 in1018.3 mb 0.00 in0.0 mm 0.00 in0.0 mm 0.00 in0.0 mm
10:59 AM 74.7°F23.7°C 58.4°F14.7°C 57% Calm Calm -- 30.07 in1018.3 mb 0.00 in0.0 mm 0.00 in0.0 mm 0.00 in0.0 mm
11:00 AM 74.7°F23.7°C 58.4°F14.7°C 57% Calm Calm -- 30.07 in1018.3 mb 0.00 in0.0 mm 0.00 in0.0 mm 0.00 in0.0 mm
11:01 AM 75.0°F23.9°C 58.7°F14.8°C 57% Calm Calm -- 30.07 in1018.3 mb 0.00 in0.0 mm 0.00 in0.0 mm 0.00 in0.0 mm
11:02 AM 75.2°F24.0°C 58.4°F14.7°C 56% Calm Calm -- 30.07 in1018.3 mb 0.00 in0.0 mm 0.00 in0.0 mm 0.00 in0.0 mm
11:03 AM 75.4°F24.1°C 58.6°F14.8°C 56% 2.2 mph SSE3.5 kmh SSE 2.2 mph3.5 kmh 30.07 in1018.3 mb 0.00 in0.0 mm 0.00 in0.0 mm 0.00 in0.0 mm
11:04 AM 75.4°F24.1°C 58.1°F14.5°C 55% 2.2 mph W3.5 kmh W 3.2 mph5.1 kmh 30.07 in1018.3 mb 0.00 in0.0 mm 0.00 in0.0 mm 0.00 in0.0 mm
11:05 AM 75.2°F24.0°C 58.9°F14.9°C 57% 1.7 mph SSW2.7 kmh SSW 3.2 mph5.1 kmh 30.07 in1018.3 mb 0.00 in0.0 mm 0.00 in0.0 mm 0.00 in0.0 mm
11:06 AM 75.0°F23.9°C 58.7°F14.8°C 57% Calm Calm 3.2 mph5.1 kmh 30.07 in1018.3 mb 0.00 in0.0 mm 0.00 in0.0 mm 0.00 in0.0 mm
11:07 AM 74.8°F23.8°C 59.0°F15.0°C 58% Calm Calm 3.2 mph5.1 kmh 30.06 in1017.9 mb 0.00 in0.0 mm 0.00 in0.0 mm 0.00 in0.0 mm
11:08 AM 74.7°F23.7°C 58.9°F14.9°C 58% Calm Calm 3.2 mph5.1 kmh 30.06 in1017.9 mb 0.00 in0.0 mm 0.00 in0.0 mm 0.00 in0.0 mm
11:09 AM 74.5°F23.6°C 58.7°F14.8°C 58% Calm Calm 3.2 mph5.1 kmh 30.06 in1017.9 mb 0.00 in0.0 mm 0.00 in0.0 mm 0.00 in0.0 mm
11:10 AM 74.3°F23.5°C 58.1°F14.5°C 57% Calm Calm 3.2 mph5.1 kmh 30.06 in1017.9 mb 0.00 in0.0 mm 0.00 in0.0 mm 0.00 in0.0 mm
11:11 AM 74.3°F23.5°C 58.1°F14.5°C 57% Calm Calm 3.2 mph5.1 kmh 30.06 in1017.9 mb 0.00 in0.0 mm 0.00 in0.0 mm 0.00 in0.0 mm
11:12 AM 74.3°F23.5°C 58.1°F14.5°C 57% Calm Calm 3.2 mph5.1 kmh 30.06 in1017.9 mb 0.00 in0.0 mm 0.00 in0.0 mm 0.00 in0.0 mm
11:13 AM 74.1°F23.4°C 57.9°F14.4°C 57% Calm Calm 3.2 mph5.1 kmh 30.06 in1017.9 mb 0.00 in0.0 mm 0.00 in0.0 mm 0.00 in0.0 mm
11:14 AM 73.9°F23.3°C 57.7°F14.3°C 57% Calm Calm 2.2 mph3.5 kmh 30.06 in1017.9 mb 0.00 in0.0 mm 0.00 in0.0 mm 0.00 in0.0 mm
11:15 AM 73.9°F23.3°C 58.2°F14.6°C 58% Calm Calm 1.1 mph1.8 kmh 30.06 in1017.9 mb 0.00 in0.0 mm 0.00 in0.0 mm 0.00 in0.0 mm
11:16 AM 73.9°F23.3°C 58.2°F14.6°C 58% Calm Calm 1.1 mph1.8 kmh 30.06 in1017.9 mb 0.00 in0.0 mm 0.00 in0.0 mm 0.00 in0.0 mm
11:17 AM 73.9°F23.3°C 57.7°F14.3°C 57% Calm Calm 1.1 mph1.8 kmh 30.06 in1017.9 mb 0.00 in0.0 mm 0.00 in0.0 mm 0.00 in0.0 mm
11:18 AM 73.9°F23.3°C 57.7°F14.3°C 57% 2.7 mph SSE4.3 kmh SSE 4.7 mph7.6 kmh 30.06 in1017.9 mb 0.00 in0.0 mm 0.00 in0.0 mm 0.00 in0.0 mm
11:19 AM 73.8°F23.2°C 57.6°F14.2°C 57% 2.7 mph S4.3 kmh S 4.7 mph7.6 kmh 30.06 in1017.9 mb 0.00 in0.0 mm 0.00 in0.0 mm 0.00 in0.0 mm
11:20 AM 73.8°F23.2°C 57.6°F14.2°C 57% 1.7 mph SSE2.7 kmh SSE 4.7 mph7.6 kmh 30.06 in1017.9 mb 0.00 in0.0 mm 0.00 in0.0 mm 0.00 in0.0 mm
11:21 AM 73.8°F23.2°C 58.1°F14.5°C 58% Calm Calm 4.7 mph7.6 kmh 30.06 in1017.9 mb 0.00 in0.0 mm 0.00 in0.0 mm 0.00 in0.0 mm
11:22 AM 73.8°F23.2°C 58.6°F14.8°C 59% Calm Calm 4.7 mph7.6 kmh 30.06 in1017.9 mb 0.00 in0.0 mm 0.00 in0.0 mm 0.00 in0.0 mm
11:23 AM 73.9°F23.3°C 58.7°F14.8°C 59% Calm Calm 4.7 mph7.6 kmh 30.06 in1017.9 mb 0.00 in0.0 mm 0.00 in0.0 mm 0.00 in0.0 mm
11:24 AM 74.1°F23.4°C 57.9°F14.4°C 57% Calm Calm 4.7 mph7.6 kmh 30.06 in1017.9 mb 0.00 in0.0 mm 0.00 in0.0 mm 0.00 in0.0 mm
11:25 AM 74.1°F23.4°C 57.9°F14.4°C 57% 5.3 mph S8.5 kmh S 5.3 mph8.5 kmh 30.06 in1017.9 mb 0.00 in0.0 mm 0.00 in0.0 mm 0.00 in0.0 mm
11:26 AM 74.3°F23.5°C 58.1°F14.5°C 57% 2.7 mph SSE4.3 kmh SSE 5.3 mph8.5 kmh 30.06 in1017.9 mb 0.00 in0.0 mm 0.00 in0.0 mm 0.00 in0.0 mm
11:27 AM 74.3°F23.5°C 58.1°F14.5°C 57% 2.2 mph SE3.5 kmh SE 5.3 mph8.5 kmh 30.06 in1017.9 mb 0.00 in0.0 mm 0.00 in0.0 mm 0.00 in0.0 mm
11:28 AM 74.5°F23.6°C 57.8°F14.3°C 56% 1.7 mph S2.7 kmh S 5.3 mph8.5 kmh 30.06 in1017.9 mb 0.00 in0.0 mm 0.00 in0.0 mm 0.00 in0.0 mm
11:29 AM 74.8°F23.8°C 58.0°F14.4°C 56% 2.2 mph SE3.5 kmh SE 5.3 mph8.5 kmh 30.06 in1017.9 mb 0.00 in0.0 mm 0.00 in0.0 mm 0.00 in0.0 mm
11:30 AM 74.8°F23.8°C 58.0°F14.4°C 56% 2.7 mph SE4.3 kmh SE 5.3 mph8.5 kmh 30.06 in1017.9 mb 0.00 in0.0 mm 0.00 in0.0 mm 0.00 in0.0 mm
11:31 AM 75.2°F24.0°C 58.4°F14.7°C 56% 2.2 mph SSE3.5 kmh SSE 5.3 mph8.5 kmh 30.06 in1017.9 mb 0.00 in0.0 mm 0.00 in0.0 mm 0.00 in0.0 mm
11:32 AM 75.2°F24.0°C 58.4°F14.7°C 56% 1.7 mph SSE2.7 kmh SSE 5.3 mph8.5 kmh 30.06 in1017.9 mb 0.00 in0.0 mm 0.00 in0.0 mm 0.00 in0.0 mm
11:33 AM 75.2°F24.0°C 58.4°F14.7°C 56% 1.1 mph SSW1.8 kmh SSW 5.3 mph8.5 kmh 30.06 in1017.9 mb 0.00 in0.0 mm 0.00 in0.0 mm 0.00 in0.0 mm
11:34 AM 75.6°F24.2°C 58.3°F14.6°C 55% 2.2 mph SSE3.5 kmh SSE 5.3 mph8.5 kmh 30.06 in1017.9 mb 0.00 in0.0 mm 0.00 in0.0 mm 0.00 in0.0 mm
11:35 AM 75.7°F24.3°C 57.9°F14.4°C 54% 5.3 mph ESE8.5 kmh ESE 5.3 mph8.5 kmh 30.06 in1017.9 mb 0.00 in0.0 mm 0.00 in0.0 mm 0.00 in0.0 mm
11:36 AM 75.7°F24.3°C 57.3°F14.1°C 53% 4.7 mph ESE7.6 kmh ESE 5.8 mph9.3 kmh 30.06 in1017.9 mb 0.00 in0.0 mm 0.00 in0.0 mm 0.00 in0.0 mm
11:37 AM 75.7°F24.3°C 56.8°F13.8°C 52% 5.8 mph ESE9.3 kmh ESE 5.8 mph9.3 kmh 30.06 in1017.9 mb 0.00 in0.0 mm 0.00 in0.0 mm 0.00 in0.0 mm
11:38 AM 75.6°F24.2°C 56.7°F13.7°C 52% 9.4 mph E15.1 kmh E 9.4 mph15.1 kmh 30.06 in1017.9 mb 0.00 in0.0 mm 0.00 in0.0 mm 0.00 in0.0 mm
11:39 AM 75.7°F24.3°C 56.8°F13.8°C 52% 6.8 mph SE10.9 kmh SE 9.4 mph15.1 kmh 30.06 in1017.9 mb 0.00 in0.0 mm 0.00 in0.0 mm 0.00 in0.0 mm
11:40 AM 75.6°F24.2°C 56.2°F13.4°C 51% 4.7 mph SE7.6 kmh SE 9.4 mph15.1 kmh 30.06 in1017.9 mb 0.00 in0.0 mm 0.00 in0.0 mm 0.00 in0.0 mm
11:41 AM 75.6°F24.2°C 56.2°F13.4°C 51% 4.2 mph SSE6.8 kmh SSE 9.4 mph15.1 kmh 30.06 in1017.9 mb 0.00 in0.0 mm 0.00 in0.0 mm 0.00 in0.0 mm
11:42 AM 75.2°F24.0°C 56.3°F13.5°C 52% 3.2 mph SSE5.1 kmh SSE 9.4 mph15.1 kmh 30.06 in1017.9 mb 0.00 in0.0 mm 0.00 in0.0 mm 0.00 in0.0 mm
11:43 AM 75.0°F23.9°C 56.2°F13.4°C 52% 2.7 mph SE4.3 kmh SE 9.4 mph15.1 kmh 30.06 in1017.9 mb 0.00 in0.0 mm 0.00 in0.0 mm 0.00 in0.0 mm
11:44 AM 75.2°F24.0°C 56.9°F13.8°C 53% 2.7 mph SE4.3 kmh SE 9.4 mph15.1 kmh 30.06 in1017.9 mb 0.00 in0.0 mm 0.00 in0.0 mm 0.00 in0.0 mm
11:45 AM 75.2°F24.0°C 56.9°F13.8°C 53% 5.8 mph SSE9.3 kmh SSE 9.4 mph15.1 kmh 30.06 in1017.9 mb 0.00 in0.0 mm 0.00 in0.0 mm 0.00 in0.0 mm
11:46 AM 74.8°F23.8°C 56.0°F13.3°C 52% 4.7 mph SSE7.6 kmh SSE 9.4 mph15.1 kmh 30.06 in1017.9 mb 0.00 in0.0 mm 0.00 in0.0 mm 0.00 in0.0 mm
11:47 AM 74.3°F23.5°C 56.0°F13.3°C 53% 1.7 mph SSE2.7 kmh SSE 9.4 mph15.1 kmh 30.06 in1017.9 mb 0.00 in0.0 mm 0.00 in0.0 mm 0.00 in0.0 mm
11:48 AM 74.3°F23.5°C 56.0°F13.3°C 53% 7.3 mph ESE11.7 kmh ESE 9.4 mph15.1 kmh 30.06 in1017.9 mb 0.00 in0.0 mm 0.00 in0.0 mm 0.00 in0.0 mm
11:49 AM 74.8°F23.8°C 56.5°F13.6°C 53% 7.3 mph ESE11.7 kmh ESE 7.3 mph11.7 kmh 30.06 in1017.9 mb 0.00 in0.0 mm 0.00 in0.0 mm 0.00 in0.0 mm
11:50 AM 75.2°F24.0°C 56.9°F13.8°C 53% 8.3 mph ESE13.4 kmh ESE 8.3 mph13.4 kmh 30.06 in1017.9 mb 0.00 in0.0 mm 0.00 in0.0 mm 0.00 in0.0 mm
11:51 AM 75.4°F24.1°C 56.5°F13.6°C 52% 5.8 mph ESE9.3 kmh ESE 8.9 mph14.3 kmh 30.06 in1017.9 mb 0.00 in0.0 mm 0.00 in0.0 mm 0.00 in0.0 mm
11:52 AM 75.2°F24.0°C 56.3°F13.5°C 52% 5.3 mph ESE8.5 kmh ESE 8.9 mph14.3 kmh 30.06 in1017.9 mb 0.00 in0.0 mm 0.00 in0.0 mm 0.00 in0.0 mm
11:53 AM 75.0°F23.9°C 56.2°F13.4°C 52% 8.9 mph SSE14.3 kmh SSE 8.9 mph14.3 kmh 30.06 in1017.9 mb 0.00 in0.0 mm 0.00 in0.0 mm 0.00 in0.0 mm
11:54 AM 74.8°F23.8°C 56.0°F13.3°C 52% 4.2 mph SE6.8 kmh SE 8.9 mph14.3 kmh 30.06 in1017.9 mb 0.00 in0.0 mm 0.00 in0.0 mm 0.00 in0.0 mm
11:55 AM 74.7°F23.7°C 55.9°F13.3°C 52% 8.3 mph SE13.4 kmh SE 8.9 mph14.3 kmh 30.06 in1017.9 mb 0.00 in0.0 mm 0.00 in0.0 mm 0.00 in0.0 mm
11:56 AM 74.7°F23.7°C 55.9°F13.3°C 52% 4.2 mph SE6.8 kmh SE 8.9 mph14.3 kmh 30.06 in1017.9 mb 0.00 in0.0 mm 0.00 in0.0 mm 0.00 in0.0 mm
11:57 AM 74.5°F23.6°C 56.2°F13.4°C 53% 4.2 mph SSE6.8 kmh SSE 8.9 mph14.3 kmh 30.06 in1017.9 mb 0.00 in0.0 mm 0.00 in0.0 mm 0.00 in0.0 mm
11:58 AM 74.3°F23.5°C 56.0°F13.3°C 53% 3.2 mph SSE5.1 kmh SSE 8.9 mph14.3 kmh 30.06 in1017.9 mb 0.00 in0.0 mm 0.00 in0.0 mm 0.00 in0.0 mm
11:59 AM 74.1°F23.4°C 56.4°F13.6°C 54% 4.2 mph SW6.8 kmh SW 8.9 mph14.3 kmh 30.06 in1017.9 mb 0.00 in0.0 mm 0.00 in0.0 mm 0.00 in0.0 mm
12:00 PM 74.1°F23.4°C 56.4°F13.6°C 54% 9.4 mph ESE15.1 kmh ESE 9.4 mph15.1 kmh 30.06 in1017.9 mb 0.00 in0.0 mm 0.00 in0.0 mm 0.00 in0.0 mm
12:01 PM 74.5°F23.6°C 56.2°F13.4°C 53% 5.8 mph SE9.3 kmh SE 9.4 mph15.1 kmh 30.06 in1017.9 mb 0.00 in0.0 mm 0.00 in0.0 mm 0.00 in0.0 mm
12:02 PM 75.2°F24.0°C 56.3°F13.5°C 52% 5.8 mph SE9.3 kmh SE 9.4 mph15.1 kmh 30.06 in1017.9 mb 0.00 in0.0 mm 0.00 in0.0 mm 0.00 in0.0 mm
12:03 PM 75.0°F23.9°C 56.7°F13.7°C 53% 5.8 mph SW9.3 kmh SW 9.4 mph15.1 kmh 30.06 in1017.9 mb 0.00 in0.0 mm 0.00 in0.0 mm 0.00 in0.0 mm
12:04 PM 74.8°F23.8°C 56.5°F13.6°C 53% 4.7 mph SE7.6 kmh SE 9.4 mph15.1 kmh 30.06 in1017.9 mb 0.00 in0.0 mm 0.00 in0.0 mm 0.00 in0.0 mm
12:05 PM 75.0°F23.9°C 56.7°F13.7°C 53% 4.7 mph SE7.6 kmh SE 9.4 mph15.1 kmh 30.06 in1017.9 mb 0.00 in0.0 mm 0.00 in0.0 mm 0.00 in0.0 mm
12:06 PM 74.8°F23.8°C 56.5°F13.6°C 53% 9.4 mph ESE15.1 kmh ESE 9.4 mph15.1 kmh 30.06 in1017.9 mb 0.00 in0.0 mm 0.00 in0.0 mm 0.00 in0.0 mm
12:07 PM 74.7°F23.7°C 56.4°F13.6°C 53% 5.8 mph SE9.3 kmh SE 9.4 mph15.1 kmh 30.06 in1017.9 mb 0.00 in0.0 mm 0.00 in0.0 mm 0.00 in0.0 mm
12:08 PM 74.8°F23.8°C 56.5°F13.6°C 53% 7.3 mph ESE11.7 kmh ESE 9.4 mph15.1 kmh 30.06 in1017.9 mb 0.00 in0.0 mm 0.00 in0.0 mm 0.00 in0.0 mm
12:09 PM 74.8°F23.8°C 56.5°F13.6°C 53% 9.9 mph ESE15.9 kmh ESE 9.9 mph15.9 kmh 30.06 in1017.9 mb 0.00 in0.0 mm 0.00 in0.0 mm 0.00 in0.0 mm
12:10 PM 74.8°F23.8°C 56.5°F13.6°C 53% 10.9 mph ESE17.5 kmh ESE 10.9 mph17.5 kmh 30.06 in1017.9 mb 0.00 in0.0 mm 0.00 in0.0 mm 0.00 in0.0 mm
12:11 PM 74.7°F23.7°C 56.4°F13.6°C 53% 8.9 mph SSE14.3 kmh SSE 12.5 mph20.1 kmh 30.06 in1017.9 mb 0.00 in0.0 mm 0.00 in0.0 mm 0.00 in0.0 mm
12:12 PM 74.5°F23.6°C 56.2°F13.4°C 53% 8.9 mph SE14.3 kmh SE 12.5 mph20.1 kmh 30.06 in1017.9 mb 0.00 in0.0 mm 0.00 in0.0 mm 0.00 in0.0 mm
12:13 PM 74.7°F23.7°C 56.4°F13.6°C 53% 5.8 mph ESE9.3 kmh ESE 12.5 mph20.1 kmh 30.06 in1017.9 mb 0.00 in0.0 mm 0.00 in0.0 mm 0.00 in0.0 mm
12:14 PM 75.2°F24.0°C 56.9°F13.8°C 53% 7.8 mph ESE12.6 kmh ESE 12.5 mph20.1 kmh 30.06 in1017.9 mb 0.00 in0.0 mm 0.00 in0.0 mm 0.00 in0.0 mm
12:15 PM 75.4°F24.1°C 56.5°F13.6°C 52% 9.4 mph ESE15.1 kmh ESE 12.5 mph20.1 kmh 30.06 in1017.9 mb 0.00 in0.0 mm 0.00 in0.0 mm 0.00 in0.0 mm
12:16 PM 75.4°F24.1°C 56.5°F13.6°C 52% 5.8 mph ESE9.3 kmh ESE 12.5 mph20.1 kmh 30.06 in1017.9 mb 0.00 in0.0 mm 0.00 in0.0 mm 0.00 in0.0 mm
12:17 PM 75.4°F24.1°C 57.1°F13.9°C 53% 3.2 mph SE5.1 kmh SE 12.5 mph20.1 kmh 30.06 in1017.9 mb 0.00 in0.0 mm 0.00 in0.0 mm 0.00 in0.0 mm
12:18 PM 75.2°F24.0°C 56.9°F13.8°C 53% 7.8 mph ESE12.6 kmh ESE 12.5 mph20.1 kmh 30.06 in1017.9 mb 0.00 in0.0 mm 0.00 in0.0 mm 0.00 in0.0 mm
12:19 PM 74.8°F23.8°C 56.0°F13.3°C 52% 10.4 mph ESE16.7 kmh ESE 12.5 mph20.1 kmh 30.06 in1017.9 mb 0.00 in0.0 mm 0.00 in0.0 mm 0.00 in0.0 mm
12:20 PM 74.7°F23.7°C 55.9°F13.3°C 52% 8.9 mph ESE14.3 kmh ESE 12.5 mph20.1 kmh 30.07 in1018.3 mb 0.00 in0.0 mm 0.00 in0.0 mm 0.00 in0.0 mm
12:21 PM 74.7°F23.7°C 55.9°F13.3°C 52% 9.9 mph SE15.9 kmh SE 10.9 mph17.5 kmh 30.07 in1018.3 mb 0.00 in0.0 mm 0.00 in0.0 mm 0.00 in0.0 mm
12:22 PM 74.7°F23.7°C 55.9°F13.3°C 52% 7.3 mph ESE11.7 kmh ESE 10.9 mph17.5 kmh 30.07 in1018.3 mb 0.00 in0.0 mm 0.00 in0.0 mm 0.00 in0.0 mm
12:23 PM 74.7°F23.7°C 56.4°F13.6°C 53% 8.9 mph SE14.3 kmh SE 10.9 mph17.5 kmh 30.07 in1018.3 mb 0.00 in0.0 mm 0.00 in0.0 mm 0.00 in0.0 mm
12:24 PM 74.3°F23.5°C 57.1°F13.9°C 55% 5.8 mph SSE9.3 kmh SSE 10.9 mph17.5 kmh 30.07 in1018.3 mb 0.00 in0.0 mm 0.00 in0.0 mm 0.00 in0.0 mm
12:25 PM 74.3°F23.5°C 56.0°F13.3°C 53% 10.9 mph ESE17.5 kmh ESE 10.9 mph17.5 kmh 30.07 in1018.3 mb 0.00 in0.0 mm 0.00 in0.0 mm 0.00 in0.0 mm
12:26 PM 74.3°F23.5°C 56.0°F13.3°C 53% 8.9 mph ESE14.3 kmh ESE 10.9 mph17.5 kmh 30.07 in1018.3 mb 0.00 in0.0 mm 0.00 in0.0 mm 0.00 in0.0 mm
12:27 PM 74.8°F23.8°C 56.5°F13.6°C 53% 4.7 mph ESE7.6 kmh ESE 10.9 mph17.5 kmh 30.07 in1018.3 mb 0.00 in0.0 mm 0.00 in0.0 mm 0.00 in0.0 mm
12:28 PM 75.6°F24.2°C 57.2°F14.0°C 53% 4.7 mph SSE7.6 kmh SSE 10.9 mph17.5 kmh 30.07 in1018.3 mb 0.00 in0.0 mm 0.00 in0.0 mm 0.00 in0.0 mm
12:29 PM 75.6°F24.2°C 56.7°F13.7°C 52% 3.7 mph SSE6.0 kmh SSE 10.9 mph17.5 kmh 30.07 in1018.3 mb 0.00 in0.0 mm 0.00 in0.0 mm 0.00 in0.0 mm
12:30 PM 75.4°F24.1°C 56.5°F13.6°C 52% 2.7 mph SSE4.3 kmh SSE 10.9 mph17.5 kmh 30.07 in1018.3 mb 0.00 in0.0 mm 0.00 in0.0 mm 0.00 in0.0 mm
12:31 PM 74.8°F23.8°C 56.0°F13.3°C 52% 5.8 mph SE9.3 kmh SE 10.9 mph17.5 kmh 30.07 in1018.3 mb 0.00 in0.0 mm 0.00 in0.0 mm 0.00 in0.0 mm
12:32 PM 74.7°F23.7°C 55.9°F13.3°C 52% 3.2 mph SSW5.1 kmh SSW 12.5 mph20.1 kmh 30.07 in1018.3 mb 0.00 in0.0 mm 0.00 in0.0 mm 0.00 in0.0 mm
12:33 PM 74.8°F23.8°C 56.0°F13.3°C 52% 6.3 mph SE10.1 kmh SE 12.5 mph20.1 kmh 30.07 in1018.3 mb 0.00 in0.0 mm 0.00 in0.0 mm 0.00 in0.0 mm
12:34 PM 75.2°F24.0°C 56.3°F13.5°C 52% 3.7 mph S6.0 kmh S 12.5 mph20.1 kmh 30.07 in1018.3 mb 0.00 in0.0 mm 0.00 in0.0 mm 0.00 in0.0 mm
12:35 PM 75.4°F24.1°C 56.5°F13.6°C 52% 8.9 mph SE14.3 kmh SE 12.5 mph20.1 kmh 30.07 in1018.3 mb 0.00 in0.0 mm 0.00 in0.0 mm 0.00 in0.0 mm
12:36 PM 75.0°F23.9°C 56.2°F13.4°C 52% 7.3 mph ESE11.7 kmh ESE 12.5 mph20.1 kmh 30.07 in1018.3 mb 0.00 in0.0 mm 0.00 in0.0 mm 0.00 in0.0 mm
12:37 PM 74.8°F23.8°C 56.5°F13.6°C 53% 6.3 mph ESE10.1 kmh ESE 12.5 mph20.1 kmh 30.07 in1018.3 mb 0.00 in0.0 mm 0.00 in0.0 mm 0.00 in0.0 mm
12:38 PM 75.0°F23.9°C 56.7°F13.7°C 53% 5.3 mph SE8.5 kmh SE 12.5 mph20.1 kmh 30.07 in1018.3 mb 0.00 in0.0 mm 0.00 in0.0 mm 0.00 in0.0 mm
12:39 PM 74.7°F23.7°C 56.9°F13.8°C 54% 3.7 mph SE6.0 kmh SE 12.5 mph20.1 kmh 30.07 in1018.3 mb 0.00 in0.0 mm 0.00 in0.0 mm 0.00 in0.0 mm
12:40 PM 74.8°F23.8°C 57.0°F13.9°C 54% 3.7 mph SE6.0 kmh SE 12.5 mph20.1 kmh 30.07 in1018.3 mb 0.00 in0.0 mm 0.00 in0.0 mm 0.00 in0.0 mm
12:41 PM 75.2°F24.0°C 57.4°F14.1°C 54% 7.3 mph ESE11.7 kmh ESE 12.5 mph20.1 kmh 30.07 in1018.3 mb 0.00 in0.0 mm 0.00 in0.0 mm 0.00 in0.0 mm
12:42 PM 75.7°F24.3°C 57.3°F14.1°C 53% 6.3 mph ESE10.1 kmh ESE 11.4 mph18.3 kmh 30.07 in1018.3 mb 0.00 in0.0 mm 0.00 in0.0 mm 0.00 in0.0 mm
12:43 PM 75.9°F24.4°C 57.0°F13.9°C 52% 3.7 mph ESE6.0 kmh ESE 11.4 mph18.3 kmh 30.06 in1017.9 mb 0.00 in0.0 mm 0.00 in0.0 mm 0.00 in0.0 mm
12:44 PM 75.7°F24.3°C 56.8°F13.8°C 52% 8.9 mph ESE14.3 kmh ESE 11.4 mph18.3 kmh 30.06 in1017.9 mb 0.00 in0.0 mm 0.00 in0.0 mm 0.00 in0.0 mm
12:45 PM 75.6°F24.2°C 56.7°F13.7°C 52% 7.3 mph ESE11.7 kmh ESE 11.4 mph18.3 kmh 30.06 in1017.9 mb 0.00 in0.0 mm 0.00 in0.0 mm 0.00 in0.0 mm
12:46 PM 75.4°F24.1°C 57.1°F13.9°C 53% 9.9 mph ESE15.9 kmh ESE 11.9 mph19.2 kmh 30.06 in1017.9 mb 0.00 in0.0 mm 0.00 in0.0 mm 0.00 in0.0 mm
12:47 PM 75.7°F24.3°C 57.3°F14.1°C 53% 5.8 mph ESE9.3 kmh ESE 11.9 mph19.2 kmh 30.06 in1017.9 mb 0.00 in0.0 mm 0.00 in0.0 mm 0.00 in0.0 mm
12:48 PM 76.3°F24.6°C 57.4°F14.1°C 52% 4.2 mph S6.8 kmh S 11.9 mph19.2 kmh 30.06 in1017.9 mb 0.00 in0.0 mm 0.00 in0.0 mm 0.00 in0.0 mm
12:49 PM 76.5°F24.7°C 57.0°F13.9°C 51% 3.7 mph S6.0 kmh S 11.9 mph19.2 kmh 30.06 in1017.9 mb 0.00 in0.0 mm 0.00 in0.0 mm 0.00 in0.0 mm
12:50 PM 77.0°F25.0°C 58.0°F14.4°C 52% 6.3 mph ESE10.1 kmh ESE 11.9 mph19.2 kmh 30.06 in1017.9 mb 0.00 in0.0 mm 0.00 in0.0 mm 0.00 in0.0 mm
12:51 PM 77.4°F25.2°C 57.8°F14.3°C 51% 6.3 mph ESE10.1 kmh ESE 11.9 mph19.2 kmh 30.06 in1017.9 mb 0.00 in0.0 mm 0.00 in0.0 mm 0.00 in0.0 mm
12:52 PM 77.2°F25.1°C 57.7°F14.3°C 51% 3.2 mph SSE5.1 kmh SSE 11.9 mph19.2 kmh 30.06 in1017.9 mb 0.00 in0.0 mm 0.00 in0.0 mm 0.00 in0.0 mm
12:53 PM 77.2°F25.1°C 57.1°F13.9°C 50% 3.7 mph SSE6.0 kmh SSE 11.9 mph19.2 kmh 30.06 in1017.9 mb 0.00 in0.0 mm 0.00 in0.0 mm 0.00 in0.0 mm
12:54 PM 77.2°F25.1°C 57.1°F13.9°C 50% 4.7 mph SE7.6 kmh SE 11.9 mph19.2 kmh 30.06 in1017.9 mb 0.00 in0.0 mm 0.00 in0.0 mm 0.00 in0.0 mm
12:55 PM 77.0°F25.0°C 56.9°F13.8°C 50% 13.0 mph SSE20.9 kmh SSE 13.0 mph20.9 kmh 30.06 in1017.9 mb 0.00 in0.0 mm 0.00 in0.0 mm 0.00 in0.0 mm
12:56 PM 76.5°F24.7°C 57.0°F13.9°C 51% 6.3 mph ESE10.1 kmh ESE 13.0 mph20.9 kmh 30.06 in1017.9 mb 0.00 in0.0 mm 0.00 in0.0 mm 0.00 in0.0 mm
12:57 PM 76.5°F24.7°C 57.0°F13.9°C 51% 8.9 mph ESE14.3 kmh ESE 13.0 mph20.9 kmh 30.06 in1017.9 mb 0.00 in0.0 mm 0.00 in0.0 mm 0.00 in0.0 mm
12:58 PM 76.8°F24.9°C 57.3°F14.1°C 51% 7.8 mph SE12.6 kmh SE 13.0 mph20.9 kmh 30.06 in1017.9 mb 0.00 in0.0 mm 0.00 in0.0 mm 0.00 in0.0 mm
12:59 PM 77.2°F25.1°C 57.7°F14.3°C 51% 10.4 mph ESE16.7 kmh ESE 13.0 mph20.9 kmh 30.06 in1017.9 mb 0.00 in0.0 mm 0.00 in0.0 mm 0.00 in0.0 mm
01:00 PM 77.2°F25.1°C 57.7°F14.3°C 51% 4.7 mph SSE7.6 kmh SSE 13.0 mph20.9 kmh 30.06 in1017.9 mb 0.00 in0.0 mm 0.00 in0.0 mm 0.00 in0.0 mm
01:01 PM 76.6°F24.8°C 57.6°F14.2°C 52% 3.7 mph SSE6.0 kmh SSE 13.0 mph20.9 kmh 30.06 in1017.9 mb 0.00 in0.0 mm 0.00 in0.0 mm 0.00 in0.0 mm
01:02 PM 76.6°F24.8°C 57.6°F14.2°C 52% 8.9 mph ESE14.3 kmh ESE 13.0 mph20.9 kmh 30.06 in1017.9 mb 0.00 in0.0 mm 0.00 in0.0 mm 0.00 in0.0 mm
01:03 PM 76.8°F24.9°C 57.3°F14.1°C 51% 8.3 mph SSE13.4 kmh SSE 13.0 mph20.9 kmh 30.06 in1017.9 mb 0.00 in0.0 mm 0.00 in0.0 mm 0.00 in0.0 mm
01:04 PM 77.4°F25.2°C 57.8°F14.3°C 51% 7.8 mph SSE12.6 kmh SSE 13.0 mph20.9 kmh 30.06 in1017.9 mb 0.00 in0.0 mm 0.00 in0.0 mm 0.00 in0.0 mm
01:05 PM 77.5°F25.3°C 57.4°F14.1°C 50% 6.3 mph ESE10.1 kmh ESE 13.0 mph20.9 kmh 30.06 in1017.9 mb 0.00 in0.0 mm 0.00 in0.0 mm 0.00 in0.0 mm
01:06 PM 76.8°F24.9°C 57.3°F14.1°C 51% 4.7 mph SSE7.6 kmh SSE 11.9 mph19.2 kmh 30.06 in1017.9 mb 0.00 in0.0 mm 0.00 in0.0 mm 0.00 in0.0 mm
01:07 PM 76.3°F24.6°C 57.4°F14.1°C 52% 11.9 mph SSE19.2 kmh SSE 11.9 mph19.2 kmh 30.05 in1017.6 mb 0.00 in0.0 mm 0.00 in0.0 mm 0.00 in0.0 mm
01:08 PM 76.5°F24.7°C 57.5°F14.2°C 52% 6.8 mph ESE10.9 kmh ESE 14.0 mph22.5 kmh 30.05 in1017.6 mb 0.00 in0.0 mm 0.00 in0.0 mm 0.00 in0.0 mm
01:09 PM 76.3°F24.6°C 57.4°F14.1°C 52% 9.9 mph ESE15.9 kmh ESE 14.0 mph22.5 kmh 30.05 in1017.6 mb 0.00 in0.0 mm 0.00 in0.0 mm 0.00 in0.0 mm
01:10 PM 75.9°F24.4°C 57.0°F13.9°C 52% 5.8 mph ESE9.3 kmh ESE 14.0 mph22.5 kmh 30.05 in1017.6 mb 0.00 in0.0 mm 0.00 in0.0 mm 0.00 in0.0 mm
01:11 PM 75.7°F24.3°C 57.3°F14.1°C 53% 5.3 mph SE8.5 kmh SE 14.0 mph22.5 kmh 30.05 in1017.6 mb 0.00 in0.0 mm 0.00 in0.0 mm 0.00 in0.0 mm
01:12 PM 75.7°F24.3°C 57.3°F14.1°C 53% 8.3 mph ESE13.4 kmh ESE 14.0 mph22.5 kmh 30.05 in1017.6 mb 0.00 in0.0 mm 0.00 in0.0 mm 0.00 in0.0 mm
01:13 PM 75.9°F24.4°C 57.5°F14.2°C 53% 9.4 mph SE15.1 kmh SE 14.0 mph22.5 kmh 30.05 in1017.6 mb 0.00 in0.0 mm 0.00 in0.0 mm 0.00 in0.0 mm
01:14 PM 76.3°F24.6°C 57.9°F14.4°C 53% 7.3 mph SSE11.7 kmh SSE 14.0 mph22.5 kmh 30.05 in1017.6 mb 0.00 in0.0 mm 0.00 in0.0 mm 0.00 in0.0 mm
01:15 PM 76.3°F24.6°C 57.9°F14.4°C 53% 7.3 mph ESE11.7 kmh ESE 14.0 mph22.5 kmh 30.05 in1017.6 mb 0.00 in0.0 mm 0.00 in0.0 mm 0.00 in0.0 mm
01:16 PM 75.9°F24.4°C 57.5°F14.2°C 53% 7.3 mph SSE11.7 kmh SSE 14.0 mph22.5 kmh 30.05 in1017.6 mb 0.00 in0.0 mm 0.00 in0.0 mm 0.00 in0.0 mm
01:17 PM 75.9°F24.4°C 57.5°F14.2°C 53% 6.3 mph ESE10.1 kmh ESE 14.0 mph22.5 kmh 30.05 in1017.6 mb 0.00 in0.0 mm 0.00 in0.0 mm 0.00 in0.0 mm
01:18 PM 75.7°F24.3°C 57.3°F14.1°C 53% 4.2 mph SE6.8 kmh SE 9.9 mph15.9 kmh 30.05 in1017.6 mb 0.00 in0.0 mm 0.00 in0.0 mm 0.00 in0.0 mm
01:19 PM 75.7°F24.3°C 57.3°F14.1°C 53% 10.4 mph ESE16.7 kmh ESE 10.4 mph16.7 kmh 30.05 in1017.6 mb 0.00 in0.0 mm 0.00 in0.0 mm 0.00 in0.0 mm
01:20 PM 75.9°F24.4°C 57.5°F14.2°C 53% 7.3 mph ESE11.7 kmh ESE 10.4 mph16.7 kmh 30.05 in1017.6 mb 0.00 in0.0 mm 0.00 in0.0 mm 0.00 in0.0 mm
01:21 PM 75.7°F24.3°C 57.3°F14.1°C 53% 4.2 mph ESE6.8 kmh ESE 10.4 mph16.7 kmh 30.05 in1017.6 mb 0.00 in0.0 mm 0.00 in0.0 mm 0.00 in0.0 mm
01:22 PM 76.3°F24.6°C 57.9°F14.4°C 53% 10.4 mph SE16.7 kmh SE 10.4 mph16.7 kmh 30.05 in1017.6 mb 0.00 in0.0 mm 0.00 in0.0 mm 0.00 in0.0 mm
01:23 PM 76.6°F24.8°C 58.2°F14.6°C 53% 2.7 mph S4.3 kmh S 10.4 mph16.7 kmh 30.05 in1017.6 mb 0.00 in0.0 mm 0.00 in0.0 mm 0.00 in0.0 mm
01:24 PM 77.5°F25.3°C 58.5°F14.7°C 52% 6.3 mph SE10.1 kmh SE 10.4 mph16.7 kmh 30.05 in1017.6 mb 0.00 in0.0 mm 0.00 in0.0 mm 0.00 in0.0 mm
01:25 PM 77.9°F25.5°C 58.3°F14.6°C 51% 9.4 mph ESE15.1 kmh ESE 10.9 mph17.5 kmh 30.05 in1017.6 mb 0.00 in0.0 mm 0.00 in0.0 mm 0.00 in0.0 mm
01:26 PM 78.1°F25.6°C 57.9°F14.4°C 50% 6.8 mph ESE10.9 kmh ESE 11.9 mph19.2 kmh 30.05 in1017.6 mb 0.00 in0.0 mm 0.00 in0.0 mm 0.00 in0.0 mm
01:27 PM 78.1°F25.6°C 58.5°F14.7°C 51% 9.4 mph ESE15.1 kmh ESE 11.9 mph19.2 kmh 30.05 in1017.6 mb 0.00 in0.0 mm 0.00 in0.0 mm 0.00 in0.0 mm
01:28 PM 77.9°F25.5°C 58.3°F14.6°C 51% 6.8 mph SSE10.9 kmh SSE 13.5 mph21.7 kmh 30.05 in1017.6 mb 0.00 in0.0 mm 0.00 in0.0 mm 0.00 in0.0 mm
01:29 PM 77.5°F25.3°C 57.9°F14.4°C 51% 10.9 mph SSE17.5 kmh SSE 13.5 mph21.7 kmh 30.05 in1017.6 mb 0.00 in0.0 mm 0.00 in0.0 mm 0.00 in0.0 mm
01:30 PM 77.4°F25.2°C 57.8°F14.3°C 51% 10.4 mph SE16.7 kmh SE 13.5 mph21.7 kmh 30.05 in1017.6 mb 0.00 in0.0 mm 0.00 in0.0 mm 0.00 in0.0 mm
01:31 PM 77.5°F25.3°C 57.4°F14.1°C 50% 13.0 mph SE20.9 kmh SE 13.5 mph21.7 kmh 30.04 in1017.3 mb 0.00 in0.0 mm 0.00 in0.0 mm 0.00 in0.0 mm
01:32 PM 77.2°F25.1°C 57.1°F13.9°C 50% 6.3 mph SSW10.1 kmh SSW 13.5 mph21.7 kmh 30.04 in1017.3 mb 0.00 in0.0 mm 0.00 in0.0 mm 0.00 in0.0 mm
01:33 PM 77.4°F25.2°C 57.8°F14.3°C 51% 7.3 mph ESE11.7 kmh ESE 13.5 mph21.7 kmh 30.04 in1017.3 mb 0.00 in0.0 mm 0.00 in0.0 mm 0.00 in0.0 mm
01:34 PM 77.7°F25.4°C 58.1°F14.5°C 51% 4.2 mph SSE6.8 kmh SSE 13.5 mph21.7 kmh 30.04 in1017.3 mb 0.00 in0.0 mm 0.00 in0.0 mm 0.00 in0.0 mm
01:35 PM 77.7°F25.4°C 58.1°F14.5°C 51% 10.4 mph ESE16.7 kmh ESE 13.5 mph21.7 kmh 30.04 in1017.3 mb 0.00 in0.0 mm 0.00 in0.0 mm 0.00 in0.0 mm
01:36 PM 77.2°F25.1°C 57.7°F14.3°C 51% 7.3 mph ESE11.7 kmh ESE 13.5 mph21.7 kmh 30.04 in1017.3 mb 0.00 in0.0 mm 0.00 in0.0 mm 0.00 in0.0 mm
01:37 PM 77.7°F25.4°C 57.6°F14.2°C 50% 10.9 mph ESE17.5 kmh ESE 13.5 mph21.7 kmh 30.04 in1017.3 mb 0.00 in0.0 mm 0.00 in0.0 mm 0.00 in0.0 mm
01:38 PM 77.9°F25.5°C 56.6°F13.7°C 48% 13.0 mph ESE20.9 kmh ESE 16.1 mph25.9 kmh 30.04 in1017.3 mb 0.00 in0.0 mm 0.00 in0.0 mm 0.00 in0.0 mm
01:39 PM 77.7°F25.4°C 57.0°F13.9°C 49% 8.3 mph S13.4 kmh S 16.1 mph25.9 kmh 30.04 in1017.3 mb 0.00 in0.0 mm 0.00 in0.0 mm 0.00 in0.0 mm
01:40 PM 78.3°F25.7°C 57.5°F14.2°C 49% 10.4 mph SW16.7 kmh SW 16.1 mph25.9 kmh 30.04 in1017.3 mb 0.00 in0.0 mm 0.00 in0.0 mm 0.00 in0.0 mm
01:41 PM 78.8°F26.0°C 57.4°F14.1°C 48% 9.9 mph SE15.9 kmh SE 16.1 mph25.9 kmh 30.04 in1017.3 mb 0.00 in0.0 mm 0.00 in0.0 mm 0.00 in0.0 mm
01:42 PM 78.6°F25.9°C 57.2°F14.0°C 48% 15.5 mph SE24.9 kmh SE 16.1 mph25.9 kmh 30.04 in1017.3 mb 0.00 in0.0 mm 0.00 in0.0 mm 0.00 in0.0 mm
01:43 PM 78.3°F25.7°C 57.0°F13.9°C 48% 7.3 mph ESE11.7 kmh ESE 16.1 mph25.9 kmh 30.04 in1017.3 mb 0.00 in0.0 mm 0.00 in0.0 mm 0.00 in0.0 mm
01:44 PM 78.1°F25.6°C 56.8°F13.8°C 48% 6.3 mph ESE10.1 kmh ESE 16.1 mph25.9 kmh 30.04 in1017.3 mb 0.00 in0.0 mm 0.00 in0.0 mm 0.00 in0.0 mm
01:45 PM 78.3°F25.7°C 57.5°F14.2°C 49% 12.5 mph ESE20.1 kmh ESE 16.1 mph25.9 kmh 30.04 in1017.3 mb 0.00 in0.0 mm 0.00 in0.0 mm 0.00 in0.0 mm
01:46 PM 78.4°F25.8°C 57.6°F14.2°C 49% 6.8 mph SSE10.9 kmh SSE 16.1 mph25.9 kmh 30.04 in1017.3 mb 0.00 in0.0 mm 0.00 in0.0 mm 0.00 in0.0 mm
01:47 PM 78.3°F25.7°C 57.5°F14.2°C 49% 8.9 mph ESE14.3 kmh ESE 16.1 mph25.9 kmh 30.04 in1017.3 mb 0.00 in0.0 mm 0.00 in0.0 mm 0.00 in0.0 mm
01:48 PM 78.4°F25.8°C 58.2°F14.6°C 50% 5.8 mph SSE9.3 kmh SSE 15.5 mph24.9 kmh 30.04 in1017.3 mb 0.00 in0.0 mm 0.00 in0.0 mm 0.00 in0.0 mm
01:49 PM 78.6°F25.9°C 58.4°F14.7°C 50% 8.3 mph ESE13.4 kmh ESE 15.5 mph24.9 kmh 30.04 in1017.3 mb 0.00 in0.0 mm 0.00 in0.0 mm 0.00 in0.0 mm
01:50 PM 78.8°F26.0°C 58.6°F14.8°C 50% 5.3 mph SE8.5 kmh SE 15.5 mph24.9 kmh 30.04 in1017.3 mb 0.00 in0.0 mm 0.00 in0.0 mm 0.00 in0.0 mm
01:51 PM 79.3°F26.3°C 57.9°F14.4°C 48% 9.4 mph ESE15.1 kmh ESE 15.5 mph24.9 kmh 30.04 in1017.3 mb 0.00 in0.0 mm 0.00 in0.0 mm 0.00 in0.0 mm
01:52 PM 79.2°F26.2°C 57.8°F14.3°C 48% 4.2 mph SSE6.8 kmh SSE 15.5 mph24.9 kmh 30.04 in1017.3 mb 0.00 in0.0 mm 0.00 in0.0 mm 0.00 in0.0 mm
01:53 PM 79.3°F26.3°C 57.9°F14.4°C 48% 6.3 mph SSE10.1 kmh SSE 12.5 mph20.1 kmh 30.04 in1017.3 mb 0.00 in0.0 mm 0.00 in0.0 mm 0.00 in0.0 mm
01:54 PM 79.2°F26.2°C 57.8°F14.3°C 48% 8.3 mph ESE13.4 kmh ESE 12.5 mph20.1 kmh 30.04 in1017.3 mb 0.00 in0.0 mm 0.00 in0.0 mm 0.00 in0.0 mm
01:55 PM 79.5°F26.4°C 58.6°F14.8°C 49% 3.7 mph SSE6.0 kmh SSE 12.5 mph20.1 kmh 30.03 in1016.9 mb 0.00 in0.0 mm 0.00 in0.0 mm 0.00 in0.0 mm
01:56 PM 79.5°F26.4°C 58.1°F14.5°C 48% 9.4 mph ESE15.1 kmh ESE 11.9 mph19.2 kmh 30.03 in1016.9 mb 0.00 in0.0 mm 0.00 in0.0 mm 0.00 in0.0 mm
01:57 PM 79.2°F26.2°C 58.4°F14.7°C 49% 9.4 mph SE15.1 kmh SE 11.9 mph19.2 kmh 30.03 in1016.9 mb 0.00 in0.0 mm 0.00 in0.0 mm 0.00 in0.0 mm
01:58 PM 78.8°F26.0°C 58.6°F14.8°C 50% 11.4 mph ESE18.3 kmh ESE 11.9 mph19.2 kmh 30.03 in1016.9 mb 0.00 in0.0 mm 0.00 in0.0 mm 0.00 in0.0 mm
01:59 PM 78.6°F25.9°C 58.4°F14.7°C 50% 6.3 mph SE10.1 kmh SE 14.0 mph22.5 kmh 30.03 in1016.9 mb 0.00 in0.0 mm 0.00 in0.0 mm 0.00 in0.0 mm
02:00 PM 77.7°F25.4°C 57.6°F14.2°C 50% 9.9 mph SE15.9 kmh SE 14.0 mph22.5 kmh 30.03 in1016.9 mb 0.00 in0.0 mm 0.00 in0.0 mm 0.00 in0.0 mm
02:01 PM 77.4°F25.2°C 57.3°F14.1°C 50% 8.3 mph ESE13.4 kmh ESE 14.0 mph22.5 kmh 30.03 in1016.9 mb 0.00 in0.0 mm 0.00 in0.0 mm 0.00 in0.0 mm
02:02 PM 77.2°F25.1°C 57.1°F13.9°C 50% 6.3 mph SE10.1 kmh SE 14.0 mph22.5 kmh 30.03 in1016.9 mb 0.00 in0.0 mm 0.00 in0.0 mm 0.00 in0.0 mm
02:03 PM 77.5°F25.3°C 57.9°F14.4°C 51% 7.8 mph SE12.6 kmh SE 14.0 mph22.5 kmh 30.03 in1016.9 mb 0.00 in0.0 mm 0.00 in0.0 mm 0.00 in0.0 mm
02:04 PM 77.7°F25.4°C 58.1°F14.5°C 51% 6.3 mph SE10.1 kmh SE 14.0 mph22.5 kmh 30.03 in1016.9 mb 0.00 in0.0 mm 0.00 in0.0 mm 0.00 in0.0 mm
02:05 PM 78.3°F25.7°C 58.7°F14.8°C 51% 6.3 mph ESE10.1 kmh ESE 14.0 mph22.5 kmh 30.03 in1016.9 mb 0.00 in0.0 mm 0.00 in0.0 mm 0.00 in0.0 mm
02:06 PM 78.1°F25.6°C 58.5°F14.7°C 51% 8.9 mph SSE14.3 kmh SSE 14.0 mph22.5 kmh 30.03 in1016.9 mb 0.00 in0.0 mm 0.00 in0.0 mm 0.00 in0.0 mm
02:07 PM 77.5°F25.3°C 57.9°F14.4°C 51% 14.0 mph E22.5 kmh E 14.0 mph22.5 kmh 30.02 in1016.6 mb 0.00 in0.0 mm 0.00 in0.0 mm 0.00 in0.0 mm
02:08 PM 77.5°F25.3°C 57.9°F14.4°C 51% 10.4 mph ESE16.7 kmh ESE 14.0 mph22.5 kmh 30.02 in1016.6 mb 0.00 in0.0 mm 0.00 in0.0 mm 0.00 in0.0 mm
02:09 PM 77.5°F25.3°C 57.9°F14.4°C 51% 7.8 mph ESE12.6 kmh ESE 14.0 mph22.5 kmh 30.02 in1016.6 mb 0.00 in0.0 mm 0.00 in0.0 mm 0.00 in0.0 mm
02:10 PM 77.7°F25.4°C 57.6°F14.2°C 50% 9.9 mph ESE15.9 kmh ESE 14.0 mph22.5 kmh 30.02 in1016.6 mb 0.00 in0.0 mm 0.00 in0.0 mm 0.00 in0.0 mm
02:11 PM 77.7°F25.4°C 58.1°F14.5°C 51% 8.3 mph SE13.4 kmh SE 14.0 mph22.5 kmh 30.02 in1016.6 mb 0.00 in0.0 mm 0.00 in0.0 mm 0.00 in0.0 mm
02:12 PM 78.1°F25.6°C 58.5°F14.7°C 51% 5.8 mph SE9.3 kmh SE 14.0 mph22.5 kmh 30.02 in1016.6 mb 0.00 in0.0 mm 0.00 in0.0 mm 0.00 in0.0 mm
02:13 PM 78.4°F25.8°C 58.8°F14.9°C 51% 8.9 mph S14.3 kmh S 14.0 mph22.5 kmh 30.02 in1016.6 mb 0.00 in0.0 mm 0.00 in0.0 mm 0.00 in0.0 mm
02:14 PM 79.0°F26.1°C 59.3°F15.2°C 51% 5.8 mph ESE9.3 kmh ESE 14.0 mph22.5 kmh 30.02 in1016.6 mb 0.00 in0.0 mm 0.00 in0.0 mm 0.00 in0.0 mm
02:15 PM 79.3°F26.3°C 59.0°F15.0°C 50% 6.8 mph ESE10.9 kmh ESE 14.0 mph22.5 kmh 30.02 in1016.6 mb 0.00 in0.0 mm 0.00 in0.0 mm 0.00 in0.0 mm
02:16 PM 79.7°F26.5°C 58.8°F14.9°C 49% 8.9 mph SE14.3 kmh SE 14.0 mph22.5 kmh 30.02 in1016.6 mb 0.00 in0.0 mm 0.00 in0.0 mm 0.00 in0.0 mm
02:17 PM 79.2°F26.2°C 58.4°F14.7°C 49% 4.2 mph SSE6.8 kmh SSE 10.9 mph17.5 kmh 30.02 in1016.6 mb 0.00 in0.0 mm 0.00 in0.0 mm 0.00 in0.0 mm
02:18 PM 79.0°F26.1°C 58.2°F14.6°C 49% 8.3 mph SE13.4 kmh SE 10.9 mph17.5 kmh 30.02 in1016.6 mb 0.00 in0.0 mm 0.00 in0.0 mm 0.00 in0.0 mm
02:19 PM 78.8°F26.0°C 58.0°F14.4°C 49% 7.8 mph ESE12.6 kmh ESE 12.5 mph20.1 kmh 30.02 in1016.6 mb 0.00 in0.0 mm 0.00 in0.0 mm 0.00 in0.0 mm
02:20 PM 78.6°F25.9°C 57.8°F14.3°C 49% 9.9 mph SE15.9 kmh SE 12.5 mph20.1 kmh 30.02 in1016.6 mb 0.00 in0.0 mm 0.00 in0.0 mm 0.00 in0.0 mm
02:21 PM 77.9°F25.5°C 58.3°F14.6°C 51% 4.7 mph SSE7.6 kmh SSE 12.5 mph20.1 kmh 30.02 in1016.6 mb 0.00 in0.0 mm 0.00 in0.0 mm 0.00 in0.0 mm
02:22 PM 78.1°F25.6°C 58.5°F14.7°C 51% 9.9 mph SSE15.9 kmh SSE 12.5 mph20.1 kmh 30.02 in1016.6 mb 0.00 in0.0 mm 0.00 in0.0 mm 0.00 in0.0 mm
02:23 PM 78.3°F25.7°C 58.7°F14.8°C 51% 10.4 mph ESE16.7 kmh ESE 13.0 mph20.9 kmh 30.02 in1016.6 mb 0.00 in0.0 mm 0.00 in0.0 mm 0.00 in0.0 mm
02:24 PM 78.1°F25.6°C 58.5°F14.7°C 51% 8.3 mph ESE13.4 kmh ESE 13.0 mph20.9 kmh 30.02 in1016.6 mb 0.00 in0.0 mm 0.00 in0.0 mm 0.00 in0.0 mm
02:25 PM 77.7°F25.4°C 58.7°F14.8°C 52% 8.9 mph ESE14.3 kmh ESE 13.0 mph20.9 kmh 30.02 in1016.6 mb 0.00 in0.0 mm 0.00 in0.0 mm 0.00 in0.0 mm
02:26 PM 77.5°F25.3°C 58.5°F14.7°C 52% 4.7 mph ESE7.6 kmh ESE 13.0 mph20.9 kmh 30.02 in1016.6 mb 0.00 in0.0 mm 0.00 in0.0 mm 0.00 in0.0 mm
02:27 PM 77.9°F25.5°C 58.8°F14.9°C 52% 13.0 mph ESE20.9 kmh ESE 14.0 mph22.5 kmh 30.02 in1016.6 mb 0.00 in0.0 mm 0.00 in0.0 mm 0.00 in0.0 mm
02:28 PM 77.9°F25.5°C 58.3°F14.6°C 51% 13.0 mph ESE20.9 kmh ESE 14.0 mph22.5 kmh 30.02 in1016.6 mb 0.00 in0.0 mm 0.00 in0.0 mm 0.00 in0.0 mm
02:29 PM 77.7°F25.4°C 58.1°F14.5°C 51% 8.9 mph ESE14.3 kmh ESE 14.0 mph22.5 kmh 30.02 in1016.6 mb 0.00 in0.0 mm 0.00 in0.0 mm 0.00 in0.0 mm
02:30 PM 77.5°F25.3°C 57.9°F14.4°C 51% 10.4 mph SE16.7 kmh SE 14.0 mph22.5 kmh 30.02 in1016.6 mb 0.00 in0.0 mm 0.00 in0.0 mm 0.00 in0.0 mm
02:31 PM 78.1°F25.6°C 58.5°F14.7°C 51% 12.5 mph ESE20.1 kmh ESE 16.1 mph25.9 kmh 30.01 in1016.3 mb 0.00 in0.0 mm 0.00 in0.0 mm 0.00 in0.0 mm
02:32 PM 78.4°F25.8°C 58.8°F14.9°C 51% 15.5 mph SSE24.9 kmh SSE 16.1 mph25.9 kmh 30.01 in1016.3 mb 0.00 in0.0 mm 0.00 in0.0 mm 0.00 in0.0 mm
02:33 PM 78.3°F25.7°C 58.7°F14.8°C 51% 8.9 mph ESE14.3 kmh ESE 16.1 mph25.9 kmh 30.01 in1016.3 mb 0.00 in0.0 mm 0.00 in0.0 mm 0.00 in0.0 mm
02:34 PM 78.1°F25.6°C 57.9°F14.4°C 50% 10.4 mph SE16.7 kmh SE 16.1 mph25.9 kmh 30.01 in1016.3 mb 0.00 in0.0 mm 0.00 in0.0 mm 0.00 in0.0 mm
02:35 PM 78.1°F25.6°C 57.9°F14.4°C 50% 10.4 mph ESE16.7 kmh ESE 16.1 mph25.9 kmh 30.01 in1016.3 mb 0.00 in0.0 mm 0.00 in0.0 mm 0.00 in0.0 mm
02:36 PM 78.3°F25.7°C 57.5°F14.2°C 49% 10.9 mph ESE17.5 kmh ESE 16.1 mph25.9 kmh 30.01 in1016.3 mb 0.00 in0.0 mm 0.00 in0.0 mm 0.00 in0.0 mm
02:37 PM 78.1°F25.6°C 57.4°F14.1°C 49% 8.3 mph ESE13.4 kmh ESE 16.1 mph25.9 kmh 30.01 in1016.3 mb 0.00 in0.0 mm 0.00 in0.0 mm 0.00 in0.0 mm
02:38 PM 77.7°F25.4°C 57.6°F14.2°C 50% 10.9 mph SE17.5 kmh SE 16.1 mph25.9 kmh 30.01 in1016.3 mb 0.00 in0.0 mm 0.00 in0.0 mm 0.00 in0.0 mm
02:39 PM 77.7°F25.4°C 57.6°F14.2°C 50% 4.7 mph SSE7.6 kmh SSE 16.1 mph25.9 kmh 30.01 in1016.3 mb 0.00 in0.0 mm 0.00 in0.0 mm 0.00 in0.0 mm
02:40 PM 78.1°F25.6°C 57.9°F14.4°C 50% 14.5 mph ESE23.3 kmh ESE 16.1 mph25.9 kmh 30.01 in1016.3 mb 0.00 in0.0 mm 0.00 in0.0 mm 0.00 in0.0 mm
02:41 PM 78.1°F25.6°C 58.5°F14.7°C 51% 4.7 mph ESE7.6 kmh ESE 15.5 mph24.9 kmh 30.01 in1016.3 mb 0.00 in0.0 mm 0.00 in0.0 mm 0.00 in0.0 mm
02:42 PM 78.6°F25.9°C 58.4°F14.7°C 50% 6.3 mph S10.1 kmh S 15.5 mph24.9 kmh 30.01 in1016.3 mb 0.00 in0.0 mm 0.00 in0.0 mm 0.00 in0.0 mm
02:43 PM 78.3°F25.7°C 58.1°F14.5°C 50% 11.4 mph ESE18.3 kmh ESE 14.5 mph23.3 kmh 30.01 in1016.3 mb 0.00 in0.0 mm 0.00 in0.0 mm 0.00 in0.0 mm
02:44 PM 78.1°F25.6°C 57.9°F14.4°C 50% 7.8 mph ESE12.6 kmh ESE 14.5 mph23.3 kmh 30.01 in1016.3 mb 0.00 in0.0 mm 0.00 in0.0 mm 0.00 in0.0 mm
02:45 PM 77.5°F25.3°C 57.9°F14.4°C 51% 7.8 mph SSE12.6 kmh SSE 14.5 mph23.3 kmh 30.01 in1016.3 mb 0.00 in0.0 mm 0.00 in0.0 mm 0.00 in0.0 mm
02:46 PM 77.2°F25.1°C 58.2°F14.6°C 52% 6.3 mph SSE10.1 kmh SSE 14.5 mph23.3 kmh 30.01 in1016.3 mb 0.00 in0.0 mm 0.00 in0.0 mm 0.00 in0.0 mm
02:47 PM 77.5°F25.3°C 58.5°F14.7°C 52% 5.3 mph SSE8.5 kmh SSE 14.5 mph23.3 kmh 30.01 in1016.3 mb 0.00 in0.0 mm 0.00 in0.0 mm 0.00 in0.0 mm
02:48 PM 77.7°F25.4°C 58.7°F14.8°C 52% 5.3 mph SE8.5 kmh SE 14.5 mph23.3 kmh 30.01 in1016.3 mb 0.00 in0.0 mm 0.00 in0.0 mm 0.00 in0.0 mm
02:49 PM 77.9°F25.5°C 58.8°F14.9°C 52% 8.9 mph SE14.3 kmh SE 14.5 mph23.3 kmh 30.01 in1016.3 mb 0.00 in0.0 mm 0.00 in0.0 mm 0.00 in0.0 mm
02:50 PM 77.9°F25.5°C 58.8°F14.9°C 52% 5.3 mph S8.5 kmh S 14.5 mph23.3 kmh 30.01 in1016.3 mb 0.00 in0.0 mm 0.00 in0.0 mm 0.00 in0.0 mm
02:51 PM 77.7°F25.4°C 58.1°F14.5°C 51% 7.3 mph S11.7 kmh S 13.0 mph20.9 kmh 30.01 in1016.3 mb 0.00 in0.0 mm 0.00 in0.0 mm 0.00 in0.0 mm
02:52 PM 78.1°F25.6°C 59.0°F15.0°C 52% 7.3 mph SE11.7 kmh SE 13.0 mph20.9 kmh 30.01 in1016.3 mb 0.00 in0.0 mm 0.00 in0.0 mm 0.00 in0.0 mm
02:53 PM 78.3°F25.7°C 58.7°F14.8°C 51% 8.3 mph SE13.4 kmh SE 13.5 mph21.7 kmh 30.01 in1016.3 mb 0.00 in0.0 mm 0.00 in0.0 mm 0.00 in0.0 mm
02:54 PM 78.4°F25.8°C 58.8°F14.9°C 51% 6.3 mph SE10.1 kmh SE 13.5 mph21.7 kmh 30.01 in1016.3 mb 0.00 in0.0 mm 0.00 in0.0 mm 0.00 in0.0 mm
02:55 PM 78.4°F25.8°C 58.8°F14.9°C 51% 5.3 mph ESE8.5 kmh ESE 13.5 mph21.7 kmh 30.01 in1016.3 mb 0.00 in0.0 mm 0.00 in0.0 mm 0.00 in0.0 mm
02:56 PM 78.4°F25.8°C 58.8°F14.9°C 51% 8.9 mph ESE14.3 kmh ESE 13.5 mph21.7 kmh 30.01 in1016.3 mb 0.00 in0.0 mm 0.00 in0.0 mm 0.00 in0.0 mm
02:57 PM 77.4°F25.2°C 58.4°F14.7°C 52% 9.4 mph SE15.1 kmh SE 13.5 mph21.7 kmh 30.01 in1016.3 mb 0.00 in0.0 mm 0.00 in0.0 mm 0.00 in0.0 mm
02:58 PM 77.4°F25.2°C 58.4°F14.7°C 52% 9.9 mph SE15.9 kmh SE 13.5 mph21.7 kmh 30.01 in1016.3 mb 0.00 in0.0 mm 0.00 in0.0 mm 0.00 in0.0 mm
02:59 PM 77.5°F25.3°C 58.5°F14.7°C 52% 11.4 mph ESE18.3 kmh ESE 13.5 mph21.7 kmh 30.01 in1016.3 mb 0.00 in0.0 mm 0.00 in0.0 mm 0.00 in0.0 mm
03:00 PM 77.5°F25.3°C 58.5°F14.7°C 52% 8.3 mph ESE13.4 kmh ESE 13.5 mph21.7 kmh 30.01 in1016.3 mb 0.00 in0.0 mm 0.00 in0.0 mm 0.00 in0.0 mm
03:01 PM 77.9°F25.5°C 58.3°F14.6°C 51% 16.1 mph ESE25.9 kmh ESE 16.1 mph25.9 kmh 30.01 in1016.3 mb 0.00 in0.0 mm 0.00 in0.0 mm 0.00 in0.0 mm
03:02 PM 77.9°F25.5°C 58.3°F14.6°C 51% 11.4 mph SSE18.3 kmh SSE 16.1 mph25.9 kmh 30.01 in1016.3 mb 0.00 in0.0 mm 0.00 in0.0 mm 0.00 in0.0 mm
03:03 PM 78.1°F25.6°C 58.5°F14.7°C 51% 13.0 mph ESE20.9 kmh ESE 16.1 mph25.9 kmh 30.01 in1016.3 mb 0.00 in0.0 mm 0.00 in0.0 mm 0.00 in0.0 mm
03:04 PM 78.3°F25.7°C 58.7°F14.8°C 51% 8.3 mph SE13.4 kmh SE 16.1 mph25.9 kmh 30.01 in1016.3 mb 0.00 in0.0 mm 0.00 in0.0 mm 0.00 in0.0 mm
03:05 PM 78.1°F25.6°C 58.5°F14.7°C 51% 7.8 mph SSE12.6 kmh SSE 16.1 mph25.9 kmh 30.01 in1016.3 mb 0.00 in0.0 mm 0.00 in0.0 mm 0.00 in0.0 mm
03:06 PM 77.9°F25.5°C 58.8°F14.9°C 52% 10.4 mph SSE16.7 kmh SSE 16.1 mph25.9 kmh 30.01 in1016.3 mb 0.00 in0.0 mm 0.00 in0.0 mm 0.00 in0.0 mm
03:07 PM 77.5°F25.3°C 58.5°F14.7°C 52% 5.8 mph ESE9.3 kmh ESE 16.1 mph25.9 kmh 30.01 in1016.3 mb 0.00 in0.0 mm 0.00 in0.0 mm 0.00 in0.0 mm
03:08 PM 77.5°F25.3°C 58.5°F14.7°C 52% 5.3 mph ESE8.5 kmh ESE 16.1 mph25.9 kmh 30.01 in1016.3 mb 0.00 in0.0 mm 0.00 in0.0 mm 0.00 in0.0 mm
03:09 PM 77.9°F25.5°C 58.3°F14.6°C 51% 7.8 mph SE12.6 kmh SE 16.1 mph25.9 kmh 30.01 in1016.3 mb 0.00 in0.0 mm 0.00 in0.0 mm 0.00 in0.0 mm
03:10 PM 77.7°F25.4°C 58.7°F14.8°C 52% 6.3 mph SE10.1 kmh SE 16.1 mph25.9 kmh 30.01 in1016.3 mb 0.00 in0.0 mm 0.00 in0.0 mm 0.00 in0.0 mm
03:11 PM 77.5°F25.3°C 58.5°F14.7°C 52% 13.0 mph SSE20.9 kmh SSE 13.5 mph21.7 kmh 30.01 in1016.3 mb 0.00 in0.0 mm 0.00 in0.0 mm 0.00 in0.0 mm
03:12 PM 77.9°F25.5°C 58.3°F14.6°C 51% 5.8 mph S9.3 kmh S 13.5 mph21.7 kmh 30.01 in1016.3 mb 0.00 in0.0 mm 0.00 in0.0 mm 0.00 in0.0 mm
03:13 PM 77.7°F25.4°C 58.1°F14.5°C 51% 9.4 mph SSE15.1 kmh SSE 13.5 mph21.7 kmh 30.01 in1016.3 mb 0.00 in0.0 mm 0.00 in0.0 mm 0.00 in0.0 mm
03:14 PM 77.4°F25.2°C 57.8°F14.3°C 51% 4.2 mph SSE6.8 kmh SSE 13.5 mph21.7 kmh 30.01 in1016.3 mb 0.00 in0.0 mm 0.00 in0.0 mm 0.00 in0.0 mm
03:15 PM 77.4°F25.2°C 57.8°F14.3°C 51% 9.9 mph SSE15.9 kmh SSE 13.5 mph21.7 kmh 30.01 in1016.3 mb 0.00 in0.0 mm 0.00 in0.0 mm 0.00 in0.0 mm
03:16 PM 77.9°F25.5°C 58.3°F14.6°C 51% 9.4 mph ESE15.1 kmh ESE 13.0 mph20.9 kmh 30.01 in1016.3 mb 0.00 in0.0 mm 0.00 in0.0 mm 0.00 in0.0 mm
03:17 PM 78.3°F25.7°C 58.7°F14.8°C 51% 5.3 mph E8.5 kmh E 13.0 mph20.9 kmh 30.01 in1016.3 mb 0.00 in0.0 mm 0.00 in0.0 mm 0.00 in0.0 mm
03:18 PM 78.8°F26.0°C 59.1°F15.1°C 51% 5.8 mph SE9.3 kmh SE 13.0 mph20.9 kmh 30.01 in1016.3 mb 0.00 in0.0 mm 0.00 in0.0 mm 0.00 in0.0 mm
03:19 PM 79.2°F26.2°C 58.9°F14.9°C 50% 6.8 mph SE10.9 kmh SE 13.0 mph20.9 kmh 30.01 in1016.3 mb 0.00 in0.0 mm 0.00 in0.0 mm 0.00 in0.0 mm
03:20 PM 79.3°F26.3°C 59.0°F15.0°C 50% 11.9 mph SE19.2 kmh SE 13.0 mph20.9 kmh 30.00 in1015.9 mb 0.00 in0.0 mm 0.00 in0.0 mm 0.00 in0.0 mm
03:21 PM 78.6°F25.9°C 58.4°F14.7°C 50% 10.4 mph ESE16.7 kmh ESE 13.5 mph21.7 kmh 30.00 in1015.9 mb 0.00 in0.0 mm 0.00 in0.0 mm 0.00 in0.0 mm
03:22 PM 78.3°F25.7°C 58.7°F14.8°C 51% 10.9 mph ESE17.5 kmh ESE 13.5 mph21.7 kmh 30.00 in1015.9 mb 0.00 in0.0 mm 0.00 in0.0 mm 0.00 in0.0 mm
03:23 PM 78.4°F25.8°C 58.8°F14.9°C 51% 9.4 mph ESE15.1 kmh ESE 15.0 mph24.1 kmh 30.00 in1015.9 mb 0.00 in0.0 mm 0.00 in0.0 mm 0.00 in0.0 mm
03:24 PM 78.4°F25.8°C 58.8°F14.9°C 51% 12.5 mph ESE20.1 kmh ESE 15.0 mph24.1 kmh 30.00 in1015.9 mb 0.00 in0.0 mm 0.00 in0.0 mm 0.00 in0.0 mm
03:25 PM 78.3°F25.7°C 58.7°F14.8°C 51% 14.5 mph ESE23.3 kmh ESE 15.0 mph24.1 kmh 30.00 in1015.9 mb 0.00 in0.0 mm 0.00 in0.0 mm 0.00 in0.0 mm
03:26 PM 78.1°F25.6°C 59.0°F15.0°C 52% 9.9 mph SSE15.9 kmh SSE 15.0 mph24.1 kmh 30.00 in1015.9 mb 0.00 in0.0 mm 0.00 in0.0 mm 0.00 in0.0 mm
03:27 PM 77.4°F25.2°C 58.9°F14.9°C 53% 5.3 mph SE8.5 kmh SE 15.0 mph24.1 kmh 30.00 in1015.9 mb 0.00 in0.0 mm 0.00 in0.0 mm 0.00 in0.0 mm
03:28 PM 77.0°F25.0°C 58.5°F14.7°C 53% 8.3 mph SE13.4 kmh SE 15.0 mph24.1 kmh 30.00 in1015.9 mb 0.00 in0.0 mm 0.00 in0.0 mm 0.00 in0.0 mm
03:29 PM 77.2°F25.1°C 58.7°F14.8°C 53% 3.7 mph SSE6.0 kmh SSE 15.0 mph24.1 kmh 30.00 in1015.9 mb 0.00 in0.0 mm 0.00 in0.0 mm 0.00 in0.0 mm
03:30 PM 77.5°F25.3°C 59.0°F15.0°C 53% 4.7 mph SSE7.6 kmh SSE 15.0 mph24.1 kmh 30.00 in1015.9 mb 0.00 in0.0 mm 0.00 in0.0 mm 0.00 in0.0 mm
03:31 PM 77.7°F25.4°C 59.2°F15.1°C 53% 9.9 mph SSE15.9 kmh SSE 15.0 mph24.1 kmh 30.00 in1015.9 mb 0.00 in0.0 mm 0.00 in0.0 mm 0.00 in0.0 mm
03:32 PM 77.5°F25.3°C 59.0°F15.0°C 53% 7.8 mph SE12.6 kmh SE 15.5 mph24.9 kmh 30.00 in1015.9 mb 0.00 in0.0 mm 0.00 in0.0 mm 0.00 in0.0 mm
03:33 PM 77.5°F25.3°C 59.0°F15.0°C 53% 5.8 mph S9.3 kmh S 15.5 mph24.9 kmh 30.00 in1015.9 mb 0.00 in0.0 mm 0.00 in0.0 mm 0.00 in0.0 mm
03:34 PM 77.5°F25.3°C 58.5°F14.7°C 52% 11.4 mph SSE18.3 kmh SSE 15.5 mph24.9 kmh 30.00 in1015.9 mb 0.00 in0.0 mm 0.00 in0.0 mm 0.00 in0.0 mm
03:35 PM 77.4°F25.2°C 58.4°F14.7°C 52% 9.9 mph SSW15.9 kmh SSW 15.5 mph24.9 kmh 30.00 in1015.9 mb 0.00 in0.0 mm 0.00 in0.0 mm 0.00 in0.0 mm
03:36 PM 77.4°F25.2°C 58.4°F14.7°C 52% 12.5 mph ESE20.1 kmh ESE 15.5 mph24.9 kmh 30.00 in1015.9 mb 0.00 in0.0 mm 0.00 in0.0 mm 0.00 in0.0 mm
03:37 PM 77.0°F25.0°C 58.5°F14.7°C 53% 11.4 mph ESE18.3 kmh ESE 15.5 mph24.9 kmh 30.00 in1015.9 mb 0.00 in0.0 mm 0.00 in0.0 mm 0.00 in0.0 mm
03:38 PM 77.0°F25.0°C 58.5°F14.7°C 53% 6.8 mph ESE10.9 kmh ESE 15.5 mph24.9 kmh 30.00 in1015.9 mb 0.00 in0.0 mm 0.00 in0.0 mm 0.00 in0.0 mm
03:39 PM 77.2°F25.1°C 58.7°F14.8°C 53% 9.4 mph SE15.1 kmh SE 15.5 mph24.9 kmh 30.00 in1015.9 mb 0.00 in0.0 mm 0.00 in0.0 mm 0.00 in0.0 mm
03:40 PM 77.4°F25.2°C 58.9°F14.9°C 53% 11.4 mph SSE18.3 kmh SSE 15.5 mph24.9 kmh 30.00 in1015.9 mb 0.00 in0.0 mm 0.00 in0.0 mm 0.00 in0.0 mm
03:41 PM 77.5°F25.3°C 59.0°F15.0°C 53% 10.4 mph ESE16.7 kmh ESE 15.5 mph24.9 kmh 30.00 in1015.9 mb 0.00 in0.0 mm 0.00 in0.0 mm 0.00 in0.0 mm
03:42 PM 77.7°F25.4°C 59.2°F15.1°C 53% 9.9 mph SSE15.9 kmh SSE 12.5 mph20.1 kmh 30.00 in1015.9 mb 0.00 in0.0 mm 0.00 in0.0 mm 0.00 in0.0 mm
03:43 PM 77.7°F25.4°C 59.2°F15.1°C 53% 14.0 mph SE22.5 kmh SE 14.0 mph22.5 kmh 30.00 in1015.9 mb 0.00 in0.0 mm 0.00 in0.0 mm 0.00 in0.0 mm
03:44 PM 77.7°F25.4°C 59.2°F15.1°C 53% 14.5 mph ESE23.3 kmh ESE 14.5 mph23.3 kmh 30.00 in1015.9 mb 0.00 in0.0 mm 0.00 in0.0 mm 0.00 in0.0 mm
03:45 PM 77.9°F25.5°C 59.4°F15.2°C 53% 8.9 mph ESE14.3 kmh ESE 14.5 mph23.3 kmh 30.00 in1015.9 mb 0.00 in0.0 mm 0.00 in0.0 mm 0.00 in0.0 mm
03:46 PM 77.9°F25.5°C 58.8°F14.9°C 52% 11.9 mph ESE19.2 kmh ESE 14.5 mph23.3 kmh 30.00 in1015.9 mb 0.00 in0.0 mm 0.00 in0.0 mm 0.00 in0.0 mm
03:47 PM 77.4°F25.2°C 58.4°F14.7°C 52% 13.0 mph ESE20.9 kmh ESE 14.5 mph23.3 kmh 30.00 in1015.9 mb 0.00 in0.0 mm 0.00 in0.0 mm 0.00 in0.0 mm
03:48 PM 77.4°F25.2°C 58.4°F14.7°C 52% 5.3 mph SSE8.5 kmh SSE 14.5 mph23.3 kmh 30.00 in1015.9 mb 0.00 in0.0 mm 0.00 in0.0 mm 0.00 in0.0 mm
03:49 PM 77.9°F25.5°C 58.8°F14.9°C 52% 8.9 mph S14.3 kmh S 14.5 mph23.3 kmh 30.00 in1015.9 mb 0.00 in0.0 mm 0.00 in0.0 mm 0.00 in0.0 mm
03:50 PM 77.9°F25.5°C 58.8°F14.9°C 52% 12.5 mph SE20.1 kmh SE 14.5 mph23.3 kmh 30.00 in1015.9 mb 0.00 in0.0 mm 0.00 in0.0 mm 0.00 in0.0 mm
03:51 PM 77.9°F25.5°C 58.8°F14.9°C 52% 11.9 mph SE19.2 kmh SE 14.5 mph23.3 kmh 30.00 in1015.9 mb 0.00 in0.0 mm 0.00 in0.0 mm 0.00 in0.0 mm
03:52 PM 77.7°F25.4°C 58.7°F14.8°C 52% 8.9 mph SSE14.3 kmh SSE 14.5 mph23.3 kmh 30.00 in1015.9 mb 0.00 in0.0 mm 0.00 in0.0 mm 0.00 in0.0 mm
03:53 PM 77.5°F25.3°C 58.5°F14.7°C 52% 9.9 mph ESE15.9 kmh ESE 14.5 mph23.3 kmh 30.00 in1015.9 mb 0.00 in0.0 mm 0.00 in0.0 mm 0.00 in0.0 mm
03:54 PM 77.9°F25.5°C 58.8°F14.9°C 52% 11.4 mph ESE18.3 kmh ESE 14.5 mph23.3 kmh 30.00 in1015.9 mb 0.00 in0.0 mm 0.00 in0.0 mm 0.00 in0.0 mm
03:55 PM 77.9°F25.5°C 58.8°F14.9°C 52% 9.9 mph ESE15.9 kmh ESE 14.5 mph23.3 kmh 29.99 in1015.6 mb 0.00 in0.0 mm 0.00 in0.0 mm 0.00 in0.0 mm
03:56 PM 77.5°F25.3°C 59.0°F15.0°C 53% 11.4 mph SE18.3 kmh SE 14.5 mph23.3 kmh 29.99 in1015.6 mb 0.00 in0.0 mm 0.00 in0.0 mm 0.00 in0.0 mm
03:57 PM 77.4°F25.2°C 59.4°F15.2°C 54% 5.3 mph SSE8.5 kmh SSE 13.5 mph21.7 kmh 29.99 in1015.6 mb 0.00 in0.0 mm 0.00 in0.0 mm 0.00 in0.0 mm
03:58 PM 77.5°F25.3°C 59.5°F15.3°C 54% 7.3 mph ESE11.7 kmh ESE 13.5 mph21.7 kmh 29.99 in1015.6 mb 0.00 in0.0 mm 0.00 in0.0 mm 0.00 in0.0 mm
03:59 PM 78.1°F25.6°C 59.6°F15.3°C 53% 10.9 mph SE17.5 kmh SE 15.0 mph24.1 kmh 29.99 in1015.6 mb 0.00 in0.0 mm 0.00 in0.0 mm 0.00 in0.0 mm
04:00 PM 78.1°F25.6°C 59.6°F15.3°C 53% 7.8 mph SE12.6 kmh SE 15.0 mph24.1 kmh 29.99 in1015.6 mb 0.00 in0.0 mm 0.00 in0.0 mm 0.00 in0.0 mm
04:01 PM 77.4°F25.2°C 58.9°F14.9°C 53% 12.5 mph ESE20.1 kmh ESE 15.0 mph24.1 kmh 29.99 in1015.6 mb 0.00 in0.0 mm 0.00 in0.0 mm 0.00 in0.0 mm
04:02 PM 77.2°F25.1°C 58.7°F14.8°C 53% 7.8 mph ESE12.6 kmh ESE 15.0 mph24.1 kmh 29.99 in1015.6 mb 0.00 in0.0 mm 0.00 in0.0 mm 0.00 in0.0 mm
04:03 PM 77.2°F25.1°C 58.7°F14.8°C 53% 10.9 mph SSE17.5 kmh SSE 15.0 mph24.1 kmh 29.99 in1015.6 mb 0.00 in0.0 mm 0.00 in0.0 mm 0.00 in0.0 mm
04:04 PM 77.4°F25.2°C 58.9°F14.9°C 53% 15.0 mph SE24.1 kmh SE 15.0 mph24.1 kmh 29.99 in1015.6 mb 0.00 in0.0 mm 0.00 in0.0 mm 0.00 in0.0 mm
04:05 PM 77.2°F25.1°C 58.7°F14.8°C 53% 8.9 mph ESE14.3 kmh ESE 15.0 mph24.1 kmh 29.99 in1015.6 mb 0.00 in0.0 mm 0.00 in0.0 mm 0.00 in0.0 mm
04:06 PM 76.6°F24.8°C 58.7°F14.8°C 54% 14.5 mph ESE23.3 kmh ESE 15.0 mph24.1 kmh 29.99 in1015.6 mb 0.00 in0.0 mm 0.00 in0.0 mm 0.00 in0.0 mm
04:07 PM 76.6°F24.8°C 58.7°F14.8°C 54% 11.4 mph ESE18.3 kmh ESE 15.0 mph24.1 kmh 29.99 in1015.6 mb 0.00 in0.0 mm 0.00 in0.0 mm 0.00 in0.0 mm
04:08 PM 76.8°F24.9°C 58.9°F14.9°C 54% 8.9 mph ESE14.3 kmh ESE 15.0 mph24.1 kmh 29.99 in1015.6 mb 0.00 in0.0 mm 0.00 in0.0 mm 0.00 in0.0 mm
04:09 PM 77.2°F25.1°C 59.2°F15.1°C 54% 7.8 mph SE12.6 kmh SE 15.0 mph24.1 kmh 29.99 in1015.6 mb 0.00 in0.0 mm 0.00 in0.0 mm 0.00 in0.0 mm
04:10 PM 77.2°F25.1°C 59.2°F15.1°C 54% 7.8 mph SE12.6 kmh SE 15.0 mph24.1 kmh 29.99 in1015.6 mb 0.00 in0.0 mm 0.00 in0.0 mm 0.00 in0.0 mm
04:11 PM 77.2°F25.1°C 59.2°F15.1°C 54% Calm Calm 15.0 mph24.1 kmh 29.99 in1015.6 mb 0.00 in0.0 mm 0.00 in0.0 mm 0.00 in0.0 mm
04:12 PM 77.2°F25.1°C 59.2°F15.1°C 54% Calm Calm 15.0 mph24.1 kmh 29.99 in1015.6 mb 0.00 in0.0 mm 0.00 in0.0 mm 0.00 in0.0 mm
04:13 PM 77.2°F25.1°C 59.2°F15.1°C 54% Calm Calm 14.5 mph23.3 kmh 29.99 in1015.6 mb 0.00 in0.0 mm 0.00 in0.0 mm 0.00 in0.0 mm
04:14 PM 77.2°F25.1°C 59.2°F15.1°C 54% Calm Calm 12.5 mph20.1 kmh 29.99 in1015.6 mb 0.00 in0.0 mm 0.00 in0.0 mm 0.00 in0.0 mm
04:15 PM 77.2°F25.1°C 59.2°F15.1°C 54% Calm Calm 12.5 mph20.1 kmh 29.99 in1015.6 mb 0.00 in0.0 mm 0.00 in0.0 mm 0.00 in0.0 mm
04:16 PM 77.4°F25.2°C 59.4°F15.2°C 54% 16.6 mph ESE26.7 kmh ESE 16.6 mph26.7 kmh 29.99 in1015.6 mb 0.00 in0.0 mm 0.00 in0.0 mm 0.00 in0.0 mm
04:17 PM 77.4°F25.2°C 58.9°F14.9°C 53% 9.9 mph ESE15.9 kmh ESE 16.6 mph26.7 kmh 29.99 in1015.6 mb 0.00 in0.0 mm 0.00 in0.0 mm 0.00 in0.0 mm
04:18 PM 76.8°F24.9°C 58.9°F14.9°C 54% 7.8 mph ESE12.6 kmh ESE 16.6 mph26.7 kmh 29.99 in1015.6 mb 0.00 in0.0 mm 0.00 in0.0 mm 0.00 in0.0 mm
04:19 PM 77.0°F25.0°C 59.1°F15.1°C 54% 14.0 mph ESE22.5 kmh ESE 16.6 mph26.7 kmh 29.99 in1015.6 mb 0.00 in0.0 mm 0.00 in0.0 mm 0.00 in0.0 mm
04:20 PM 77.2°F25.1°C 59.2°F15.1°C 54% 10.9 mph ESE17.5 kmh ESE 16.6 mph26.7 kmh 29.99 in1015.6 mb 0.00 in0.0 mm 0.00 in0.0 mm 0.00 in0.0 mm
04:21 PM 76.8°F24.9°C 59.4°F15.2°C 55% 8.3 mph SSE13.4 kmh SSE 16.6 mph26.7 kmh 29.99 in1015.6 mb 0.00 in0.0 mm 0.00 in0.0 mm 0.00 in0.0 mm
04:22 PM 76.6°F24.8°C 59.2°F15.1°C 55% 8.3 mph SE13.4 kmh SE 16.6 mph26.7 kmh 29.99 in1015.6 mb 0.00 in0.0 mm 0.00 in0.0 mm 0.00 in0.0 mm
04:23 PM 76.6°F24.8°C 59.2°F15.1°C 55% 7.3 mph SSE11.7 kmh SSE 16.6 mph26.7 kmh 29.99 in1015.6 mb 0.00 in0.0 mm 0.00 in0.0 mm 0.00 in0.0 mm
04:24 PM 76.6°F24.8°C 59.2°F15.1°C 55% 8.3 mph SSE13.4 kmh SSE 16.6 mph26.7 kmh 29.99 in1015.6 mb 0.00 in0.0 mm 0.00 in0.0 mm 0.00 in0.0 mm
04:25 PM 76.6°F24.8°C 59.2°F15.1°C 55% 14.5 mph ESE23.3 kmh ESE 16.6 mph26.7 kmh 29.99 in1015.6 mb 0.00 in0.0 mm 0.00 in0.0 mm 0.00 in0.0 mm
04:26 PM 76.6°F24.8°C 59.2°F15.1°C 55% 17.6 mph ESE28.3 kmh ESE 17.6 mph28.3 kmh 29.99 in1015.6 mb 0.00 in0.0 mm 0.00 in0.0 mm 0.00 in0.0 mm
04:27 PM 76.3°F24.6°C 59.4°F15.2°C 56% 8.9 mph ESE14.3 kmh ESE 17.6 mph28.3 kmh 29.99 in1015.6 mb 0.00 in0.0 mm 0.00 in0.0 mm 0.00 in0.0 mm
04:28 PM 76.1°F24.5°C 59.2°F15.1°C 56% 7.3 mph SE11.7 kmh SE 17.6 mph28.3 kmh 29.99 in1015.6 mb 0.00 in0.0 mm 0.00 in0.0 mm 0.00 in0.0 mm
04:29 PM 75.9°F24.4°C 59.1°F15.1°C 56% 6.3 mph SE10.1 kmh SE 17.6 mph28.3 kmh 29.99 in1015.6 mb 0.00 in0.0 mm 0.00 in0.0 mm 0.00 in0.0 mm
04:30 PM 76.1°F24.5°C 59.2°F15.1°C 56% 10.9 mph ESE17.5 kmh ESE 17.6 mph28.3 kmh 29.99 in1015.6 mb 0.00 in0.0 mm 0.00 in0.0 mm 0.00 in0.0 mm
04:31 PM 76.5°F24.7°C 59.6°F15.3°C 56% 4.7 mph SSE7.6 kmh SSE 17.6 mph28.3 kmh 29.99 in1015.6 mb 0.00 in0.0 mm 0.00 in0.0 mm 0.00 in0.0 mm
04:32 PM 76.5°F24.7°C 59.6°F15.3°C 56% 4.7 mph SE7.6 kmh SE 17.6 mph28.3 kmh 29.99 in1015.6 mb 0.00 in0.0 mm 0.00 in0.0 mm 0.00 in0.0 mm
04:33 PM 76.3°F24.6°C 59.4°F15.2°C 56% 9.9 mph ESE15.9 kmh ESE 17.6 mph28.3 kmh 29.99 in1015.6 mb 0.00 in0.0 mm 0.00 in0.0 mm 0.00 in0.0 mm
04:34 PM 76.3°F24.6°C 59.4°F15.2°C 56% 8.3 mph SE13.4 kmh SE 17.6 mph28.3 kmh 29.99 in1015.6 mb 0.00 in0.0 mm 0.00 in0.0 mm 0.00 in0.0 mm
04:35 PM 76.1°F24.5°C 59.2°F15.1°C 56% 8.3 mph SE13.4 kmh SE 17.6 mph28.3 kmh 29.99 in1015.6 mb 0.00 in0.0 mm 0.00 in0.0 mm 0.00 in0.0 mm
04:36 PM 76.1°F24.5°C 59.2°F15.1°C 56% 7.8 mph SE12.6 kmh SE 17.6 mph28.3 kmh 29.99 in1015.6 mb 0.00 in0.0 mm 0.00 in0.0 mm 0.00 in0.0 mm
04:37 PM 76.6°F24.8°C 59.2°F15.1°C 55% 10.4 mph ESE16.7 kmh ESE 11.4 mph18.3 kmh 29.99 in1015.6 mb 0.00 in0.0 mm 0.00 in0.0 mm 0.00 in0.0 mm
04:38 PM 76.8°F24.9°C 59.4°F15.2°C 55% 5.8 mph ESE9.3 kmh ESE 11.4 mph18.3 kmh 29.99 in1015.6 mb 0.00 in0.0 mm 0.00 in0.0 mm 0.00 in0.0 mm
04:39 PM 76.8°F24.9°C 59.4°F15.2°C 55% 5.3 mph S8.5 kmh S 11.4 mph18.3 kmh 29.99 in1015.6 mb 0.00 in0.0 mm 0.00 in0.0 mm 0.00 in0.0 mm
04:40 PM 76.8°F24.9°C 59.4°F15.2°C 55% 10.4 mph SE16.7 kmh SE 11.4 mph18.3 kmh 29.99 in1015.6 mb 0.00 in0.0 mm 0.00 in0.0 mm 0.00 in0.0 mm
04:41 PM 76.6°F24.8°C 59.7°F15.4°C 56% 7.3 mph SE11.7 kmh SE 11.4 mph18.3 kmh 29.99 in1015.6 mb 0.00 in0.0 mm 0.00 in0.0 mm 0.00 in0.0 mm
04:42 PM 76.5°F24.7°C 59.6°F15.3°C 56% 11.4 mph ESE18.3 kmh ESE 11.4 mph18.3 kmh 29.99 in1015.6 mb 0.00 in0.0 mm 0.00 in0.0 mm 0.00 in0.0 mm
04:43 PM 76.5°F24.7°C 59.6°F15.3°C 56% 7.8 mph SSE12.6 kmh SSE 11.4 mph18.3 kmh 29.99 in1015.6 mb 0.00 in0.0 mm 0.00 in0.0 mm 0.00 in0.0 mm
04:44 PM 75.9°F24.4°C 59.1°F15.1°C 56% 5.3 mph ESE8.5 kmh ESE 11.4 mph18.3 kmh 29.99 in1015.6 mb 0.00 in0.0 mm 0.00 in0.0 mm 0.00 in0.0 mm
04:45 PM 75.7°F24.3°C 59.4°F15.2°C 57% 4.2 mph ESE6.8 kmh ESE 11.4 mph18.3 kmh 29.99 in1015.6 mb 0.00 in0.0 mm 0.00 in0.0 mm 0.00 in0.0 mm
04:46 PM 76.1°F24.5°C 59.7°F15.4°C 57% 6.3 mph SSE10.1 kmh SSE 11.4 mph18.3 kmh 29.99 in1015.6 mb 0.00 in0.0 mm 0.00 in0.0 mm 0.00 in0.0 mm
04:47 PM 76.5°F24.7°C 60.1°F15.6°C 57% 13.5 mph SSE21.7 kmh SSE 13.5 mph21.7 kmh 29.99 in1015.6 mb 0.00 in0.0 mm 0.00 in0.0 mm 0.00 in0.0 mm
04:48 PM 76.6°F24.8°C 60.2°F15.7°C 57% 10.9 mph ESE17.5 kmh ESE 13.5 mph21.7 kmh 29.99 in1015.6 mb 0.00 in0.0 mm 0.00 in0.0 mm 0.00 in0.0 mm
04:49 PM 76.6°F24.8°C 60.2°F15.7°C 57% 8.9 mph ESE14.3 kmh ESE 13.5 mph21.7 kmh 29.99 in1015.6 mb 0.00 in0.0 mm 0.00 in0.0 mm 0.00 in0.0 mm
04:50 PM 76.5°F24.7°C 60.1°F15.6°C 57% 6.8 mph SE10.9 kmh SE 13.5 mph21.7 kmh 29.99 in1015.6 mb 0.00 in0.0 mm 0.00 in0.0 mm 0.00 in0.0 mm
04:51 PM 76.3°F24.6°C 59.9°F15.5°C 57% 6.8 mph SSE10.9 kmh SSE 13.5 mph21.7 kmh 29.99 in1015.6 mb 0.00 in0.0 mm 0.00 in0.0 mm 0.00 in0.0 mm
04:52 PM 75.9°F24.4°C 59.6°F15.3°C 57% 6.3 mph SE10.1 kmh SE 13.5 mph21.7 kmh 29.99 in1015.6 mb 0.00 in0.0 mm 0.00 in0.0 mm 0.00 in0.0 mm
04:53 PM 75.7°F24.3°C 59.9°F15.5°C 58% 10.9 mph ESE17.5 kmh ESE 13.5 mph21.7 kmh 29.99 in1015.6 mb 0.00 in0.0 mm 0.00 in0.0 mm 0.00 in0.0 mm
04:54 PM 75.6°F24.2°C 59.8°F15.4°C 58% 6.8 mph ESE10.9 kmh ESE 14.5 mph23.3 kmh 29.99 in1015.6 mb 0.00 in0.0 mm 0.00 in0.0 mm 0.00 in0.0 mm
04:55 PM 75.4°F24.1°C 59.6°F15.3°C 58% 11.9 mph SE19.2 kmh SE 14.5 mph23.3 kmh 29.99 in1015.6 mb 0.00 in0.0 mm 0.00 in0.0 mm 0.00 in0.0 mm
04:56 PM 75.4°F24.1°C 59.6°F15.3°C 58% 6.8 mph SE10.9 kmh SE 14.5 mph23.3 kmh 29.99 in1015.6 mb 0.00 in0.0 mm 0.00 in0.0 mm 0.00 in0.0 mm
04:57 PM 75.4°F24.1°C 59.6°F15.3°C 58% 10.4 mph ESE16.7 kmh ESE 14.5 mph23.3 kmh 29.99 in1015.6 mb 0.00 in0.0 mm 0.00 in0.0 mm 0.00 in0.0 mm
04:58 PM 75.2°F24.0°C 59.4°F15.2°C 58% 5.3 mph SSE8.5 kmh SSE 14.5 mph23.3 kmh 29.99 in1015.6 mb 0.00 in0.0 mm 0.00 in0.0 mm 0.00 in0.0 mm
04:59 PM 75.2°F24.0°C 59.4°F15.2°C 58% 9.9 mph ESE15.9 kmh ESE 14.5 mph23.3 kmh 29.99 in1015.6 mb 0.00 in0.0 mm 0.00 in0.0 mm 0.00 in0.0 mm
05:00 PM 75.4°F24.1°C 59.6°F15.3°C 58% 11.4 mph ESE18.3 kmh ESE 15.0 mph24.1 kmh 29.99 in1015.6 mb 0.00 in0.0 mm 0.00 in0.0 mm 0.00 in0.0 mm
05:01 PM 75.9°F24.4°C 60.0°F15.6°C 58% 5.8 mph SE9.3 kmh SE 15.0 mph24.1 kmh 29.99 in1015.6 mb 0.00 in0.0 mm 0.00 in0.0 mm 0.00 in0.0 mm
05:02 PM 75.9°F24.4°C 60.0°F15.6°C 58% 6.3 mph SSE10.1 kmh SSE 15.0 mph24.1 kmh 29.99 in1015.6 mb 0.00 in0.0 mm 0.00 in0.0 mm 0.00 in0.0 mm
05:03 PM 76.1°F24.5°C 60.2°F15.7°C 58% 11.4 mph SE18.3 kmh SE 15.0 mph24.1 kmh 29.99 in1015.6 mb 0.00 in0.0 mm 0.00 in0.0 mm 0.00 in0.0 mm
05:04 PM 76.1°F24.5°C 60.2°F15.7°C 58% 14.5 mph ESE23.3 kmh ESE 15.0 mph24.1 kmh 29.99 in1015.6 mb 0.00 in0.0 mm 0.00 in0.0 mm 0.00 in0.0 mm
05:05 PM 75.7°F24.3°C 59.9°F15.5°C 58% 7.3 mph SE11.7 kmh SE 15.0 mph24.1 kmh 29.99 in1015.6 mb 0.00 in0.0 mm 0.00 in0.0 mm 0.00 in0.0 mm
05:06 PM 75.6°F24.2°C 59.8°F15.4°C 58% 6.3 mph SSE10.1 kmh SSE 15.0 mph24.1 kmh 29.99 in1015.6 mb 0.00 in0.0 mm 0.00 in0.0 mm 0.00 in0.0 mm
05:07 PM 75.2°F24.0°C 59.4°F15.2°C 58% 4.2 mph SE6.8 kmh SE 15.0 mph24.1 kmh 29.99 in1015.6 mb 0.00 in0.0 mm 0.00 in0.0 mm 0.00 in0.0 mm
05:08 PM 75.0°F23.9°C 59.7°F15.4°C 59% 6.3 mph SE10.1 kmh SE 15.0 mph24.1 kmh 29.99 in1015.6 mb 0.00 in0.0 mm 0.00 in0.0 mm 0.00 in0.0 mm
05:09 PM 75.2°F24.0°C 59.9°F15.5°C 59% 11.4 mph ESE18.3 kmh ESE 15.0 mph24.1 kmh 29.99 in1015.6 mb 0.00 in0.0 mm 0.00 in0.0 mm 0.00 in0.0 mm
05:10 PM 75.4°F24.1°C 60.1°F15.6°C 59% 15.5 mph ESE24.9 kmh ESE 15.5 mph24.9 kmh 29.99 in1015.6 mb 0.00 in0.0 mm 0.00 in0.0 mm 0.00 in0.0 mm
05:11 PM 75.6°F24.2°C 60.2°F15.7°C 59% 6.3 mph ESE10.1 kmh ESE 15.5 mph24.9 kmh 29.99 in1015.6 mb 0.00 in0.0 mm 0.00 in0.0 mm 0.00 in0.0 mm
05:12 PM 76.1°F24.5°C 60.2°F15.7°C 58% 9.4 mph ESE15.1 kmh ESE 15.5 mph24.9 kmh 29.99 in1015.6 mb 0.00 in0.0 mm 0.00 in0.0 mm 0.00 in0.0 mm
05:13 PM 76.3°F24.6°C 60.4°F15.8°C 58% 5.3 mph SSE8.5 kmh SSE 15.5 mph24.9 kmh 29.99 in1015.6 mb 0.00 in0.0 mm 0.00 in0.0 mm 0.00 in0.0 mm
05:14 PM 76.3°F24.6°C 60.4°F15.8°C 58% 3.7 mph ESE6.0 kmh ESE 15.5 mph24.9 kmh 29.99 in1015.6 mb 0.00 in0.0 mm 0.00 in0.0 mm 0.00 in0.0 mm
05:15 PM 76.3°F24.6°C 60.4°F15.8°C 58% 8.9 mph SSE14.3 kmh SSE 15.5 mph24.9 kmh 29.99 in1015.6 mb 0.00 in0.0 mm 0.00 in0.0 mm 0.00 in0.0 mm
05:16 PM 76.3°F24.6°C 60.4°F15.8°C 58% 7.3 mph SE11.7 kmh SE 15.5 mph24.9 kmh 29.99 in1015.6 mb 0.00 in0.0 mm 0.00 in0.0 mm 0.00 in0.0 mm
05:17 PM 75.9°F24.4°C 60.0°F15.6°C 58% 9.9 mph ESE15.9 kmh ESE 15.5 mph24.9 kmh 29.99 in1015.6 mb 0.00 in0.0 mm 0.00 in0.0 mm 0.00 in0.0 mm
05:18 PM 75.7°F24.3°C 59.9°F15.5°C 58% 12.5 mph SE20.1 kmh SE 15.5 mph24.9 kmh 29.99 in1015.6 mb 0.00 in0.0 mm 0.00 in0.0 mm 0.00 in0.0 mm
05:19 PM 75.7°F24.3°C 59.9°F15.5°C 58% 10.9 mph ESE17.5 kmh ESE 15.5 mph24.9 kmh 29.99 in1015.6 mb 0.00 in0.0 mm 0.00 in0.0 mm 0.00 in0.0 mm
05:20 PM 75.7°F24.3°C 59.9°F15.5°C 58% 10.4 mph ESE16.7 kmh ESE 15.5 mph24.9 kmh 29.99 in1015.6 mb 0.00 in0.0 mm 0.00 in0.0 mm 0.00 in0.0 mm
05:21 PM 75.6°F24.2°C 59.8°F15.4°C 58% 10.4 mph SE16.7 kmh SE 15.5 mph24.9 kmh 29.99 in1015.6 mb 0.00 in0.0 mm 0.00 in0.0 mm 0.00 in0.0 mm
05:22 PM 75.6°F24.2°C 59.8°F15.4°C 58% 6.3 mph E10.1 kmh E 15.5 mph24.9 kmh 29.99 in1015.6 mb 0.00 in0.0 mm 0.00 in0.0 mm 0.00 in0.0 mm
05:23 PM 75.7°F24.3°C 59.9°F15.5°C 58% 9.9 mph S15.9 kmh S 15.5 mph24.9 kmh 29.99 in1015.6 mb 0.00 in0.0 mm 0.00 in0.0 mm 0.00 in0.0 mm
05:24 PM 75.7°F24.3°C 59.9°F15.5°C 58% 10.9 mph SE17.5 kmh SE 15.5 mph24.9 kmh 29.99 in1015.6 mb 0.00 in0.0 mm 0.00 in0.0 mm 0.00 in0.0 mm
05:25 PM 75.6°F24.2°C 59.8°F15.4°C 58% 7.8 mph SE12.6 kmh SE 15.5 mph24.9 kmh 29.99 in1015.6 mb 0.00 in0.0 mm 0.00 in0.0 mm 0.00 in0.0 mm
05:26 PM 75.2°F24.0°C 59.4°F15.2°C 58% 7.8 mph SE12.6 kmh SE 15.5 mph24.9 kmh 29.99 in1015.6 mb 0.00 in0.0 mm 0.00 in0.0 mm 0.00 in0.0 mm
05:27 PM 75.2°F24.0°C 59.4°F15.2°C 58% 8.3 mph SSE13.4 kmh SSE 15.5 mph24.9 kmh 29.99 in1015.6 mb 0.00 in0.0 mm 0.00 in0.0 mm 0.00 in0.0 mm
05:28 PM 75.2°F24.0°C 59.4°F15.2°C 58% 6.3 mph SSE10.1 kmh SSE 15.5 mph24.9 kmh 29.99 in1015.6 mb 0.00 in0.0 mm 0.00 in0.0 mm 0.00 in0.0 mm
05:29 PM 75.0°F23.9°C 59.7°F15.4°C 59% 5.3 mph S8.5 kmh S 15.5 mph24.9 kmh 29.99 in1015.6 mb 0.00 in0.0 mm 0.00 in0.0 mm 0.00 in0.0 mm
05:30 PM 75.0°F23.9°C 59.7°F15.4°C 59% 8.9 mph SE14.3 kmh SE 15.5 mph24.9 kmh 29.99 in1015.6 mb 0.00 in0.0 mm 0.00 in0.0 mm 0.00 in0.0 mm
05:31 PM 75.0°F23.9°C 59.7°F15.4°C 59% 8.9 mph ESE14.3 kmh ESE 14.5 mph23.3 kmh 29.98 in1015.2 mb 0.00 in0.0 mm 0.00 in0.0 mm 0.00 in0.0 mm
05:32 PM 74.8°F23.8°C 59.5°F15.3°C 59% 11.9 mph ESE19.2 kmh ESE 14.5 mph23.3 kmh 29.98 in1015.2 mb 0.00 in0.0 mm 0.00 in0.0 mm 0.00 in0.0 mm
05:33 PM 74.8°F23.8°C 59.5°F15.3°C 59% 6.3 mph ESE10.1 kmh ESE 14.5 mph23.3 kmh 29.98 in1015.2 mb 0.00 in0.0 mm 0.00 in0.0 mm 0.00 in0.0 mm
05:34 PM 74.8°F23.8°C 59.5°F15.3°C 59% 6.8 mph SE10.9 kmh SE 14.5 mph23.3 kmh 29.98 in1015.2 mb 0.00 in0.0 mm 0.00 in0.0 mm 0.00 in0.0 mm
05:35 PM 74.8°F23.8°C 59.5°F15.3°C 59% 4.2 mph SSE6.8 kmh SSE 12.5 mph20.1 kmh 29.98 in1015.2 mb 0.00 in0.0 mm 0.00 in0.0 mm 0.00 in0.0 mm
05:36 PM 74.8°F23.8°C 59.5°F15.3°C 59% 7.8 mph SE12.6 kmh SE 12.5 mph20.1 kmh 29.98 in1015.2 mb 0.00 in0.0 mm 0.00 in0.0 mm 0.00 in0.0 mm
05:37 PM 75.2°F24.0°C 59.9°F15.5°C 59% 4.2 mph S6.8 kmh S 12.5 mph20.1 kmh 29.98 in1015.2 mb 0.00 in0.0 mm 0.00 in0.0 mm 0.00 in0.0 mm
05:38 PM 75.6°F24.2°C 60.2°F15.7°C 59% 5.8 mph SE9.3 kmh SE 12.5 mph20.1 kmh 29.98 in1015.2 mb 0.00 in0.0 mm 0.00 in0.0 mm 0.00 in0.0 mm
05:39 PM 75.6°F24.2°C 60.2°F15.7°C 59% 8.3 mph ESE13.4 kmh ESE 12.5 mph20.1 kmh 29.98 in1015.2 mb 0.00 in0.0 mm 0.00 in0.0 mm 0.00 in0.0 mm
05:40 PM 75.6°F24.2°C 60.2°F15.7°C 59% 6.8 mph ESE10.9 kmh ESE 12.5 mph20.1 kmh 29.98 in1015.2 mb 0.00 in0.0 mm 0.00 in0.0 mm 0.00 in0.0 mm
05:41 PM 75.4°F24.1°C 60.1°F15.6°C 59% 7.8 mph S12.6 kmh S 11.9 mph19.2 kmh 29.98 in1015.2 mb 0.00 in0.0 mm 0.00 in0.0 mm 0.00 in0.0 mm
05:42 PM 75.4°F24.1°C 60.1°F15.6°C 59% 4.2 mph SE6.8 kmh SE 11.9 mph19.2 kmh 29.98 in1015.2 mb 0.00 in0.0 mm 0.00 in0.0 mm 0.00 in0.0 mm
05:43 PM 75.4°F24.1°C 60.1°F15.6°C 59% 6.3 mph SSE10.1 kmh SSE 11.9 mph19.2 kmh 29.99 in1015.6 mb 0.00 in0.0 mm 0.00 in0.0 mm 0.00 in0.0 mm
05:44 PM 75.4°F24.1°C 60.1°F15.6°C 59% 7.8 mph ESE12.6 kmh ESE 11.9 mph19.2 kmh 29.99 in1015.6 mb 0.00 in0.0 mm 0.00 in0.0 mm 0.00 in0.0 mm
05:45 PM 75.4°F24.1°C 60.1°F15.6°C 59% 10.9 mph SE17.5 kmh SE 11.9 mph19.2 kmh 29.99 in1015.6 mb 0.00 in0.0 mm 0.00 in0.0 mm 0.00 in0.0 mm
05:46 PM 75.4°F24.1°C 60.1°F15.6°C 59% 6.8 mph SSE10.9 kmh SSE 11.9 mph19.2 kmh 29.99 in1015.6 mb 0.00 in0.0 mm 0.00 in0.0 mm 0.00 in0.0 mm
05:47 PM 75.4°F24.1°C 60.1°F15.6°C 59% 6.8 mph SSE10.9 kmh SSE 10.9 mph17.5 kmh 29.99 in1015.6 mb 0.00 in0.0 mm 0.00 in0.0 mm 0.00 in0.0 mm
05:48 PM 75.2°F24.0°C 59.9°F15.5°C 59% 7.8 mph SE12.6 kmh SE 10.9 mph17.5 kmh 29.99 in1015.6 mb 0.00 in0.0 mm 0.00 in0.0 mm 0.00 in0.0 mm
05:49 PM 75.2°F24.0°C 59.9°F15.5°C 59% 6.8 mph SE10.9 kmh SE 10.9 mph17.5 kmh 29.99 in1015.6 mb 0.00 in0.0 mm 0.00 in0.0 mm 0.00 in0.0 mm
05:50 PM 75.2°F24.0°C 59.9°F15.5°C 59% 7.8 mph ESE12.6 kmh ESE 10.9 mph17.5 kmh 29.99 in1015.6 mb 0.00 in0.0 mm 0.00 in0.0 mm 0.00 in0.0 mm
05:51 PM 75.2°F24.0°C 59.9°F15.5°C 59% 6.8 mph SE10.9 kmh SE 11.9 mph19.2 kmh 29.99 in1015.6 mb 0.00 in0.0 mm 0.00 in0.0 mm 0.00 in0.0 mm
05:52 PM 75.0°F23.9°C 59.7°F15.4°C 59% 3.2 mph S5.1 kmh S 11.9 mph19.2 kmh 29.99 in1015.6 mb 0.00 in0.0 mm 0.00 in0.0 mm 0.00 in0.0 mm
05:53 PM 74.8°F23.8°C 59.5°F15.3°C 59% 9.9 mph SSE15.9 kmh SSE 11.9 mph19.2 kmh 29.99 in1015.6 mb 0.00 in0.0 mm 0.00 in0.0 mm 0.00 in0.0 mm
05:54 PM 74.7°F23.7°C 59.4°F15.2°C 59% 10.9 mph ESE17.5 kmh ESE 11.9 mph19.2 kmh 29.99 in1015.6 mb 0.00 in0.0 mm 0.00 in0.0 mm 0.00 in0.0 mm
05:55 PM 74.7°F23.7°C 59.4°F15.2°C 59% 8.9 mph ESE14.3 kmh ESE 11.9 mph19.2 kmh 29.98 in1015.2 mb 0.00 in0.0 mm 0.00 in0.0 mm 0.00 in0.0 mm
05:56 PM 74.7°F23.7°C 59.4°F15.2°C 59% 3.7 mph S6.0 kmh S 11.9 mph19.2 kmh 29.98 in1015.2 mb 0.00 in0.0 mm 0.00 in0.0 mm 0.00 in0.0 mm
05:57 PM 74.7°F23.7°C 59.4°F15.2°C 59% 10.9 mph ESE17.5 kmh ESE 11.9 mph19.2 kmh 29.98 in1015.2 mb 0.00 in0.0 mm 0.00 in0.0 mm 0.00 in0.0 mm
05:58 PM 74.7°F23.7°C 59.4°F15.2°C 59% 7.3 mph ESE11.7 kmh ESE 11.9 mph19.2 kmh 29.98 in1015.2 mb 0.00 in0.0 mm 0.00 in0.0 mm 0.00 in0.0 mm
05:59 PM 74.7°F23.7°C 59.4°F15.2°C 59% 4.2 mph SSE6.8 kmh SSE 11.9 mph19.2 kmh 29.98 in1015.2 mb 0.00 in0.0 mm 0.00 in0.0 mm 0.00 in0.0 mm
06:00 PM 74.7°F23.7°C 59.4°F15.2°C 59% 4.2 mph ESE6.8 kmh ESE 11.9 mph19.2 kmh 29.98 in1015.2 mb 0.00 in0.0 mm 0.00 in0.0 mm 0.00 in0.0 mm
06:01 PM 74.8°F23.8°C 60.0°F15.6°C 60% 8.9 mph SE14.3 kmh SE 11.4 mph18.3 kmh 29.98 in1015.2 mb 0.00 in0.0 mm 0.00 in0.0 mm 0.00 in0.0 mm
06:02 PM 74.8°F23.8°C 60.0°F15.6°C 60% 4.2 mph S6.8 kmh S 11.4 mph18.3 kmh 29.98 in1015.2 mb 0.00 in0.0 mm 0.00 in0.0 mm 0.00 in0.0 mm
06:03 PM 74.8°F23.8°C 60.0°F15.6°C 60% 12.5 mph SE20.1 kmh SE 12.5 mph20.1 kmh 29.98 in1015.2 mb 0.00 in0.0 mm 0.00 in0.0 mm 0.00 in0.0 mm
06:04 PM 74.8°F23.8°C 60.0°F15.6°C 60% 6.3 mph SE10.1 kmh SE 12.5 mph20.1 kmh 29.98 in1015.2 mb 0.00 in0.0 mm 0.00 in0.0 mm 0.00 in0.0 mm
06:05 PM 74.8°F23.8°C 60.0°F15.6°C 60% 8.3 mph SE13.4 kmh SE 12.5 mph20.1 kmh 29.98 in1015.2 mb 0.00 in0.0 mm 0.00 in0.0 mm 0.00 in0.0 mm
06:06 PM 74.8°F23.8°C 60.0°F15.6°C 60% 7.8 mph ESE12.6 kmh ESE 12.5 mph20.1 kmh 29.98 in1015.2 mb 0.00 in0.0 mm 0.00 in0.0 mm 0.00 in0.0 mm
06:07 PM 74.8°F23.8°C 60.0°F15.6°C 60% 4.2 mph SE6.8 kmh SE 12.5 mph20.1 kmh 29.99 in1015.6 mb 0.00 in0.0 mm 0.00 in0.0 mm 0.00 in0.0 mm
06:08 PM 74.7°F23.7°C 59.9°F15.5°C 60% 11.4 mph SE18.3 kmh SE 12.5 mph20.1 kmh 29.99 in1015.6 mb 0.00 in0.0 mm 0.00 in0.0 mm 0.00 in0.0 mm
06:09 PM 74.7°F23.7°C 59.9°F15.5°C 60% 8.9 mph ESE14.3 kmh ESE 12.5 mph20.1 kmh 29.99 in1015.6 mb 0.00 in0.0 mm 0.00 in0.0 mm 0.00 in0.0 mm
06:10 PM 74.7°F23.7°C 59.9°F15.5°C 60% 7.3 mph ESE11.7 kmh ESE 12.5 mph20.1 kmh 29.99 in1015.6 mb 0.00 in0.0 mm 0.00 in0.0 mm 0.00 in0.0 mm
06:11 PM 74.7°F23.7°C 59.9°F15.5°C 60% 9.4 mph ESE15.1 kmh ESE 12.5 mph20.1 kmh 29.99 in1015.6 mb 0.00 in0.0 mm 0.00 in0.0 mm 0.00 in0.0 mm
06:12 PM 74.7°F23.7°C 59.9°F15.5°C 60% 7.8 mph ESE12.6 kmh ESE 12.5 mph20.1 kmh 29.99 in1015.6 mb 0.00 in0.0 mm 0.00 in0.0 mm 0.00 in0.0 mm
06:13 PM 74.7°F23.7°C 59.9°F15.5°C 60% 7.8 mph SE12.6 kmh SE 12.5 mph20.1 kmh 29.99 in1015.6 mb 0.00 in0.0 mm 0.00 in0.0 mm 0.00 in0.0 mm
06:14 PM 74.7°F23.7°C 59.9°F15.5°C 60% 5.8 mph SSE9.3 kmh SSE 11.4 mph18.3 kmh 29.99 in1015.6 mb 0.00 in0.0 mm 0.00 in0.0 mm 0.00 in0.0 mm
06:15 PM 74.7°F23.7°C 59.9°F15.5°C 60% 7.3 mph SSE11.7 kmh SSE 11.4 mph18.3 kmh 29.99 in1015.6 mb 0.00 in0.0 mm 0.00 in0.0 mm 0.00 in0.0 mm
06:16 PM 74.5°F23.6°C 59.7°F15.4°C 60% 5.3 mph S8.5 kmh S 11.4 mph18.3 kmh 29.99 in1015.6 mb 0.00 in0.0 mm 0.00 in0.0 mm 0.00 in0.0 mm
06:17 PM 74.3°F23.5°C 60.0°F15.6°C 61% 5.3 mph SE8.5 kmh SE 11.4 mph18.3 kmh 29.99 in1015.6 mb 0.00 in0.0 mm 0.00 in0.0 mm 0.00 in0.0 mm
06:18 PM 74.3°F23.5°C 60.0°F15.6°C 61% 14.0 mph SE22.5 kmh SE 14.0 mph22.5 kmh 29.99 in1015.6 mb 0.00 in0.0 mm 0.00 in0.0 mm 0.00 in0.0 mm
06:19 PM 74.3°F23.5°C 60.0°F15.6°C 61% 4.7 mph SE7.6 kmh SE 14.0 mph22.5 kmh 29.98 in1015.2 mb 0.00 in0.0 mm 0.00 in0.0 mm 0.00 in0.0 mm
06:20 PM 74.3°F23.5°C 60.0°F15.6°C 61% 7.8 mph ESE12.6 kmh ESE 14.0 mph22.5 kmh 29.98 in1015.2 mb 0.00 in0.0 mm 0.00 in0.0 mm 0.00 in0.0 mm
06:21 PM 74.3°F23.5°C 60.0°F15.6°C 61% 7.3 mph SE11.7 kmh SE 14.0 mph22.5 kmh 29.98 in1015.2 mb 0.00 in0.0 mm 0.00 in0.0 mm 0.00 in0.0 mm
06:22 PM 74.3°F23.5°C 60.0°F15.6°C 61% 9.4 mph ESE15.1 kmh ESE 14.0 mph22.5 kmh 29.98 in1015.2 mb 0.00 in0.0 mm 0.00 in0.0 mm 0.00 in0.0 mm
06:23 PM 74.3°F23.5°C 60.0°F15.6°C 61% 6.3 mph SE10.1 kmh SE 14.0 mph22.5 kmh 29.98 in1015.2 mb 0.00 in0.0 mm 0.00 in0.0 mm 0.00 in0.0 mm
06:24 PM 74.1°F23.4°C 59.8°F15.4°C 61% 14.0 mph ESE22.5 kmh ESE 14.0 mph22.5 kmh 29.98 in1015.2 mb 0.00 in0.0 mm 0.00 in0.0 mm 0.00 in0.0 mm
06:25 PM 74.1°F23.4°C 59.8°F15.4°C 61% 8.3 mph ESE13.4 kmh ESE 14.0 mph22.5 kmh 29.98 in1015.2 mb 0.00 in0.0 mm 0.00 in0.0 mm 0.00 in0.0 mm
06:26 PM 74.1°F23.4°C 60.2°F15.7°C 62% 6.8 mph ESE10.9 kmh ESE 14.0 mph22.5 kmh 29.98 in1015.2 mb 0.00 in0.0 mm 0.00 in0.0 mm 0.00 in0.0 mm
06:27 PM 74.1°F23.4°C 60.2°F15.7°C 62% 10.4 mph SE16.7 kmh SE 14.0 mph22.5 kmh 29.98 in1015.2 mb 0.00 in0.0 mm 0.00 in0.0 mm 0.00 in0.0 mm
06:28 PM 74.1°F23.4°C 60.2°F15.7°C 62% 8.3 mph S13.4 kmh S 14.0 mph22.5 kmh 29.98 in1015.2 mb 0.00 in0.0 mm 0.00 in0.0 mm 0.00 in0.0 mm
06:29 PM 73.9°F23.3°C 60.0°F15.6°C 62% 7.8 mph SE12.6 kmh SE 14.0 mph22.5 kmh 29.98 in1015.2 mb 0.00 in0.0 mm 0.00 in0.0 mm 0.00 in0.0 mm
06:30 PM 73.8°F23.2°C 60.0°F15.6°C 62% 10.9 mph SE17.5 kmh SE 14.0 mph22.5 kmh 29.98 in1015.2 mb 0.00 in0.0 mm 0.00 in0.0 mm 0.00 in0.0 mm
06:31 PM 73.8°F23.2°C 60.0°F15.6°C 62% 8.9 mph SSE14.3 kmh SSE 14.0 mph22.5 kmh 29.98 in1015.2 mb 0.00 in0.0 mm 0.00 in0.0 mm 0.00 in0.0 mm
06:32 PM 73.8°F23.2°C 60.0°F15.6°C 62% 4.7 mph S7.6 kmh S 14.0 mph22.5 kmh 29.98 in1015.2 mb 0.00 in0.0 mm 0.00 in0.0 mm 0.00 in0.0 mm
06:33 PM 73.8°F23.2°C 60.0°F15.6°C 62% 4.7 mph SSE7.6 kmh SSE 14.0 mph22.5 kmh 29.98 in1015.2 mb 0.00 in0.0 mm 0.00 in0.0 mm 0.00 in0.0 mm
06:34 PM 73.6°F23.1°C 59.8°F15.4°C 62% 8.9 mph SSE14.3 kmh SSE 14.0 mph22.5 kmh 29.98 in1015.2 mb 0.00 in0.0 mm 0.00 in0.0 mm 0.00 in0.0 mm
06:35 PM 73.6°F23.1°C 59.8°F15.4°C 62% 9.4 mph SE15.1 kmh SE 11.9 mph19.2 kmh 29.98 in1015.2 mb 0.00 in0.0 mm 0.00 in0.0 mm 0.00 in0.0 mm
06:36 PM 73.6°F23.1°C 59.8°F15.4°C 62% 5.8 mph SSE9.3 kmh SSE 11.9 mph19.2 kmh 29.98 in1015.2 mb 0.00 in0.0 mm 0.00 in0.0 mm 0.00 in0.0 mm
06:37 PM 73.6°F23.1°C 60.2°F15.7°C 63% 4.7 mph SSW7.6 kmh SSW 11.9 mph19.2 kmh 29.98 in1015.2 mb 0.00 in0.0 mm 0.00 in0.0 mm 0.00 in0.0 mm
06:38 PM 73.6°F23.1°C 60.2°F15.7°C 63% 6.8 mph SSE10.9 kmh SSE 11.9 mph19.2 kmh 29.98 in1015.2 mb 0.00 in0.0 mm 0.00 in0.0 mm 0.00 in0.0 mm
06:39 PM 73.6°F23.1°C 60.2°F15.7°C 63% 4.2 mph S6.8 kmh S 11.9 mph19.2 kmh 29.98 in1015.2 mb 0.00 in0.0 mm 0.00 in0.0 mm 0.00 in0.0 mm
06:40 PM 73.6°F23.1°C 60.2°F15.7°C 63% 6.3 mph S10.1 kmh S 11.9 mph19.2 kmh 29.98 in1015.2 mb 0.00 in0.0 mm 0.00 in0.0 mm 0.00 in0.0 mm
06:41 PM 73.6°F23.1°C 60.2°F15.7°C 63% 3.7 mph SE6.0 kmh SE 11.9 mph19.2 kmh 29.98 in1015.2 mb 0.00 in0.0 mm 0.00 in0.0 mm 0.00 in0.0 mm
06:42 PM 73.6°F23.1°C 60.2°F15.7°C 63% 8.3 mph SSE13.4 kmh SSE 11.9 mph19.2 kmh 29.98 in1015.2 mb 0.00 in0.0 mm 0.00 in0.0 mm 0.00 in0.0 mm
06:43 PM 73.6°F23.1°C 60.2°F15.7°C 63% 5.3 mph SE8.5 kmh SE 11.9 mph19.2 kmh 29.99 in1015.6 mb 0.00 in0.0 mm 0.00 in0.0 mm 0.00 in0.0 mm
06:44 PM 73.4°F23.0°C 60.0°F15.6°C 63% 4.7 mph SE7.6 kmh SE 11.9 mph19.2 kmh 29.99 in1015.6 mb 0.00 in0.0 mm 0.00 in0.0 mm 0.00 in0.0 mm
06:45 PM 73.4°F23.0°C 60.0°F15.6°C 63% 6.8 mph ESE10.9 kmh ESE 11.9 mph19.2 kmh 29.99 in1015.6 mb 0.00 in0.0 mm 0.00 in0.0 mm 0.00 in0.0 mm
06:46 PM 73.4°F23.0°C 60.0°F15.6°C 63% 10.9 mph ESE17.5 kmh ESE 10.9 mph17.5 kmh 29.99 in1015.6 mb 0.00 in0.0 mm 0.00 in0.0 mm 0.00 in0.0 mm
06:47 PM 73.4°F23.0°C 60.0°F15.6°C 63% 7.3 mph ESE11.7 kmh ESE 10.9 mph17.5 kmh 29.99 in1015.6 mb 0.00 in0.0 mm 0.00 in0.0 mm 0.00 in0.0 mm
06:48 PM 73.4°F23.0°C 60.0°F15.6°C 63% 5.8 mph ESE9.3 kmh ESE 10.9 mph17.5 kmh 29.99 in1015.6 mb 0.00 in0.0 mm 0.00 in0.0 mm 0.00 in0.0 mm
06:49 PM 73.4°F23.0°C 60.0°F15.6°C 63% 7.3 mph ESE11.7 kmh ESE 10.9 mph17.5 kmh 29.99 in1015.6 mb 0.00 in0.0 mm 0.00 in0.0 mm 0.00 in0.0 mm
06:50 PM 73.4°F23.0°C 60.0°F15.6°C 63% 8.9 mph SE14.3 kmh SE 10.9 mph17.5 kmh 29.99 in1015.6 mb 0.00 in0.0 mm 0.00 in0.0 mm 0.00 in0.0 mm
06:51 PM 73.2°F22.9°C 59.8°F15.4°C 63% 10.9 mph SE17.5 kmh SE 10.9 mph17.5 kmh 29.99 in1015.6 mb 0.00 in0.0 mm 0.00 in0.0 mm 0.00 in0.0 mm
06:52 PM 73.2°F22.9°C 59.8°F15.4°C 63% 13.0 mph SE20.9 kmh SE 13.0 mph20.9 kmh 29.99 in1015.6 mb 0.00 in0.0 mm 0.00 in0.0 mm 0.00 in0.0 mm
06:53 PM 73.2°F22.9°C 59.8°F15.4°C 63% 8.9 mph ESE14.3 kmh ESE 13.0 mph20.9 kmh 29.99 in1015.6 mb 0.00 in0.0 mm 0.00 in0.0 mm 0.00 in0.0 mm
06:54 PM 73.2°F22.9°C 59.8°F15.4°C 63% 3.7 mph SSE6.0 kmh SSE 13.0 mph20.9 kmh 29.99 in1015.6 mb 0.00 in0.0 mm 0.00 in0.0 mm 0.00 in0.0 mm
06:55 PM 73.2°F22.9°C 59.8°F15.4°C 63% 4.7 mph SE7.6 kmh SE 13.0 mph20.9 kmh 29.99 in1015.6 mb 0.00 in0.0 mm 0.00 in0.0 mm 0.00 in0.0 mm
06:56 PM 73.0°F22.8°C 59.6°F15.3°C 63% 6.8 mph SSE10.9 kmh SSE 13.0 mph20.9 kmh 29.99 in1015.6 mb 0.00 in0.0 mm 0.00 in0.0 mm 0.00 in0.0 mm
06:57 PM 73.0°F22.8°C 59.6°F15.3°C 63% 14.0 mph ESE22.5 kmh ESE 14.0 mph22.5 kmh 29.99 in1015.6 mb 0.00 in0.0 mm 0.00 in0.0 mm 0.00 in0.0 mm
06:58 PM 73.0°F22.8°C 59.6°F15.3°C 63% 11.4 mph ESE18.3 kmh ESE 14.0 mph22.5 kmh 29.99 in1015.6 mb 0.00 in0.0 mm 0.00 in0.0 mm 0.00 in0.0 mm
06:59 PM 73.0°F22.8°C 59.6°F15.3°C 63% 5.8 mph SE9.3 kmh SE 14.0 mph22.5 kmh 29.99 in1015.6 mb 0.00 in0.0 mm 0.00 in0.0 mm 0.00 in0.0 mm
07:00 PM 72.9°F22.7°C 59.6°F15.3°C 63% 6.8 mph ESE10.9 kmh ESE 14.0 mph22.5 kmh 29.99 in1015.6 mb 0.00 in0.0 mm 0.00 in0.0 mm 0.00 in0.0 mm
07:01 PM 72.9°F22.7°C 59.6°F15.3°C 63% 4.7 mph SE7.6 kmh SE 14.0 mph22.5 kmh 29.99 in1015.6 mb 0.00 in0.0 mm 0.00 in0.0 mm 0.00 in0.0 mm
07:02 PM 72.9°F22.7°C 59.6°F15.3°C 63% 4.2 mph SSE6.8 kmh SSE 14.0 mph22.5 kmh 29.99 in1015.6 mb 0.00 in0.0 mm 0.00 in0.0 mm 0.00 in0.0 mm
07:03 PM 72.9°F22.7°C 59.6°F15.3°C 63% 7.3 mph ESE11.7 kmh ESE 14.0 mph22.5 kmh 29.99 in1015.6 mb 0.00 in0.0 mm 0.00 in0.0 mm 0.00 in0.0 mm
07:04 PM 72.9°F22.7°C 59.6°F15.3°C 63% 4.2 mph SE6.8 kmh SE 14.0 mph22.5 kmh 29.99 in1015.6 mb 0.00 in0.0 mm 0.00 in0.0 mm 0.00 in0.0 mm
07:05 PM 72.9°F22.7°C 59.6°F15.3°C 63% 4.7 mph ESE7.6 kmh ESE 14.0 mph22.5 kmh 29.99 in1015.6 mb 0.00 in0.0 mm 0.00 in0.0 mm 0.00 in0.0 mm
07:06 PM 72.9°F22.7°C 59.6°F15.3°C 63% 11.4 mph SE18.3 kmh SE 14.0 mph22.5 kmh 29.99 in1015.6 mb 0.00 in0.0 mm 0.00 in0.0 mm 0.00 in0.0 mm
07:07 PM 72.9°F22.7°C 59.6°F15.3°C 63% 8.3 mph ESE13.4 kmh ESE 14.0 mph22.5 kmh 29.99 in1015.6 mb 0.00 in0.0 mm 0.00 in0.0 mm 0.00 in0.0 mm
07:08 PM 72.9°F22.7°C 59.6°F15.3°C 63% 3.2 mph SE5.1 kmh SE 11.4 mph18.3 kmh 29.98 in1015.2 mb 0.00 in0.0 mm 0.00 in0.0 mm 0.00 in0.0 mm
07:09 PM 72.7°F22.6°C 59.4°F15.2°C 63% 7.3 mph SE11.7 kmh SE 11.4 mph18.3 kmh 29.98 in1015.2 mb 0.00 in0.0 mm 0.00 in0.0 mm 0.00 in0.0 mm
07:10 PM 72.7°F22.6°C 59.4°F15.2°C 63% 3.7 mph ESE6.0 kmh ESE 11.4 mph18.3 kmh 29.98 in1015.2 mb 0.00 in0.0 mm 0.00 in0.0 mm 0.00 in0.0 mm
07:11 PM 72.7°F22.6°C 59.4°F15.2°C 63% 4.7 mph SSE7.6 kmh SSE 11.4 mph18.3 kmh 29.98 in1015.2 mb 0.00 in0.0 mm 0.00 in0.0 mm 0.00 in0.0 mm
07:12 PM 72.7°F22.6°C 59.4°F15.2°C 63% 4.2 mph S6.8 kmh S 11.4 mph18.3 kmh 29.98 in1015.2 mb 0.00 in0.0 mm 0.00 in0.0 mm 0.00 in0.0 mm
07:13 PM 72.7°F22.6°C 59.4°F15.2°C 63% 3.2 mph SE5.1 kmh SE 11.4 mph18.3 kmh 29.98 in1015.2 mb 0.00 in0.0 mm 0.00 in0.0 mm 0.00 in0.0 mm
07:14 PM 72.5°F22.5°C 59.2°F15.1°C 63% 3.7 mph SSW6.0 kmh SSW 11.4 mph18.3 kmh 29.98 in1015.2 mb 0.00 in0.0 mm 0.00 in0.0 mm 0.00 in0.0 mm
07:15 PM 72.5°F22.5°C 59.2°F15.1°C 63% 3.7 mph ESE6.0 kmh ESE 11.4 mph18.3 kmh 29.98 in1015.2 mb 0.00 in0.0 mm 0.00 in0.0 mm 0.00 in0.0 mm
07:16 PM 72.5°F22.5°C 59.2°F15.1°C 63% 9.4 mph ESE15.1 kmh ESE 9.4 mph15.1 kmh 29.98 in1015.2 mb 0.00 in0.0 mm 0.00 in0.0 mm 0.00 in0.0 mm
07:17 PM 72.5°F22.5°C 59.2°F15.1°C 63% 3.2 mph SSE5.1 kmh SSE 9.4 mph15.1 kmh 29.98 in1015.2 mb 0.00 in0.0 mm 0.00 in0.0 mm 0.00 in0.0 mm
07:18 PM 72.5°F22.5°C 59.2°F15.1°C 63% 4.2 mph ESE6.8 kmh ESE 9.4 mph15.1 kmh 29.98 in1015.2 mb 0.00 in0.0 mm 0.00 in0.0 mm 0.00 in0.0 mm
07:19 PM 72.5°F22.5°C 59.2°F15.1°C 63% 10.9 mph ESE17.5 kmh ESE 10.9 mph17.5 kmh 29.98 in1015.2 mb 0.00 in0.0 mm 0.00 in0.0 mm 0.00 in0.0 mm
07:20 PM 72.5°F22.5°C 59.2°F15.1°C 63% 5.8 mph ESE9.3 kmh ESE 10.9 mph17.5 kmh 29.99 in1015.6 mb 0.00 in0.0 mm 0.00 in0.0 mm 0.00 in0.0 mm
07:21 PM 72.5°F22.5°C 59.2°F15.1°C 63% 5.3 mph SE8.5 kmh SE 10.9 mph17.5 kmh 29.99 in1015.6 mb 0.00 in0.0 mm 0.00 in0.0 mm 0.00 in0.0 mm
07:22 PM 72.5°F22.5°C 59.6°F15.3°C 64% 7.3 mph SSE11.7 kmh SSE 10.9 mph17.5 kmh 29.99 in1015.6 mb 0.00 in0.0 mm 0.00 in0.0 mm 0.00 in0.0 mm
07:23 PM 72.5°F22.5°C 59.6°F15.3°C 64% 5.3 mph SSE8.5 kmh SSE 10.9 mph17.5 kmh 29.99 in1015.6 mb 0.00 in0.0 mm 0.00 in0.0 mm 0.00 in0.0 mm
07:24 PM 72.5°F22.5°C 59.6°F15.3°C 64% 7.3 mph ESE11.7 kmh ESE 10.9 mph17.5 kmh 29.99 in1015.6 mb 0.00 in0.0 mm 0.00 in0.0 mm 0.00 in0.0 mm
07:25 PM 72.5°F22.5°C 59.6°F15.3°C 64% 9.9 mph ESE15.9 kmh ESE 10.9 mph17.5 kmh 29.99 in1015.6 mb 0.00 in0.0 mm 0.00 in0.0 mm 0.00 in0.0 mm
07:26 PM 72.3°F22.4°C 59.4°F15.2°C 64% 6.8 mph SE10.9 kmh SE 10.9 mph17.5 kmh 29.99 in1015.6 mb 0.00 in0.0 mm 0.00 in0.0 mm 0.00 in0.0 mm
07:27 PM 72.3°F22.4°C 59.4°F15.2°C 64% 6.3 mph ESE10.1 kmh ESE 10.9 mph17.5 kmh 29.99 in1015.6 mb 0.00 in0.0 mm 0.00 in0.0 mm 0.00 in0.0 mm
07:28 PM 72.3°F22.4°C 59.4°F15.2°C 64% 11.4 mph ESE18.3 kmh ESE 11.4 mph18.3 kmh 29.99 in1015.6 mb 0.00 in0.0 mm 0.00 in0.0 mm 0.00 in0.0 mm
07:29 PM 72.3°F22.4°C 59.4°F15.2°C 64% Calm Calm 11.4 mph18.3 kmh 29.99 in1015.6 mb 0.00 in0.0 mm 0.00 in0.0 mm 0.00 in0.0 mm
07:30 PM 72.3°F22.4°C 59.4°F15.2°C 64% Calm Calm 11.4 mph18.3 kmh 29.99 in1015.6 mb 0.00 in0.0 mm 0.00 in0.0 mm 0.00 in0.0 mm
07:31 PM 72.3°F22.4°C 59.4°F15.2°C 64% Calm Calm 11.4 mph18.3 kmh 29.99 in1015.6 mb 0.00 in0.0 mm 0.00 in0.0 mm 0.00 in0.0 mm
07:32 PM 72.3°F22.4°C 59.4°F15.2°C 64% Calm Calm 11.4 mph18.3 kmh 29.99 in1015.6 mb 0.00 in0.0 mm 0.00 in0.0 mm 0.00 in0.0 mm
07:33 PM 72.3°F22.4°C 59.4°F15.2°C 64% Calm Calm 11.4 mph18.3 kmh 29.99 in1015.6 mb 0.00 in0.0 mm 0.00 in0.0 mm 0.00 in0.0 mm
07:34 PM 72.0°F22.2°C 59.6°F15.3°C 65% 3.2 mph ESE5.1 kmh ESE 11.4 mph18.3 kmh 29.99 in1015.6 mb 0.00 in0.0 mm 0.00 in0.0 mm 0.00 in0.0 mm
07:35 PM 72.0°F22.2°C 59.6°F15.3°C 65% 3.2 mph SE5.1 kmh SE 3.2 mph5.1 kmh 29.99 in1015.6 mb 0.00 in0.0 mm 0.00 in0.0 mm 0.00 in0.0 mm
07:36 PM 72.0°F22.2°C 59.6°F15.3°C 65% 3.2 mph SSE5.1 kmh SSE 6.8 mph10.9 kmh 29.99 in1015.6 mb 0.00 in0.0 mm 0.00 in0.0 mm 0.00 in0.0 mm
07:37 PM 72.0°F22.2°C 59.6°F15.3°C 65% 5.8 mph ESE9.3 kmh ESE 6.8 mph10.9 kmh 29.99 in1015.6 mb 0.00 in0.0 mm 0.00 in0.0 mm 0.00 in0.0 mm
07:38 PM 72.0°F22.2°C 59.6°F15.3°C 65% 6.8 mph SSE10.9 kmh SSE 6.8 mph10.9 kmh 29.99 in1015.6 mb 0.00 in0.0 mm 0.00 in0.0 mm 0.00 in0.0 mm
07:39 PM 72.0°F22.2°C 59.6°F15.3°C 65% 3.7 mph SSE6.0 kmh SSE 6.8 mph10.9 kmh 29.99 in1015.6 mb 0.00 in0.0 mm 0.00 in0.0 mm 0.00 in0.0 mm
07:40 PM 72.0°F22.2°C 59.6°F15.3°C 65% 3.2 mph SSE5.1 kmh SSE 6.8 mph10.9 kmh 29.99 in1015.6 mb 0.00 in0.0 mm 0.00 in0.0 mm 0.00 in0.0 mm
07:41 PM 72.0°F22.2°C 59.6°F15.3°C 65% 2.7 mph SSE4.3 kmh SSE 6.8 mph10.9 kmh 29.99 in1015.6 mb 0.00 in0.0 mm 0.00 in0.0 mm 0.00 in0.0 mm
07:42 PM 72.0°F22.2°C 59.6°F15.3°C 65% 4.2 mph SSE6.8 kmh SSE 6.8 mph10.9 kmh 29.99 in1015.6 mb 0.00 in0.0 mm 0.00 in0.0 mm 0.00 in0.0 mm
07:43 PM 72.0°F22.2°C 59.6°F15.3°C 65% 4.2 mph S6.8 kmh S 6.8 mph10.9 kmh 29.99 in1015.6 mb 0.00 in0.0 mm 0.00 in0.0 mm 0.00 in0.0 mm
07:44 PM 71.8°F22.1°C 59.4°F15.2°C 65% 3.2 mph SE5.1 kmh SE 6.8 mph10.9 kmh 29.99 in1015.6 mb 0.00 in0.0 mm 0.00 in0.0 mm 0.00 in0.0 mm
07:45 PM 71.8°F22.1°C 59.4°F15.2°C 65% 6.8 mph S10.9 kmh S 6.8 mph10.9 kmh 29.99 in1015.6 mb 0.00 in0.0 mm 0.00 in0.0 mm 0.00 in0.0 mm
07:46 PM 71.8°F22.1°C 59.4°F15.2°C 65% 8.9 mph S14.3 kmh S 10.9 mph17.5 kmh 29.99 in1015.6 mb 0.00 in0.0 mm 0.00 in0.0 mm 0.00 in0.0 mm
07:47 PM 71.8°F22.1°C 59.4°F15.2°C 65% 7.8 mph SSE12.6 kmh SSE 10.9 mph17.5 kmh 29.99 in1015.6 mb 0.00 in0.0 mm 0.00 in0.0 mm 0.00 in0.0 mm
07:48 PM 71.8°F22.1°C 59.4°F15.2°C 65% 2.7 mph SSE4.3 kmh SSE 10.9 mph17.5 kmh 29.99 in1015.6 mb 0.00 in0.0 mm 0.00 in0.0 mm 0.00 in0.0 mm
07:49 PM 71.8°F22.1°C 59.4°F15.2°C 65% 3.2 mph E5.1 kmh E 10.9 mph17.5 kmh 29.99 in1015.6 mb 0.00 in0.0 mm 0.00 in0.0 mm 0.00 in0.0 mm
07:50 PM 71.8°F22.1°C 59.4°F15.2°C 65% 4.2 mph SE6.8 kmh SE 10.9 mph17.5 kmh 29.99 in1015.6 mb 0.00 in0.0 mm 0.00 in0.0 mm 0.00 in